<?xml version="1.0" encoding="UTF-8" standalone="no" ?>
<gpx xmlns="http://www.topografix.com/GPX/1/1" xmlns:xsi="http://www.w3.org/2001/XMLSchema-instance" xsi:schemaLocation="http://www.topografix.com/GPX/1/1 http://www.topografix.com/GPX/1/1/gpx.xsd" version="1.1" creator="VisuGPX - https://www.visugpx.com">
  <metadata>
    <name>Randonnée en forêt de bord</name>
    <desc><![CDATA[Départ de Pont de l\'Arche puis marche en forêt et retour par les Damps]]></desc>
  </metadata>
  <wpt lat="49.30498" lon="1.15929">
    <ele>20</ele>
  </wpt>
  <wpt lat="49.30499" lon="1.15933">
    <ele>15</ele>
    <name><![CDATA[WP 02ARCHE]]></name>
  </wpt>
  <trk>
    <name><![CDATA[Randonnée en forêt de bord_1]]></name>
    <trkseg>
      <trkpt lat="49.30499" lon="1.15933">
        <ele>15</ele>
        <time>2012-04-03T11:43:21Z</time>
      </trkpt>
      <trkpt lat="49.30496" lon="1.15947">
        <ele>20</ele>
        <time>2012-04-03T11:50:47Z</time>
      </trkpt>
      <trkpt lat="49.30493" lon="1.15961">
        <ele>20</ele>
        <time>2012-04-03T11:54:11Z</time>
      </trkpt>
      <trkpt lat="49.30499" lon="1.15971">
        <ele>20</ele>
        <time>2012-04-03T11:54:21Z</time>
      </trkpt>
      <trkpt lat="49.30508" lon="1.15966">
        <ele>14</ele>
        <time>2012-04-03T11:54:30Z</time>
      </trkpt>
      <trkpt lat="49.30513" lon="1.15954">
        <ele>14</ele>
        <time>2012-04-03T11:54:39Z</time>
      </trkpt>
      <trkpt lat="49.30516" lon="1.1594">
        <ele>14</ele>
        <time>2012-04-03T11:54:48Z</time>
      </trkpt>
      <trkpt lat="49.3052" lon="1.15927">
        <ele>14</ele>
        <time>2012-04-03T11:54:56Z</time>
      </trkpt>
      <trkpt lat="49.30523" lon="1.15913">
        <ele>14</ele>
        <time>2012-04-03T11:55:05Z</time>
      </trkpt>
      <trkpt lat="49.30524" lon="1.15898">
        <ele>14</ele>
        <time>2012-04-03T11:55:15Z</time>
      </trkpt>
      <trkpt lat="49.30528" lon="1.15884">
        <ele>14</ele>
        <time>2012-04-03T11:55:22Z</time>
      </trkpt>
      <trkpt lat="49.30534" lon="1.15873">
        <ele>14</ele>
        <time>2012-04-03T11:55:31Z</time>
      </trkpt>
      <trkpt lat="49.30541" lon="1.15864">
        <ele>14</ele>
        <time>2012-04-03T11:55:39Z</time>
      </trkpt>
      <trkpt lat="49.30547" lon="1.15853">
        <ele>14</ele>
        <time>2012-04-03T11:55:46Z</time>
      </trkpt>
      <trkpt lat="49.30553" lon="1.15842">
        <ele>14</ele>
        <time>2012-04-03T11:55:54Z</time>
      </trkpt>
      <trkpt lat="49.30559" lon="1.15831">
        <ele>14</ele>
        <time>2012-04-03T11:56:01Z</time>
      </trkpt>
      <trkpt lat="49.30565" lon="1.15818">
        <ele>14</ele>
        <time>2012-04-03T11:56:09Z</time>
      </trkpt>
      <trkpt lat="49.3057" lon="1.15805">
        <ele>14</ele>
        <time>2012-04-03T11:56:17Z</time>
      </trkpt>
      <trkpt lat="49.30575" lon="1.15793">
        <ele>14</ele>
        <time>2012-04-03T11:56:25Z</time>
      </trkpt>
      <trkpt lat="49.30581" lon="1.1578">
        <ele>14</ele>
        <time>2012-04-03T11:56:33Z</time>
      </trkpt>
      <trkpt lat="49.30585" lon="1.15767">
        <ele>14</ele>
        <time>2012-04-03T11:56:41Z</time>
      </trkpt>
      <trkpt lat="49.30589" lon="1.15753">
        <ele>14</ele>
        <time>2012-04-03T11:56:49Z</time>
      </trkpt>
      <trkpt lat="49.30597" lon="1.15746">
        <ele>8</ele>
        <time>2012-04-03T11:57:10Z</time>
      </trkpt>
      <trkpt lat="49.30601" lon="1.15732">
        <ele>8</ele>
        <time>2012-04-03T11:57:19Z</time>
      </trkpt>
      <trkpt lat="49.30604" lon="1.15717">
        <ele>8</ele>
        <time>2012-04-03T11:57:28Z</time>
      </trkpt>
      <trkpt lat="49.30608" lon="1.15704">
        <ele>8</ele>
        <time>2012-04-03T11:57:37Z</time>
      </trkpt>
      <trkpt lat="49.3061" lon="1.1569">
        <ele>8</ele>
        <time>2012-04-03T11:57:45Z</time>
      </trkpt>
      <trkpt lat="49.30612" lon="1.15675">
        <ele>8</ele>
        <time>2012-04-03T11:57:54Z</time>
      </trkpt>
      <trkpt lat="49.30615" lon="1.15661">
        <ele>8</ele>
        <time>2012-04-03T11:58:03Z</time>
      </trkpt>
      <trkpt lat="49.30618" lon="1.15646">
        <ele>8</ele>
        <time>2012-04-03T11:58:11Z</time>
      </trkpt>
      <trkpt lat="49.3062" lon="1.15632">
        <ele>8</ele>
        <time>2012-04-03T11:58:19Z</time>
      </trkpt>
      <trkpt lat="49.30623" lon="1.15619">
        <ele>8</ele>
        <time>2012-04-03T11:58:26Z</time>
      </trkpt>
      <trkpt lat="49.30626" lon="1.15604">
        <ele>8</ele>
        <time>2012-04-03T11:58:34Z</time>
      </trkpt>
      <trkpt lat="49.30629" lon="1.15591">
        <ele>8</ele>
        <time>2012-04-03T11:58:42Z</time>
      </trkpt>
      <trkpt lat="49.3063" lon="1.15576">
        <ele>8</ele>
        <time>2012-04-03T11:58:50Z</time>
      </trkpt>
      <trkpt lat="49.30633" lon="1.15562">
        <ele>2</ele>
        <time>2012-04-03T11:58:58Z</time>
      </trkpt>
      <trkpt lat="49.30636" lon="1.15548">
        <ele>2</ele>
        <time>2012-04-03T11:59:07Z</time>
      </trkpt>
      <trkpt lat="49.3064" lon="1.15534">
        <ele>2</ele>
        <time>2012-04-03T11:59:15Z</time>
      </trkpt>
      <trkpt lat="49.30645" lon="1.15521">
        <ele>2</ele>
        <time>2012-04-03T11:59:23Z</time>
      </trkpt>
      <trkpt lat="49.30649" lon="1.15508">
        <ele>2</ele>
        <time>2012-04-03T11:59:31Z</time>
      </trkpt>
      <trkpt lat="49.30654" lon="1.15496">
        <ele>2</ele>
        <time>2012-04-03T11:59:39Z</time>
      </trkpt>
      <trkpt lat="49.30657" lon="1.15482">
        <ele>2</ele>
        <time>2012-04-03T11:59:47Z</time>
      </trkpt>
      <trkpt lat="49.30658" lon="1.15468">
        <ele>2</ele>
        <time>2012-04-03T11:59:55Z</time>
      </trkpt>
      <trkpt lat="49.30658" lon="1.15453">
        <ele>2</ele>
        <time>2012-04-03T12:00:03Z</time>
      </trkpt>
      <trkpt lat="49.30658" lon="1.15439">
        <ele>2</ele>
        <time>2012-04-03T12:00:11Z</time>
      </trkpt>
      <trkpt lat="49.30656" lon="1.15425">
        <ele>2</ele>
        <time>2012-04-03T12:00:19Z</time>
      </trkpt>
      <trkpt lat="49.30653" lon="1.15412">
        <ele>2</ele>
        <time>2012-04-03T12:00:26Z</time>
      </trkpt>
      <trkpt lat="49.30653" lon="1.15397">
        <ele>2</ele>
        <time>2012-04-03T12:00:34Z</time>
      </trkpt>
      <trkpt lat="49.30651" lon="1.15381">
        <ele>2</ele>
        <time>2012-04-03T12:00:42Z</time>
      </trkpt>
      <trkpt lat="49.30648" lon="1.15367">
        <ele>2</ele>
        <time>2012-04-03T12:00:50Z</time>
      </trkpt>
      <trkpt lat="49.30645" lon="1.15353">
        <ele>2</ele>
        <time>2012-04-03T12:00:58Z</time>
      </trkpt>
      <trkpt lat="49.30644" lon="1.15337">
        <ele>2</ele>
        <time>2012-04-03T12:01:06Z</time>
      </trkpt>
      <trkpt lat="49.30642" lon="1.15323">
        <ele>2</ele>
        <time>2012-04-03T12:01:14Z</time>
      </trkpt>
      <trkpt lat="49.3064" lon="1.15308">
        <ele>7</ele>
        <time>2012-04-03T12:01:22Z</time>
      </trkpt>
      <trkpt lat="49.30638" lon="1.15294">
        <ele>7</ele>
        <time>2012-04-03T12:01:29Z</time>
      </trkpt>
      <trkpt lat="49.30636" lon="1.1528">
        <ele>7</ele>
        <time>2012-04-03T12:01:37Z</time>
      </trkpt>
      <trkpt lat="49.30634" lon="1.15266">
        <ele>7</ele>
        <time>2012-04-03T12:01:45Z</time>
      </trkpt>
      <trkpt lat="49.30634" lon="1.1525">
        <ele>7</ele>
        <time>2012-04-03T12:01:54Z</time>
      </trkpt>
      <trkpt lat="49.30634" lon="1.15236">
        <ele>7</ele>
        <time>2012-04-03T12:02:01Z</time>
      </trkpt>
      <trkpt lat="49.30632" lon="1.15222">
        <ele>7</ele>
        <time>2012-04-03T12:02:09Z</time>
      </trkpt>
      <trkpt lat="49.30633" lon="1.15206">
        <ele>7</ele>
        <time>2012-04-03T12:02:17Z</time>
      </trkpt>
      <trkpt lat="49.30633" lon="1.15192">
        <ele>7</ele>
        <time>2012-04-03T12:02:25Z</time>
      </trkpt>
      <trkpt lat="49.30635" lon="1.15177">
        <ele>7</ele>
        <time>2012-04-03T12:02:33Z</time>
      </trkpt>
      <trkpt lat="49.30636" lon="1.15162">
        <ele>7</ele>
        <time>2012-04-03T12:02:41Z</time>
      </trkpt>
      <trkpt lat="49.30637" lon="1.15148">
        <ele>7</ele>
        <time>2012-04-03T12:02:49Z</time>
      </trkpt>
      <trkpt lat="49.30635" lon="1.15133">
        <ele>7</ele>
        <time>2012-04-03T12:02:57Z</time>
      </trkpt>
      <trkpt lat="49.30633" lon="1.15118">
        <ele>7</ele>
        <time>2012-04-03T12:03:05Z</time>
      </trkpt>
      <trkpt lat="49.30633" lon="1.15104">
        <ele>7</ele>
        <time>2012-04-03T12:03:17Z</time>
      </trkpt>
      <trkpt lat="49.30636" lon="1.1509">
        <ele>7</ele>
        <time>2012-04-03T12:03:26Z</time>
      </trkpt>
      <trkpt lat="49.30636" lon="1.15075">
        <ele>7</ele>
        <time>2012-04-03T12:03:35Z</time>
      </trkpt>
      <trkpt lat="49.30636" lon="1.15061">
        <ele>7</ele>
        <time>2012-04-03T12:03:43Z</time>
      </trkpt>
      <trkpt lat="49.30633" lon="1.15046">
        <ele>7</ele>
        <time>2012-04-03T12:03:57Z</time>
      </trkpt>
      <trkpt lat="49.30634" lon="1.15031">
        <ele>7</ele>
        <time>2012-04-03T12:04:06Z</time>
      </trkpt>
      <trkpt lat="49.30635" lon="1.15017">
        <ele>7</ele>
        <time>2012-04-03T12:04:14Z</time>
      </trkpt>
      <trkpt lat="49.30637" lon="1.15001">
        <ele>7</ele>
        <time>2012-04-03T12:04:23Z</time>
      </trkpt>
      <trkpt lat="49.30638" lon="1.14986">
        <ele>7</ele>
        <time>2012-04-03T12:04:32Z</time>
      </trkpt>
      <trkpt lat="49.30639" lon="1.14971">
        <ele>7</ele>
        <time>2012-04-03T12:04:40Z</time>
      </trkpt>
      <trkpt lat="49.30639" lon="1.14957">
        <ele>7</ele>
        <time>2012-04-03T12:04:48Z</time>
      </trkpt>
      <trkpt lat="49.3064" lon="1.14942">
        <ele>7</ele>
        <time>2012-04-03T12:04:55Z</time>
      </trkpt>
      <trkpt lat="49.30641" lon="1.14928">
        <ele>13</ele>
        <time>2012-04-03T12:05:03Z</time>
      </trkpt>
      <trkpt lat="49.30641" lon="1.14913">
        <ele>13</ele>
        <time>2012-04-03T12:05:11Z</time>
      </trkpt>
      <trkpt lat="49.3064" lon="1.14899">
        <ele>13</ele>
        <time>2012-04-03T12:05:19Z</time>
      </trkpt>
      <trkpt lat="49.30639" lon="1.14885">
        <ele>13</ele>
        <time>2012-04-03T12:05:27Z</time>
      </trkpt>
      <trkpt lat="49.30637" lon="1.1487">
        <ele>13</ele>
        <time>2012-04-03T12:05:35Z</time>
      </trkpt>
      <trkpt lat="49.30633" lon="1.14856">
        <ele>13</ele>
        <time>2012-04-03T12:05:43Z</time>
      </trkpt>
      <trkpt lat="49.3063" lon="1.14842">
        <ele>13</ele>
        <time>2012-04-03T12:05:51Z</time>
      </trkpt>
      <trkpt lat="49.30628" lon="1.14829">
        <ele>13</ele>
        <time>2012-04-03T12:05:59Z</time>
      </trkpt>
      <trkpt lat="49.30626" lon="1.14814">
        <ele>13</ele>
        <time>2012-04-03T12:06:08Z</time>
      </trkpt>
      <trkpt lat="49.30623" lon="1.14798">
        <ele>13</ele>
        <time>2012-04-03T12:06:17Z</time>
      </trkpt>
      <trkpt lat="49.30622" lon="1.14783">
        <ele>13</ele>
        <time>2012-04-03T12:06:26Z</time>
      </trkpt>
      <trkpt lat="49.3062" lon="1.14768">
        <ele>13</ele>
        <time>2012-04-03T12:06:34Z</time>
      </trkpt>
      <trkpt lat="49.30618" lon="1.14754">
        <ele>13</ele>
        <time>2012-04-03T12:06:42Z</time>
      </trkpt>
      <trkpt lat="49.30617" lon="1.14739">
        <ele>13</ele>
        <time>2012-04-03T12:06:50Z</time>
      </trkpt>
      <trkpt lat="49.30614" lon="1.14726">
        <ele>13</ele>
        <time>2012-04-03T12:06:58Z</time>
      </trkpt>
      <trkpt lat="49.30614" lon="1.1471">
        <ele>20</ele>
        <time>2012-04-03T12:07:07Z</time>
      </trkpt>
      <trkpt lat="49.30607" lon="1.14701">
        <ele>20</ele>
        <time>2012-04-03T12:07:15Z</time>
      </trkpt>
      <trkpt lat="49.30601" lon="1.14691">
        <ele>20</ele>
        <time>2012-04-03T12:07:23Z</time>
      </trkpt>
      <trkpt lat="49.30591" lon="1.14685">
        <ele>20</ele>
        <time>2012-04-03T12:07:33Z</time>
      </trkpt>
      <trkpt lat="49.3058" lon="1.14685">
        <ele>20</ele>
        <time>2012-04-03T12:07:42Z</time>
      </trkpt>
      <trkpt lat="49.3057" lon="1.14685">
        <ele>20</ele>
        <time>2012-04-03T12:07:51Z</time>
      </trkpt>
      <trkpt lat="49.30561" lon="1.14686">
        <ele>20</ele>
        <time>2012-04-03T12:08:00Z</time>
      </trkpt>
      <trkpt lat="49.3055" lon="1.14685">
        <ele>20</ele>
        <time>2012-04-03T12:08:09Z</time>
      </trkpt>
      <trkpt lat="49.3054" lon="1.14687">
        <ele>20</ele>
        <time>2012-04-03T12:08:16Z</time>
      </trkpt>
      <trkpt lat="49.3053" lon="1.14687">
        <ele>20</ele>
        <time>2012-04-03T12:08:25Z</time>
      </trkpt>
      <trkpt lat="49.30522" lon="1.14691">
        <ele>20</ele>
        <time>2012-04-03T12:08:40Z</time>
      </trkpt>
      <trkpt lat="49.30516" lon="1.14679">
        <ele>20</ele>
        <time>2012-04-03T12:08:52Z</time>
      </trkpt>
      <trkpt lat="49.30509" lon="1.1467">
        <ele>20</ele>
        <time>2012-04-03T12:09:03Z</time>
      </trkpt>
      <trkpt lat="49.305" lon="1.14664">
        <ele>20</ele>
        <time>2012-04-03T12:09:11Z</time>
      </trkpt>
      <trkpt lat="49.30491" lon="1.1466">
        <ele>20</ele>
        <time>2012-04-03T12:09:18Z</time>
      </trkpt>
      <trkpt lat="49.30481" lon="1.14655">
        <ele>20</ele>
        <time>2012-04-03T12:09:26Z</time>
      </trkpt>
      <trkpt lat="49.30472" lon="1.14649">
        <ele>20</ele>
        <time>2012-04-03T12:09:33Z</time>
      </trkpt>
      <trkpt lat="49.30463" lon="1.14641">
        <ele>20</ele>
        <time>2012-04-03T12:09:42Z</time>
      </trkpt>
      <trkpt lat="49.30455" lon="1.14632">
        <ele>20</ele>
        <time>2012-04-03T12:09:50Z</time>
      </trkpt>
      <trkpt lat="49.30448" lon="1.14621">
        <ele>20</ele>
        <time>2012-04-03T12:09:58Z</time>
      </trkpt>
      <trkpt lat="49.3044" lon="1.14612">
        <ele>20</ele>
        <time>2012-04-03T12:10:06Z</time>
      </trkpt>
      <trkpt lat="49.30433" lon="1.14602">
        <ele>20</ele>
        <time>2012-04-03T12:10:14Z</time>
      </trkpt>
      <trkpt lat="49.30425" lon="1.14592">
        <ele>20</ele>
        <time>2012-04-03T12:10:22Z</time>
      </trkpt>
      <trkpt lat="49.30418" lon="1.14584">
        <ele>20</ele>
        <time>2012-04-03T12:10:29Z</time>
      </trkpt>
      <trkpt lat="49.30411" lon="1.14575">
        <ele>20</ele>
        <time>2012-04-03T12:10:36Z</time>
      </trkpt>
      <trkpt lat="49.30404" lon="1.14564">
        <ele>20</ele>
        <time>2012-04-03T12:10:44Z</time>
      </trkpt>
      <trkpt lat="49.30397" lon="1.14555">
        <ele>20</ele>
        <time>2012-04-03T12:10:52Z</time>
      </trkpt>
      <trkpt lat="49.30391" lon="1.14544">
        <ele>20</ele>
        <time>2012-04-03T12:11:00Z</time>
      </trkpt>
      <trkpt lat="49.30385" lon="1.14533">
        <ele>20</ele>
        <time>2012-04-03T12:11:08Z</time>
      </trkpt>
      <trkpt lat="49.30377" lon="1.14524">
        <ele>20</ele>
        <time>2012-04-03T12:11:15Z</time>
      </trkpt>
      <trkpt lat="49.3037" lon="1.14516">
        <ele>20</ele>
        <time>2012-04-03T12:11:22Z</time>
      </trkpt>
      <trkpt lat="49.30363" lon="1.14506">
        <ele>20</ele>
        <time>2012-04-03T12:11:30Z</time>
      </trkpt>
      <trkpt lat="49.30356" lon="1.14497">
        <ele>20</ele>
        <time>2012-04-03T12:11:37Z</time>
      </trkpt>
      <trkpt lat="49.30351" lon="1.14485">
        <ele>20</ele>
        <time>2012-04-03T12:11:45Z</time>
      </trkpt>
      <trkpt lat="49.30345" lon="1.14473">
        <ele>20</ele>
        <time>2012-04-03T12:11:53Z</time>
      </trkpt>
      <trkpt lat="49.30338" lon="1.14462">
        <ele>20</ele>
        <time>2012-04-03T12:12:01Z</time>
      </trkpt>
      <trkpt lat="49.30332" lon="1.14451">
        <ele>20</ele>
        <time>2012-04-03T12:12:09Z</time>
      </trkpt>
      <trkpt lat="49.30327" lon="1.14438">
        <ele>20</ele>
        <time>2012-04-03T12:12:17Z</time>
      </trkpt>
      <trkpt lat="49.30323" lon="1.14426">
        <ele>20</ele>
        <time>2012-04-03T12:12:25Z</time>
      </trkpt>
      <trkpt lat="49.30317" lon="1.14412">
        <ele>25</ele>
        <time>2012-04-03T12:12:34Z</time>
      </trkpt>
      <trkpt lat="49.30312" lon="1.14401">
        <ele>25</ele>
        <time>2012-04-03T12:12:42Z</time>
      </trkpt>
      <trkpt lat="49.30308" lon="1.14388">
        <ele>25</ele>
        <time>2012-04-03T12:12:49Z</time>
      </trkpt>
      <trkpt lat="49.30302" lon="1.14375">
        <ele>25</ele>
        <time>2012-04-03T12:12:57Z</time>
      </trkpt>
      <trkpt lat="49.30297" lon="1.14364">
        <ele>25</ele>
        <time>2012-04-03T12:13:05Z</time>
      </trkpt>
      <trkpt lat="49.30291" lon="1.1435">
        <ele>25</ele>
        <time>2012-04-03T12:13:14Z</time>
      </trkpt>
      <trkpt lat="49.30287" lon="1.14338">
        <ele>25</ele>
        <time>2012-04-03T12:13:22Z</time>
      </trkpt>
      <trkpt lat="49.30283" lon="1.14323">
        <ele>25</ele>
        <time>2012-04-03T12:13:30Z</time>
      </trkpt>
      <trkpt lat="49.3028" lon="1.1431">
        <ele>25</ele>
        <time>2012-04-03T12:13:38Z</time>
      </trkpt>
      <trkpt lat="49.30276" lon="1.14295">
        <ele>25</ele>
        <time>2012-04-03T12:13:46Z</time>
      </trkpt>
      <trkpt lat="49.30273" lon="1.14281">
        <ele>25</ele>
        <time>2012-04-03T12:13:54Z</time>
      </trkpt>
      <trkpt lat="49.30271" lon="1.14266">
        <ele>25</ele>
        <time>2012-04-03T12:14:02Z</time>
      </trkpt>
      <trkpt lat="49.30271" lon="1.14251">
        <ele>25</ele>
        <time>2012-04-03T12:14:10Z</time>
      </trkpt>
      <trkpt lat="49.30269" lon="1.14236">
        <ele>31</ele>
        <time>2012-04-03T12:14:18Z</time>
      </trkpt>
      <trkpt lat="49.30267" lon="1.14222">
        <ele>31</ele>
        <time>2012-04-03T12:14:26Z</time>
      </trkpt>
      <trkpt lat="49.30265" lon="1.14206">
        <ele>31</ele>
        <time>2012-04-03T12:14:34Z</time>
      </trkpt>
      <trkpt lat="49.30263" lon="1.14191">
        <ele>31</ele>
        <time>2012-04-03T12:14:42Z</time>
      </trkpt>
      <trkpt lat="49.30261" lon="1.14177">
        <ele>31</ele>
        <time>2012-04-03T12:14:50Z</time>
      </trkpt>
      <trkpt lat="49.3026" lon="1.14162">
        <ele>31</ele>
        <time>2012-04-03T12:14:58Z</time>
      </trkpt>
      <trkpt lat="49.30259" lon="1.14147">
        <ele>31</ele>
        <time>2012-04-03T12:15:06Z</time>
      </trkpt>
      <trkpt lat="49.30257" lon="1.14133">
        <ele>36</ele>
        <time>2012-04-03T12:15:14Z</time>
      </trkpt>
      <trkpt lat="49.30254" lon="1.14119">
        <ele>36</ele>
        <time>2012-04-03T12:15:22Z</time>
      </trkpt>
      <trkpt lat="49.30252" lon="1.14104">
        <ele>36</ele>
        <time>2012-04-03T12:15:30Z</time>
      </trkpt>
      <trkpt lat="49.3025" lon="1.14091">
        <ele>36</ele>
        <time>2012-04-03T12:15:37Z</time>
      </trkpt>
      <trkpt lat="49.30247" lon="1.14075">
        <ele>36</ele>
        <time>2012-04-03T12:15:45Z</time>
      </trkpt>
      <trkpt lat="49.30245" lon="1.14061">
        <ele>36</ele>
        <time>2012-04-03T12:15:53Z</time>
      </trkpt>
      <trkpt lat="49.30243" lon="1.14046">
        <ele>36</ele>
        <time>2012-04-03T12:16:01Z</time>
      </trkpt>
      <trkpt lat="49.3024" lon="1.14032">
        <ele>36</ele>
        <time>2012-04-03T12:16:09Z</time>
      </trkpt>
      <trkpt lat="49.30236" lon="1.1402">
        <ele>31</ele>
        <time>2012-04-03T12:16:16Z</time>
      </trkpt>
      <trkpt lat="49.30232" lon="1.14006">
        <ele>31</ele>
        <time>2012-04-03T12:16:24Z</time>
      </trkpt>
      <trkpt lat="49.30229" lon="1.13993">
        <ele>31</ele>
        <time>2012-04-03T12:16:31Z</time>
      </trkpt>
      <trkpt lat="49.30224" lon="1.13978">
        <ele>31</ele>
        <time>2012-04-03T12:16:39Z</time>
      </trkpt>
      <trkpt lat="49.3022" lon="1.13966">
        <ele>31</ele>
        <time>2012-04-03T12:16:46Z</time>
      </trkpt>
      <trkpt lat="49.30217" lon="1.13952">
        <ele>31</ele>
        <time>2012-04-03T12:16:54Z</time>
      </trkpt>
      <trkpt lat="49.30214" lon="1.13939">
        <ele>31</ele>
        <time>2012-04-03T12:17:01Z</time>
      </trkpt>
      <trkpt lat="49.30213" lon="1.13924">
        <ele>31</ele>
        <time>2012-04-03T12:17:09Z</time>
      </trkpt>
      <trkpt lat="49.30212" lon="1.13909">
        <ele>31</ele>
        <time>2012-04-03T12:17:17Z</time>
      </trkpt>
      <trkpt lat="49.30213" lon="1.13894">
        <ele>31</ele>
        <time>2012-04-03T12:17:25Z</time>
      </trkpt>
      <trkpt lat="49.30213" lon="1.13879">
        <ele>31</ele>
        <time>2012-04-03T12:17:33Z</time>
      </trkpt>
      <trkpt lat="49.30213" lon="1.13864">
        <ele>31</ele>
        <time>2012-04-03T12:17:41Z</time>
      </trkpt>
      <trkpt lat="49.30213" lon="1.13849">
        <ele>31</ele>
        <time>2012-04-03T12:17:49Z</time>
      </trkpt>
      <trkpt lat="49.30213" lon="1.13834">
        <ele>31</ele>
        <time>2012-04-03T12:17:58Z</time>
      </trkpt>
      <trkpt lat="49.30206" lon="1.13823">
        <ele>22</ele>
        <time>2012-04-03T12:18:06Z</time>
      </trkpt>
      <trkpt lat="49.30207" lon="1.13809">
        <ele>22</ele>
        <time>2012-04-03T12:18:15Z</time>
      </trkpt>
      <trkpt lat="49.30206" lon="1.13793">
        <ele>22</ele>
        <time>2012-04-03T12:18:23Z</time>
      </trkpt>
      <trkpt lat="49.30203" lon="1.13778">
        <ele>22</ele>
        <time>2012-04-03T12:18:31Z</time>
      </trkpt>
      <trkpt lat="49.30203" lon="1.13763">
        <ele>22</ele>
        <time>2012-04-03T12:18:40Z</time>
      </trkpt>
      <trkpt lat="49.30202" lon="1.13748">
        <ele>28</ele>
        <time>2012-04-03T12:18:49Z</time>
      </trkpt>
      <trkpt lat="49.30201" lon="1.13734">
        <ele>28</ele>
        <time>2012-04-03T12:18:58Z</time>
      </trkpt>
      <trkpt lat="49.30199" lon="1.1372">
        <ele>34</ele>
        <time>2012-04-03T12:19:08Z</time>
      </trkpt>
      <trkpt lat="49.30197" lon="1.13704">
        <ele>34</ele>
        <time>2012-04-03T12:19:17Z</time>
      </trkpt>
      <trkpt lat="49.30194" lon="1.1369">
        <ele>34</ele>
        <time>2012-04-03T12:19:26Z</time>
      </trkpt>
      <trkpt lat="49.30185" lon="1.13685">
        <ele>34</ele>
        <time>2012-04-03T12:19:35Z</time>
      </trkpt>
      <trkpt lat="49.30176" lon="1.13684">
        <ele>34</ele>
        <time>2012-04-03T12:19:43Z</time>
      </trkpt>
      <trkpt lat="49.30167" lon="1.13676">
        <ele>34</ele>
        <time>2012-04-03T12:19:58Z</time>
      </trkpt>
      <trkpt lat="49.30158" lon="1.13675">
        <ele>26</ele>
        <time>2012-04-03T12:20:31Z</time>
      </trkpt>
      <trkpt lat="49.30149" lon="1.13679">
        <ele>26</ele>
        <time>2012-04-03T12:20:38Z</time>
      </trkpt>
      <trkpt lat="49.30139" lon="1.1368">
        <ele>26</ele>
        <time>2012-04-03T12:20:45Z</time>
      </trkpt>
      <trkpt lat="49.3013" lon="1.13677">
        <ele>35</ele>
        <time>2012-04-03T12:20:54Z</time>
      </trkpt>
      <trkpt lat="49.3012" lon="1.13676">
        <ele>35</ele>
        <time>2012-04-03T12:20:59Z</time>
      </trkpt>
      <trkpt lat="49.3011" lon="1.13676">
        <ele>35</ele>
        <time>2012-04-03T12:21:07Z</time>
      </trkpt>
      <trkpt lat="49.301" lon="1.13675">
        <ele>35</ele>
        <time>2012-04-03T12:21:14Z</time>
      </trkpt>
      <trkpt lat="49.3009" lon="1.13674">
        <ele>35</ele>
        <time>2012-04-03T12:21:20Z</time>
      </trkpt>
      <trkpt lat="49.30081" lon="1.13669">
        <ele>35</ele>
        <time>2012-04-03T12:21:27Z</time>
      </trkpt>
      <trkpt lat="49.30071" lon="1.1367">
        <ele>42</ele>
        <time>2012-04-03T12:21:34Z</time>
      </trkpt>
      <trkpt lat="49.30061" lon="1.13672">
        <ele>42</ele>
        <time>2012-04-03T12:21:41Z</time>
      </trkpt>
      <trkpt lat="49.30051" lon="1.13669">
        <ele>42</ele>
        <time>2012-04-03T12:21:49Z</time>
      </trkpt>
      <trkpt lat="49.3004" lon="1.1367">
        <ele>42</ele>
        <time>2012-04-03T12:21:55Z</time>
      </trkpt>
      <trkpt lat="49.30031" lon="1.13667">
        <ele>51</ele>
        <time>2012-04-03T12:22:04Z</time>
      </trkpt>
      <trkpt lat="49.30021" lon="1.1366">
        <ele>40</ele>
        <time>2012-04-03T12:22:09Z</time>
      </trkpt>
      <trkpt lat="49.30012" lon="1.13656">
        <ele>40</ele>
        <time>2012-04-03T12:22:15Z</time>
      </trkpt>
      <trkpt lat="49.30002" lon="1.13657">
        <ele>40</ele>
        <time>2012-04-03T12:22:21Z</time>
      </trkpt>
      <trkpt lat="49.29992" lon="1.13653">
        <ele>32</ele>
        <time>2012-04-03T12:22:26Z</time>
      </trkpt>
      <trkpt lat="49.29982" lon="1.13651">
        <ele>32</ele>
        <time>2012-04-03T12:22:33Z</time>
      </trkpt>
      <trkpt lat="49.29974" lon="1.13658">
        <ele>32</ele>
        <time>2012-04-03T12:22:41Z</time>
      </trkpt>
      <trkpt lat="49.29967" lon="1.13666">
        <ele>32</ele>
        <time>2012-04-03T12:22:49Z</time>
      </trkpt>
      <trkpt lat="49.29958" lon="1.13675">
        <ele>45</ele>
        <time>2012-04-03T12:22:59Z</time>
      </trkpt>
      <trkpt lat="49.29951" lon="1.13684">
        <ele>45</ele>
        <time>2012-04-03T12:23:06Z</time>
      </trkpt>
      <trkpt lat="49.29944" lon="1.13694">
        <ele>45</ele>
        <time>2012-04-03T12:23:16Z</time>
      </trkpt>
      <trkpt lat="49.29939" lon="1.13705">
        <ele>39</ele>
        <time>2012-04-03T12:23:23Z</time>
      </trkpt>
      <trkpt lat="49.29934" lon="1.13718">
        <ele>39</ele>
        <time>2012-04-03T12:23:32Z</time>
      </trkpt>
      <trkpt lat="49.29928" lon="1.1373">
        <ele>39</ele>
        <time>2012-04-03T12:23:41Z</time>
      </trkpt>
      <trkpt lat="49.29921" lon="1.13741">
        <ele>33</ele>
        <time>2012-04-03T12:23:49Z</time>
      </trkpt>
      <trkpt lat="49.29912" lon="1.13747">
        <ele>33</ele>
        <time>2012-04-03T12:24:02Z</time>
      </trkpt>
      <trkpt lat="49.29905" lon="1.13757">
        <ele>40</ele>
        <time>2012-04-03T12:24:15Z</time>
      </trkpt>
      <trkpt lat="49.29892" lon="1.13756">
        <ele>40</ele>
        <time>2012-04-03T12:24:19Z</time>
      </trkpt>
      <trkpt lat="49.29884" lon="1.13747">
        <ele>40</ele>
        <time>2012-04-03T12:24:22Z</time>
      </trkpt>
      <trkpt lat="49.29892" lon="1.13739">
        <ele>40</ele>
        <time>2012-04-03T12:24:23Z</time>
      </trkpt>
      <trkpt lat="49.29891" lon="1.13724">
        <ele>46</ele>
        <time>2012-04-03T12:24:26Z</time>
      </trkpt>
      <trkpt lat="49.29883" lon="1.13718">
        <ele>46</ele>
        <time>2012-04-03T12:24:34Z</time>
      </trkpt>
      <trkpt lat="49.29873" lon="1.1372">
        <ele>46</ele>
        <time>2012-04-03T12:24:48Z</time>
      </trkpt>
      <trkpt lat="49.29864" lon="1.13728">
        <ele>46</ele>
        <time>2012-04-03T12:24:58Z</time>
      </trkpt>
      <trkpt lat="49.29858" lon="1.13738">
        <ele>46</ele>
        <time>2012-04-03T12:25:08Z</time>
      </trkpt>
      <trkpt lat="49.29852" lon="1.13748">
        <ele>46</ele>
        <time>2012-04-03T12:25:16Z</time>
      </trkpt>
      <trkpt lat="49.29846" lon="1.13759">
        <ele>46</ele>
        <time>2012-04-03T12:25:25Z</time>
      </trkpt>
      <trkpt lat="49.29839" lon="1.1377">
        <ele>46</ele>
        <time>2012-04-03T12:25:32Z</time>
      </trkpt>
      <trkpt lat="49.29831" lon="1.13778">
        <ele>46</ele>
        <time>2012-04-03T12:25:40Z</time>
      </trkpt>
      <trkpt lat="49.29823" lon="1.13786">
        <ele>33</ele>
        <time>2012-04-03T12:25:48Z</time>
      </trkpt>
      <trkpt lat="49.29814" lon="1.13782">
        <ele>27</ele>
        <time>2012-04-03T12:25:57Z</time>
      </trkpt>
      <trkpt lat="49.29805" lon="1.13777">
        <ele>27</ele>
        <time>2012-04-03T12:26:07Z</time>
      </trkpt>
      <trkpt lat="49.29798" lon="1.13766">
        <ele>27</ele>
        <time>2012-04-03T12:26:18Z</time>
      </trkpt>
      <trkpt lat="49.29789" lon="1.1376">
        <ele>27</ele>
        <time>2012-04-03T12:26:28Z</time>
      </trkpt>
      <trkpt lat="49.2978" lon="1.13752">
        <ele>32</ele>
        <time>2012-04-03T12:26:37Z</time>
      </trkpt>
      <trkpt lat="49.29773" lon="1.13744">
        <ele>32</ele>
        <time>2012-04-03T12:26:46Z</time>
      </trkpt>
      <trkpt lat="49.29769" lon="1.13731">
        <ele>32</ele>
        <time>2012-04-03T12:26:55Z</time>
      </trkpt>
      <trkpt lat="49.29759" lon="1.13729">
        <ele>32</ele>
        <time>2012-04-03T12:27:02Z</time>
      </trkpt>
      <trkpt lat="49.29752" lon="1.13719">
        <ele>32</ele>
        <time>2012-04-03T12:27:13Z</time>
      </trkpt>
      <trkpt lat="49.29746" lon="1.13709">
        <ele>32</ele>
        <time>2012-04-03T12:27:22Z</time>
      </trkpt>
      <trkpt lat="49.29737" lon="1.13703">
        <ele>32</ele>
        <time>2012-04-03T12:27:30Z</time>
      </trkpt>
      <trkpt lat="49.29728" lon="1.13695">
        <ele>32</ele>
        <time>2012-04-03T12:27:39Z</time>
      </trkpt>
      <trkpt lat="49.29722" lon="1.13684">
        <ele>32</ele>
        <time>2012-04-03T12:27:49Z</time>
      </trkpt>
      <trkpt lat="49.29715" lon="1.13674">
        <ele>32</ele>
        <time>2012-04-03T12:27:58Z</time>
      </trkpt>
      <trkpt lat="49.2971" lon="1.13662">
        <ele>41</ele>
        <time>2012-04-03T12:28:07Z</time>
      </trkpt>
      <trkpt lat="49.29702" lon="1.13654">
        <ele>46</ele>
        <time>2012-04-03T12:28:18Z</time>
      </trkpt>
      <trkpt lat="49.29693" lon="1.13649">
        <ele>46</ele>
        <time>2012-04-03T12:28:25Z</time>
      </trkpt>
      <trkpt lat="49.29684" lon="1.13644">
        <ele>46</ele>
        <time>2012-04-03T12:28:32Z</time>
      </trkpt>
      <trkpt lat="49.29677" lon="1.13634">
        <ele>36</ele>
        <time>2012-04-03T12:28:40Z</time>
      </trkpt>
      <trkpt lat="49.29673" lon="1.13621">
        <ele>36</ele>
        <time>2012-04-03T12:28:48Z</time>
      </trkpt>
      <trkpt lat="49.29666" lon="1.13612">
        <ele>36</ele>
        <time>2012-04-03T12:28:57Z</time>
      </trkpt>
      <trkpt lat="49.2966" lon="1.13601">
        <ele>36</ele>
        <time>2012-04-03T12:29:05Z</time>
      </trkpt>
      <trkpt lat="49.29651" lon="1.13594">
        <ele>36</ele>
        <time>2012-04-03T12:29:12Z</time>
      </trkpt>
      <trkpt lat="49.29642" lon="1.13591">
        <ele>36</ele>
        <time>2012-04-03T12:29:19Z</time>
      </trkpt>
      <trkpt lat="49.29633" lon="1.13586">
        <ele>36</ele>
        <time>2012-04-03T12:29:27Z</time>
      </trkpt>
      <trkpt lat="49.29626" lon="1.13575">
        <ele>36</ele>
        <time>2012-04-03T12:29:35Z</time>
      </trkpt>
      <trkpt lat="49.29621" lon="1.13563">
        <ele>36</ele>
        <time>2012-04-03T12:29:43Z</time>
      </trkpt>
      <trkpt lat="49.29612" lon="1.13557">
        <ele>36</ele>
        <time>2012-04-03T12:29:52Z</time>
      </trkpt>
      <trkpt lat="49.29606" lon="1.13546">
        <ele>44</ele>
        <time>2012-04-03T12:30:01Z</time>
      </trkpt>
      <trkpt lat="49.29598" lon="1.13537">
        <ele>44</ele>
        <time>2012-04-03T12:30:09Z</time>
      </trkpt>
      <trkpt lat="49.29587" lon="1.13535">
        <ele>51</ele>
        <time>2012-04-03T12:30:16Z</time>
      </trkpt>
      <trkpt lat="49.29579" lon="1.13525">
        <ele>51</ele>
        <time>2012-04-03T12:30:25Z</time>
      </trkpt>
      <trkpt lat="49.29575" lon="1.13511">
        <ele>45</ele>
        <time>2012-04-03T12:30:33Z</time>
      </trkpt>
      <trkpt lat="49.29566" lon="1.13505">
        <ele>45</ele>
        <time>2012-04-03T12:30:40Z</time>
      </trkpt>
      <trkpt lat="49.29559" lon="1.13495">
        <ele>45</ele>
        <time>2012-04-03T12:30:48Z</time>
      </trkpt>
      <trkpt lat="49.29553" lon="1.13485">
        <ele>45</ele>
        <time>2012-04-03T12:30:56Z</time>
      </trkpt>
      <trkpt lat="49.29546" lon="1.13476">
        <ele>45</ele>
        <time>2012-04-03T12:31:03Z</time>
      </trkpt>
      <trkpt lat="49.29537" lon="1.13468">
        <ele>45</ele>
        <time>2012-04-03T12:31:11Z</time>
      </trkpt>
      <trkpt lat="49.2953" lon="1.13458">
        <ele>40</ele>
        <time>2012-04-03T12:31:20Z</time>
      </trkpt>
      <trkpt lat="49.29524" lon="1.13446">
        <ele>40</ele>
        <time>2012-04-03T12:31:29Z</time>
      </trkpt>
      <trkpt lat="49.29517" lon="1.13437">
        <ele>40</ele>
        <time>2012-04-03T12:31:35Z</time>
      </trkpt>
      <trkpt lat="49.2951" lon="1.13426">
        <ele>40</ele>
        <time>2012-04-03T12:31:45Z</time>
      </trkpt>
      <trkpt lat="49.29503" lon="1.13416">
        <ele>40</ele>
        <time>2012-04-03T12:31:54Z</time>
      </trkpt>
      <trkpt lat="49.29495" lon="1.13406">
        <ele>40</ele>
        <time>2012-04-03T12:32:02Z</time>
      </trkpt>
      <trkpt lat="49.29486" lon="1.13401">
        <ele>40</ele>
        <time>2012-04-03T12:32:08Z</time>
      </trkpt>
      <trkpt lat="49.29479" lon="1.1339">
        <ele>40</ele>
        <time>2012-04-03T12:32:16Z</time>
      </trkpt>
      <trkpt lat="49.29473" lon="1.1338">
        <ele>40</ele>
        <time>2012-04-03T12:32:23Z</time>
      </trkpt>
      <trkpt lat="49.29466" lon="1.13369">
        <ele>40</ele>
        <time>2012-04-03T12:32:31Z</time>
      </trkpt>
      <trkpt lat="49.29457" lon="1.1336">
        <ele>47</ele>
        <time>2012-04-03T12:32:40Z</time>
      </trkpt>
      <trkpt lat="49.29448" lon="1.1335">
        <ele>47</ele>
        <time>2012-04-03T12:32:48Z</time>
      </trkpt>
      <trkpt lat="49.29441" lon="1.13338">
        <ele>47</ele>
        <time>2012-04-03T12:32:57Z</time>
      </trkpt>
      <trkpt lat="49.29433" lon="1.13329">
        <ele>47</ele>
        <time>2012-04-03T12:33:05Z</time>
      </trkpt>
      <trkpt lat="49.29424" lon="1.13328">
        <ele>47</ele>
        <time>2012-04-03T12:33:10Z</time>
      </trkpt>
      <trkpt lat="49.2942" lon="1.13314">
        <ele>47</ele>
        <time>2012-04-03T12:33:18Z</time>
      </trkpt>
      <trkpt lat="49.29411" lon="1.13304">
        <ele>47</ele>
        <time>2012-04-03T12:33:26Z</time>
      </trkpt>
      <trkpt lat="49.29403" lon="1.13298">
        <ele>47</ele>
        <time>2012-04-03T12:33:33Z</time>
      </trkpt>
      <trkpt lat="49.29395" lon="1.1329">
        <ele>47</ele>
        <time>2012-04-03T12:33:40Z</time>
      </trkpt>
      <trkpt lat="49.2939" lon="1.13277">
        <ele>47</ele>
        <time>2012-04-03T12:33:49Z</time>
      </trkpt>
      <trkpt lat="49.29383" lon="1.13268">
        <ele>47</ele>
        <time>2012-04-03T12:33:57Z</time>
      </trkpt>
      <trkpt lat="49.29374" lon="1.13261">
        <ele>47</ele>
        <time>2012-04-03T12:34:05Z</time>
      </trkpt>
      <trkpt lat="49.29368" lon="1.1325">
        <ele>47</ele>
        <time>2012-04-03T12:34:13Z</time>
      </trkpt>
      <trkpt lat="49.29361" lon="1.13239">
        <ele>47</ele>
        <time>2012-04-03T12:34:21Z</time>
      </trkpt>
      <trkpt lat="49.29352" lon="1.1323">
        <ele>47</ele>
        <time>2012-04-03T12:34:31Z</time>
      </trkpt>
      <trkpt lat="49.29344" lon="1.13222">
        <ele>54</ele>
        <time>2012-04-03T12:34:39Z</time>
      </trkpt>
      <trkpt lat="49.29336" lon="1.13213">
        <ele>54</ele>
        <time>2012-04-03T12:34:46Z</time>
      </trkpt>
      <trkpt lat="49.29327" lon="1.13207">
        <ele>54</ele>
        <time>2012-04-03T12:34:53Z</time>
      </trkpt>
      <trkpt lat="49.29318" lon="1.13199">
        <ele>54</ele>
        <time>2012-04-03T12:35:01Z</time>
      </trkpt>
      <trkpt lat="49.29312" lon="1.13187">
        <ele>54</ele>
        <time>2012-04-03T12:35:09Z</time>
      </trkpt>
      <trkpt lat="49.29303" lon="1.1318">
        <ele>48</ele>
        <time>2012-04-03T12:35:17Z</time>
      </trkpt>
      <trkpt lat="49.29296" lon="1.1317">
        <ele>48</ele>
        <time>2012-04-03T12:35:25Z</time>
      </trkpt>
      <trkpt lat="49.29289" lon="1.1316">
        <ele>48</ele>
        <time>2012-04-03T12:35:33Z</time>
      </trkpt>
      <trkpt lat="49.29281" lon="1.13151">
        <ele>48</ele>
        <time>2012-04-03T12:35:41Z</time>
      </trkpt>
      <trkpt lat="49.29274" lon="1.13142">
        <ele>48</ele>
        <time>2012-04-03T12:35:50Z</time>
      </trkpt>
      <trkpt lat="49.29266" lon="1.13134">
        <ele>48</ele>
        <time>2012-04-03T12:36:00Z</time>
      </trkpt>
      <trkpt lat="49.29259" lon="1.13124">
        <ele>65</ele>
        <time>2012-04-03T12:36:13Z</time>
      </trkpt>
      <trkpt lat="49.29254" lon="1.13112">
        <ele>55</ele>
        <time>2012-04-03T12:36:40Z</time>
      </trkpt>
      <trkpt lat="49.29245" lon="1.13107">
        <ele>72</ele>
        <time>2012-04-03T12:36:57Z</time>
      </trkpt>
      <trkpt lat="49.29254" lon="1.13111">
        <ele>60</ele>
        <time>2012-04-03T12:37:50Z</time>
      </trkpt>
      <trkpt lat="49.29263" lon="1.13105">
        <ele>41</ele>
        <time>2012-04-03T12:38:42Z</time>
      </trkpt>
      <trkpt lat="49.29253" lon="1.13104">
        <ele>50</ele>
        <time>2012-04-03T12:39:56Z</time>
      </trkpt>
      <trkpt lat="49.29244" lon="1.13096">
        <ele>50</ele>
        <time>2012-04-03T12:40:52Z</time>
      </trkpt>
      <trkpt lat="49.29237" lon="1.13086">
        <ele>50</ele>
        <time>2012-04-03T12:41:01Z</time>
      </trkpt>
      <trkpt lat="49.2923" lon="1.13077">
        <ele>50</ele>
        <time>2012-04-03T12:41:09Z</time>
      </trkpt>
      <trkpt lat="49.29222" lon="1.13069">
        <ele>50</ele>
        <time>2012-04-03T12:41:18Z</time>
      </trkpt>
      <trkpt lat="49.29213" lon="1.13062">
        <ele>50</ele>
        <time>2012-04-03T12:41:29Z</time>
      </trkpt>
      <trkpt lat="49.29207" lon="1.13051">
        <ele>50</ele>
        <time>2012-04-03T12:41:37Z</time>
      </trkpt>
      <trkpt lat="49.29199" lon="1.13041">
        <ele>58</ele>
        <time>2012-04-03T12:41:48Z</time>
      </trkpt>
      <trkpt lat="49.29191" lon="1.13031">
        <ele>58</ele>
        <time>2012-04-03T12:41:57Z</time>
      </trkpt>
      <trkpt lat="49.29185" lon="1.13021">
        <ele>58</ele>
        <time>2012-04-03T12:42:05Z</time>
      </trkpt>
      <trkpt lat="49.29176" lon="1.13013">
        <ele>58</ele>
        <time>2012-04-03T12:42:13Z</time>
      </trkpt>
      <trkpt lat="49.29168" lon="1.13005">
        <ele>58</ele>
        <time>2012-04-03T12:42:20Z</time>
      </trkpt>
      <trkpt lat="49.29161" lon="1.12995">
        <ele>58</ele>
        <time>2012-04-03T12:42:28Z</time>
      </trkpt>
      <trkpt lat="49.29154" lon="1.12986">
        <ele>58</ele>
        <time>2012-04-03T12:42:36Z</time>
      </trkpt>
      <trkpt lat="49.29148" lon="1.12975">
        <ele>58</ele>
        <time>2012-04-03T12:42:44Z</time>
      </trkpt>
      <trkpt lat="49.2914" lon="1.12967">
        <ele>58</ele>
        <time>2012-04-03T12:42:52Z</time>
      </trkpt>
      <trkpt lat="49.29131" lon="1.12958">
        <ele>58</ele>
        <time>2012-04-03T12:43:01Z</time>
      </trkpt>
      <trkpt lat="49.29123" lon="1.12949">
        <ele>58</ele>
        <time>2012-04-03T12:43:08Z</time>
      </trkpt>
      <trkpt lat="49.29116" lon="1.1294">
        <ele>58</ele>
        <time>2012-04-03T12:43:16Z</time>
      </trkpt>
      <trkpt lat="49.29108" lon="1.12931">
        <ele>58</ele>
        <time>2012-04-03T12:43:25Z</time>
      </trkpt>
      <trkpt lat="49.29101" lon="1.12921">
        <ele>58</ele>
        <time>2012-04-03T12:43:33Z</time>
      </trkpt>
      <trkpt lat="49.29092" lon="1.12912">
        <ele>58</ele>
        <time>2012-04-03T12:43:41Z</time>
      </trkpt>
      <trkpt lat="49.29084" lon="1.12903">
        <ele>58</ele>
        <time>2012-04-03T12:43:49Z</time>
      </trkpt>
      <trkpt lat="49.29076" lon="1.12894">
        <ele>58</ele>
        <time>2012-04-03T12:43:57Z</time>
      </trkpt>
      <trkpt lat="49.29069" lon="1.12885">
        <ele>53</ele>
        <time>2012-04-03T12:44:06Z</time>
      </trkpt>
      <trkpt lat="49.29061" lon="1.12875">
        <ele>53</ele>
        <time>2012-04-03T12:44:14Z</time>
      </trkpt>
      <trkpt lat="49.29054" lon="1.12866">
        <ele>53</ele>
        <time>2012-04-03T12:44:22Z</time>
      </trkpt>
      <trkpt lat="49.29046" lon="1.12858">
        <ele>53</ele>
        <time>2012-04-03T12:44:30Z</time>
      </trkpt>
      <trkpt lat="49.29039" lon="1.1285">
        <ele>53</ele>
        <time>2012-04-03T12:44:37Z</time>
      </trkpt>
      <trkpt lat="49.29031" lon="1.1284">
        <ele>53</ele>
        <time>2012-04-03T12:44:45Z</time>
      </trkpt>
      <trkpt lat="49.29023" lon="1.12832">
        <ele>53</ele>
        <time>2012-04-03T12:44:53Z</time>
      </trkpt>
      <trkpt lat="49.29015" lon="1.12823">
        <ele>53</ele>
        <time>2012-04-03T12:45:01Z</time>
      </trkpt>
      <trkpt lat="49.29008" lon="1.12813">
        <ele>53</ele>
        <time>2012-04-03T12:45:09Z</time>
      </trkpt>
      <trkpt lat="49.29" lon="1.12803">
        <ele>53</ele>
        <time>2012-04-03T12:45:18Z</time>
      </trkpt>
      <trkpt lat="49.28992" lon="1.12794">
        <ele>53</ele>
        <time>2012-04-03T12:45:26Z</time>
      </trkpt>
      <trkpt lat="49.28985" lon="1.12785">
        <ele>53</ele>
        <time>2012-04-03T12:45:34Z</time>
      </trkpt>
      <trkpt lat="49.28978" lon="1.12776">
        <ele>53</ele>
        <time>2012-04-03T12:45:41Z</time>
      </trkpt>
      <trkpt lat="49.2897" lon="1.12767">
        <ele>53</ele>
        <time>2012-04-03T12:45:49Z</time>
      </trkpt>
      <trkpt lat="49.28962" lon="1.12758">
        <ele>53</ele>
        <time>2012-04-03T12:45:57Z</time>
      </trkpt>
      <trkpt lat="49.28954" lon="1.12748">
        <ele>53</ele>
        <time>2012-04-03T12:46:05Z</time>
      </trkpt>
      <trkpt lat="49.28946" lon="1.1274">
        <ele>53</ele>
        <time>2012-04-03T12:46:14Z</time>
      </trkpt>
      <trkpt lat="49.2894" lon="1.12731">
        <ele>53</ele>
        <time>2012-04-03T12:46:21Z</time>
      </trkpt>
      <trkpt lat="49.28932" lon="1.12722">
        <ele>53</ele>
        <time>2012-04-03T12:46:28Z</time>
      </trkpt>
      <trkpt lat="49.28925" lon="1.12713">
        <ele>53</ele>
        <time>2012-04-03T12:46:36Z</time>
      </trkpt>
      <trkpt lat="49.28918" lon="1.12704">
        <ele>53</ele>
        <time>2012-04-03T12:46:43Z</time>
      </trkpt>
      <trkpt lat="49.28911" lon="1.12695">
        <ele>58</ele>
        <time>2012-04-03T12:46:51Z</time>
      </trkpt>
      <trkpt lat="49.28903" lon="1.12687">
        <ele>58</ele>
        <time>2012-04-03T12:46:59Z</time>
      </trkpt>
      <trkpt lat="49.28895" lon="1.12678">
        <ele>58</ele>
        <time>2012-04-03T12:47:07Z</time>
      </trkpt>
      <trkpt lat="49.28887" lon="1.12669">
        <ele>58</ele>
        <time>2012-04-03T12:47:16Z</time>
      </trkpt>
      <trkpt lat="49.2888" lon="1.1266">
        <ele>58</ele>
        <time>2012-04-03T12:47:23Z</time>
      </trkpt>
      <trkpt lat="49.28872" lon="1.12651">
        <ele>58</ele>
        <time>2012-04-03T12:47:30Z</time>
      </trkpt>
      <trkpt lat="49.28865" lon="1.12642">
        <ele>58</ele>
        <time>2012-04-03T12:47:38Z</time>
      </trkpt>
      <trkpt lat="49.28858" lon="1.12633">
        <ele>58</ele>
        <time>2012-04-03T12:47:45Z</time>
      </trkpt>
      <trkpt lat="49.28851" lon="1.12624">
        <ele>58</ele>
        <time>2012-04-03T12:47:53Z</time>
      </trkpt>
      <trkpt lat="49.28844" lon="1.12614">
        <ele>58</ele>
        <time>2012-04-03T12:48:00Z</time>
      </trkpt>
      <trkpt lat="49.28836" lon="1.12605">
        <ele>58</ele>
        <time>2012-04-03T12:48:09Z</time>
      </trkpt>
      <trkpt lat="49.28828" lon="1.12598">
        <ele>58</ele>
        <time>2012-04-03T12:48:16Z</time>
      </trkpt>
      <trkpt lat="49.2882" lon="1.12589">
        <ele>64</ele>
        <time>2012-04-03T12:48:24Z</time>
      </trkpt>
      <trkpt lat="49.28814" lon="1.12577">
        <ele>64</ele>
        <time>2012-04-03T12:48:33Z</time>
      </trkpt>
      <trkpt lat="49.28806" lon="1.12569">
        <ele>64</ele>
        <time>2012-04-03T12:48:41Z</time>
      </trkpt>
      <trkpt lat="49.28796" lon="1.12563">
        <ele>64</ele>
        <time>2012-04-03T12:48:50Z</time>
      </trkpt>
      <trkpt lat="49.28787" lon="1.12559">
        <ele>64</ele>
        <time>2012-04-03T12:48:58Z</time>
      </trkpt>
      <trkpt lat="49.28777" lon="1.12559">
        <ele>57</ele>
        <time>2012-04-03T12:49:06Z</time>
      </trkpt>
      <trkpt lat="49.28768" lon="1.12562">
        <ele>57</ele>
        <time>2012-04-03T12:49:12Z</time>
      </trkpt>
      <trkpt lat="49.28759" lon="1.12565">
        <ele>57</ele>
        <time>2012-04-03T12:49:19Z</time>
      </trkpt>
      <trkpt lat="49.28749" lon="1.12571">
        <ele>57</ele>
        <time>2012-04-03T12:49:27Z</time>
      </trkpt>
      <trkpt lat="49.28739" lon="1.12575">
        <ele>57</ele>
        <time>2012-04-03T12:49:35Z</time>
      </trkpt>
      <trkpt lat="49.2873" lon="1.12579">
        <ele>57</ele>
        <time>2012-04-03T12:49:44Z</time>
      </trkpt>
      <trkpt lat="49.28721" lon="1.12582">
        <ele>57</ele>
        <time>2012-04-03T12:49:51Z</time>
      </trkpt>
      <trkpt lat="49.28712" lon="1.12588">
        <ele>57</ele>
        <time>2012-04-03T12:49:59Z</time>
      </trkpt>
      <trkpt lat="49.28703" lon="1.12592">
        <ele>57</ele>
        <time>2012-04-03T12:50:07Z</time>
      </trkpt>
      <trkpt lat="49.28693" lon="1.12598">
        <ele>57</ele>
        <time>2012-04-03T12:50:14Z</time>
      </trkpt>
      <trkpt lat="49.28684" lon="1.12602">
        <ele>57</ele>
        <time>2012-04-03T12:50:21Z</time>
      </trkpt>
      <trkpt lat="49.28674" lon="1.12604">
        <ele>57</ele>
        <time>2012-04-03T12:50:30Z</time>
      </trkpt>
      <trkpt lat="49.28666" lon="1.12608">
        <ele>57</ele>
        <time>2012-04-03T12:50:37Z</time>
      </trkpt>
      <trkpt lat="49.28656" lon="1.12614">
        <ele>57</ele>
        <time>2012-04-03T12:50:45Z</time>
      </trkpt>
      <trkpt lat="49.28647" lon="1.12619">
        <ele>57</ele>
        <time>2012-04-03T12:50:55Z</time>
      </trkpt>
      <trkpt lat="49.28638" lon="1.12625">
        <ele>57</ele>
        <time>2012-04-03T12:51:05Z</time>
      </trkpt>
      <trkpt lat="49.28629" lon="1.12628">
        <ele>57</ele>
        <time>2012-04-03T12:51:12Z</time>
      </trkpt>
      <trkpt lat="49.2862" lon="1.12634">
        <ele>57</ele>
        <time>2012-04-03T12:51:18Z</time>
      </trkpt>
      <trkpt lat="49.28611" lon="1.12639">
        <ele>57</ele>
        <time>2012-04-03T12:51:24Z</time>
      </trkpt>
      <trkpt lat="49.28602" lon="1.12644">
        <ele>57</ele>
        <time>2012-04-03T12:51:32Z</time>
      </trkpt>
      <trkpt lat="49.28593" lon="1.12647">
        <ele>57</ele>
        <time>2012-04-03T12:51:40Z</time>
      </trkpt>
      <trkpt lat="49.28584" lon="1.12651">
        <ele>57</ele>
        <time>2012-04-03T12:51:46Z</time>
      </trkpt>
      <trkpt lat="49.28575" lon="1.12656">
        <ele>57</ele>
        <time>2012-04-03T12:51:54Z</time>
      </trkpt>
      <trkpt lat="49.28565" lon="1.12658">
        <ele>57</ele>
        <time>2012-04-03T12:52:01Z</time>
      </trkpt>
      <trkpt lat="49.28556" lon="1.12665">
        <ele>57</ele>
        <time>2012-04-03T12:52:15Z</time>
      </trkpt>
      <trkpt lat="49.28547" lon="1.12669">
        <ele>57</ele>
        <time>2012-04-03T12:52:22Z</time>
      </trkpt>
      <trkpt lat="49.28538" lon="1.12672">
        <ele>57</ele>
        <time>2012-04-03T12:52:29Z</time>
      </trkpt>
      <trkpt lat="49.28529" lon="1.12678">
        <ele>57</ele>
        <time>2012-04-03T12:52:36Z</time>
      </trkpt>
      <trkpt lat="49.2852" lon="1.12685">
        <ele>57</ele>
        <time>2012-04-03T12:52:45Z</time>
      </trkpt>
      <trkpt lat="49.28511" lon="1.1269">
        <ele>57</ele>
        <time>2012-04-03T12:52:52Z</time>
      </trkpt>
      <trkpt lat="49.28502" lon="1.12697">
        <ele>57</ele>
        <time>2012-04-03T12:53:00Z</time>
      </trkpt>
      <trkpt lat="49.28494" lon="1.12704">
        <ele>57</ele>
        <time>2012-04-03T12:53:08Z</time>
      </trkpt>
      <trkpt lat="49.28485" lon="1.12709">
        <ele>57</ele>
        <time>2012-04-03T12:53:14Z</time>
      </trkpt>
      <trkpt lat="49.28477" lon="1.12718">
        <ele>63</ele>
        <time>2012-04-03T12:53:23Z</time>
      </trkpt>
      <trkpt lat="49.28469" lon="1.12726">
        <ele>63</ele>
        <time>2012-04-03T12:53:30Z</time>
      </trkpt>
      <trkpt lat="49.2846" lon="1.12733">
        <ele>63</ele>
        <time>2012-04-03T12:53:37Z</time>
      </trkpt>
      <trkpt lat="49.28453" lon="1.12743">
        <ele>63</ele>
        <time>2012-04-03T12:53:45Z</time>
      </trkpt>
      <trkpt lat="49.28444" lon="1.12749">
        <ele>63</ele>
        <time>2012-04-03T12:53:53Z</time>
      </trkpt>
      <trkpt lat="49.28437" lon="1.12759">
        <ele>71</ele>
        <time>2012-04-03T12:54:00Z</time>
      </trkpt>
      <trkpt lat="49.2843" lon="1.12769">
        <ele>71</ele>
        <time>2012-04-03T12:54:08Z</time>
      </trkpt>
      <trkpt lat="49.28422" lon="1.12781">
        <ele>71</ele>
        <time>2012-04-03T12:54:15Z</time>
      </trkpt>
      <trkpt lat="49.28413" lon="1.1279">
        <ele>71</ele>
        <time>2012-04-03T12:54:24Z</time>
      </trkpt>
      <trkpt lat="49.28406" lon="1.12799">
        <ele>71</ele>
        <time>2012-04-03T12:54:33Z</time>
      </trkpt>
      <trkpt lat="49.284" lon="1.1281">
        <ele>71</ele>
        <time>2012-04-03T12:54:43Z</time>
      </trkpt>
      <trkpt lat="49.28392" lon="1.12819">
        <ele>71</ele>
        <time>2012-04-03T12:54:51Z</time>
      </trkpt>
      <trkpt lat="49.28384" lon="1.12828">
        <ele>79</ele>
        <time>2012-04-03T12:54:59Z</time>
      </trkpt>
      <trkpt lat="49.28377" lon="1.12839">
        <ele>79</ele>
        <time>2012-04-03T12:55:06Z</time>
      </trkpt>
      <trkpt lat="49.28371" lon="1.12853">
        <ele>79</ele>
        <time>2012-04-03T12:55:13Z</time>
      </trkpt>
      <trkpt lat="49.28364" lon="1.12862">
        <ele>87</ele>
        <time>2012-04-03T12:55:20Z</time>
      </trkpt>
      <trkpt lat="49.2836" lon="1.12876">
        <ele>87</ele>
        <time>2012-04-03T12:55:29Z</time>
      </trkpt>
      <trkpt lat="49.2836" lon="1.1289">
        <ele>87</ele>
        <time>2012-04-03T12:55:38Z</time>
      </trkpt>
      <trkpt lat="49.28358" lon="1.12905">
        <ele>74</ele>
        <time>2012-04-03T12:55:45Z</time>
      </trkpt>
      <trkpt lat="49.28358" lon="1.12919">
        <ele>74</ele>
        <time>2012-04-03T12:55:52Z</time>
      </trkpt>
      <trkpt lat="49.28356" lon="1.12934">
        <ele>74</ele>
        <time>2012-04-03T12:55:59Z</time>
      </trkpt>
      <trkpt lat="49.28354" lon="1.12948">
        <ele>68</ele>
        <time>2012-04-03T12:56:07Z</time>
      </trkpt>
      <trkpt lat="49.28357" lon="1.12961">
        <ele>68</ele>
        <time>2012-04-03T12:56:14Z</time>
      </trkpt>
      <trkpt lat="49.28357" lon="1.12976">
        <ele>68</ele>
        <time>2012-04-03T12:56:21Z</time>
      </trkpt>
      <trkpt lat="49.28352" lon="1.12988">
        <ele>75</ele>
        <time>2012-04-03T12:56:28Z</time>
      </trkpt>
      <trkpt lat="49.28351" lon="1.13003">
        <ele>75</ele>
        <time>2012-04-03T12:56:37Z</time>
      </trkpt>
      <trkpt lat="49.28348" lon="1.13017">
        <ele>75</ele>
        <time>2012-04-03T12:56:46Z</time>
      </trkpt>
      <trkpt lat="49.28345" lon="1.13031">
        <ele>75</ele>
        <time>2012-04-03T12:56:56Z</time>
      </trkpt>
      <trkpt lat="49.28344" lon="1.13045">
        <ele>75</ele>
        <time>2012-04-03T12:57:04Z</time>
      </trkpt>
      <trkpt lat="49.28345" lon="1.13059">
        <ele>75</ele>
        <time>2012-04-03T12:57:09Z</time>
      </trkpt>
      <trkpt lat="49.28342" lon="1.13075">
        <ele>75</ele>
        <time>2012-04-03T12:57:17Z</time>
      </trkpt>
      <trkpt lat="49.2834" lon="1.13088">
        <ele>75</ele>
        <time>2012-04-03T12:57:26Z</time>
      </trkpt>
      <trkpt lat="49.28341" lon="1.13103">
        <ele>75</ele>
        <time>2012-04-03T12:57:33Z</time>
      </trkpt>
      <trkpt lat="49.28338" lon="1.13117">
        <ele>75</ele>
        <time>2012-04-03T12:57:42Z</time>
      </trkpt>
      <trkpt lat="49.28337" lon="1.13131">
        <ele>75</ele>
        <time>2012-04-03T12:57:49Z</time>
      </trkpt>
      <trkpt lat="49.28331" lon="1.13143">
        <ele>84</ele>
        <time>2012-04-03T12:57:56Z</time>
      </trkpt>
      <trkpt lat="49.2833" lon="1.13159">
        <ele>84</ele>
        <time>2012-04-03T12:58:03Z</time>
      </trkpt>
      <trkpt lat="49.2833" lon="1.13173">
        <ele>84</ele>
        <time>2012-04-03T12:58:11Z</time>
      </trkpt>
      <trkpt lat="49.28331" lon="1.13188">
        <ele>84</ele>
        <time>2012-04-03T12:58:18Z</time>
      </trkpt>
      <trkpt lat="49.28327" lon="1.132">
        <ele>84</ele>
        <time>2012-04-03T12:58:26Z</time>
      </trkpt>
      <trkpt lat="49.28326" lon="1.13216">
        <ele>84</ele>
        <time>2012-04-03T12:58:33Z</time>
      </trkpt>
      <trkpt lat="49.28322" lon="1.13229">
        <ele>84</ele>
        <time>2012-04-03T12:58:42Z</time>
      </trkpt>
      <trkpt lat="49.28321" lon="1.13244">
        <ele>84</ele>
        <time>2012-04-03T12:58:51Z</time>
      </trkpt>
      <trkpt lat="49.28322" lon="1.13259">
        <ele>77</ele>
        <time>2012-04-03T12:58:58Z</time>
      </trkpt>
      <trkpt lat="49.28321" lon="1.13273">
        <ele>77</ele>
        <time>2012-04-03T12:59:05Z</time>
      </trkpt>
      <trkpt lat="49.28321" lon="1.13288">
        <ele>77</ele>
        <time>2012-04-03T12:59:12Z</time>
      </trkpt>
      <trkpt lat="49.28321" lon="1.13305">
        <ele>84</ele>
        <time>2012-04-03T12:59:21Z</time>
      </trkpt>
      <trkpt lat="49.28322" lon="1.13319">
        <ele>84</ele>
        <time>2012-04-03T12:59:29Z</time>
      </trkpt>
      <trkpt lat="49.28322" lon="1.13334">
        <ele>84</ele>
        <time>2012-04-03T12:59:37Z</time>
      </trkpt>
      <trkpt lat="49.28318" lon="1.13349">
        <ele>89</ele>
        <time>2012-04-03T12:59:45Z</time>
      </trkpt>
      <trkpt lat="49.2832" lon="1.13363">
        <ele>89</ele>
        <time>2012-04-03T12:59:55Z</time>
      </trkpt>
      <trkpt lat="49.28317" lon="1.13376">
        <ele>84</ele>
        <time>2012-04-03T13:00:03Z</time>
      </trkpt>
      <trkpt lat="49.28317" lon="1.13392">
        <ele>84</ele>
        <time>2012-04-03T13:00:10Z</time>
      </trkpt>
      <trkpt lat="49.28316" lon="1.13408">
        <ele>84</ele>
        <time>2012-04-03T13:00:18Z</time>
      </trkpt>
      <trkpt lat="49.28313" lon="1.13422">
        <ele>84</ele>
        <time>2012-04-03T13:00:27Z</time>
      </trkpt>
      <trkpt lat="49.28314" lon="1.13438">
        <ele>89</ele>
        <time>2012-04-03T13:00:36Z</time>
      </trkpt>
      <trkpt lat="49.2831" lon="1.13452">
        <ele>89</ele>
        <time>2012-04-03T13:00:44Z</time>
      </trkpt>
      <trkpt lat="49.28311" lon="1.13466">
        <ele>96</ele>
        <time>2012-04-03T13:00:53Z</time>
      </trkpt>
      <trkpt lat="49.2831" lon="1.13481">
        <ele>96</ele>
        <time>2012-04-03T13:01:00Z</time>
      </trkpt>
      <trkpt lat="49.28305" lon="1.13493">
        <ele>89</ele>
        <time>2012-04-03T13:01:08Z</time>
      </trkpt>
      <trkpt lat="49.28304" lon="1.13509">
        <ele>89</ele>
        <time>2012-04-03T13:01:17Z</time>
      </trkpt>
      <trkpt lat="49.28305" lon="1.13524">
        <ele>89</ele>
        <time>2012-04-03T13:01:25Z</time>
      </trkpt>
      <trkpt lat="49.28305" lon="1.13539">
        <ele>84</ele>
        <time>2012-04-03T13:01:33Z</time>
      </trkpt>
      <trkpt lat="49.28302" lon="1.13552">
        <ele>84</ele>
        <time>2012-04-03T13:01:40Z</time>
      </trkpt>
      <trkpt lat="49.28302" lon="1.13567">
        <ele>84</ele>
        <time>2012-04-03T13:01:49Z</time>
      </trkpt>
      <trkpt lat="49.28301" lon="1.13581">
        <ele>84</ele>
        <time>2012-04-03T13:01:56Z</time>
      </trkpt>
      <trkpt lat="49.28299" lon="1.13596">
        <ele>84</ele>
        <time>2012-04-03T13:02:05Z</time>
      </trkpt>
      <trkpt lat="49.28297" lon="1.1361">
        <ele>89</ele>
        <time>2012-04-03T13:02:16Z</time>
      </trkpt>
      <trkpt lat="49.28304" lon="1.13621">
        <ele>89</ele>
        <time>2012-04-03T13:02:25Z</time>
      </trkpt>
      <trkpt lat="49.28312" lon="1.13617">
        <ele>89</ele>
        <time>2012-04-03T13:02:49Z</time>
      </trkpt>
      <trkpt lat="49.28305" lon="1.13626">
        <ele>80</ele>
        <time>2012-04-03T13:03:53Z</time>
      </trkpt>
      <trkpt lat="49.283" lon="1.1364">
        <ele>80</ele>
        <time>2012-04-03T13:04:04Z</time>
      </trkpt>
      <trkpt lat="49.28295" lon="1.13652">
        <ele>80</ele>
        <time>2012-04-03T13:04:14Z</time>
      </trkpt>
      <trkpt lat="49.2829" lon="1.13664">
        <ele>89</ele>
        <time>2012-04-03T13:04:28Z</time>
      </trkpt>
      <trkpt lat="49.28299" lon="1.13667">
        <ele>89</ele>
        <time>2012-04-03T13:04:33Z</time>
      </trkpt>
      <trkpt lat="49.28304" lon="1.13679">
        <ele>81</ele>
        <time>2012-04-03T13:05:08Z</time>
      </trkpt>
      <trkpt lat="49.28298" lon="1.1369">
        <ele>87</ele>
        <time>2012-04-03T13:06:19Z</time>
      </trkpt>
      <trkpt lat="49.2829" lon="1.13699">
        <ele>94</ele>
        <time>2012-04-03T13:06:28Z</time>
      </trkpt>
      <trkpt lat="49.28285" lon="1.13712">
        <ele>94</ele>
        <time>2012-04-03T13:06:36Z</time>
      </trkpt>
      <trkpt lat="49.28287" lon="1.13728">
        <ele>94</ele>
        <time>2012-04-03T13:06:43Z</time>
      </trkpt>
      <trkpt lat="49.28283" lon="1.13742">
        <ele>94</ele>
        <time>2012-04-03T13:06:51Z</time>
      </trkpt>
      <trkpt lat="49.28283" lon="1.13757">
        <ele>94</ele>
        <time>2012-04-03T13:06:59Z</time>
      </trkpt>
      <trkpt lat="49.2828" lon="1.13771">
        <ele>94</ele>
        <time>2012-04-03T13:07:09Z</time>
      </trkpt>
      <trkpt lat="49.28279" lon="1.13785">
        <ele>94</ele>
        <time>2012-04-03T13:07:17Z</time>
      </trkpt>
      <trkpt lat="49.28281" lon="1.138">
        <ele>94</ele>
        <time>2012-04-03T13:07:25Z</time>
      </trkpt>
      <trkpt lat="49.28278" lon="1.13814">
        <ele>94</ele>
        <time>2012-04-03T13:07:34Z</time>
      </trkpt>
      <trkpt lat="49.28277" lon="1.13828">
        <ele>94</ele>
        <time>2012-04-03T13:07:43Z</time>
      </trkpt>
      <trkpt lat="49.28276" lon="1.13843">
        <ele>94</ele>
        <time>2012-04-03T13:07:51Z</time>
      </trkpt>
      <trkpt lat="49.28275" lon="1.13857">
        <ele>94</ele>
        <time>2012-04-03T13:08:00Z</time>
      </trkpt>
      <trkpt lat="49.28273" lon="1.1387">
        <ele>94</ele>
        <time>2012-04-03T13:08:07Z</time>
      </trkpt>
      <trkpt lat="49.28273" lon="1.13885">
        <ele>94</ele>
        <time>2012-04-03T13:08:14Z</time>
      </trkpt>
      <trkpt lat="49.28273" lon="1.139">
        <ele>94</ele>
        <time>2012-04-03T13:08:23Z</time>
      </trkpt>
      <trkpt lat="49.28268" lon="1.13915">
        <ele>101</ele>
        <time>2012-04-03T13:08:31Z</time>
      </trkpt>
      <trkpt lat="49.28274" lon="1.13928">
        <ele>101</ele>
        <time>2012-04-03T13:08:39Z</time>
      </trkpt>
      <trkpt lat="49.28274" lon="1.13943">
        <ele>101</ele>
        <time>2012-04-03T13:08:47Z</time>
      </trkpt>
      <trkpt lat="49.28272" lon="1.13959">
        <ele>101</ele>
        <time>2012-04-03T13:08:57Z</time>
      </trkpt>
      <trkpt lat="49.28266" lon="1.13969">
        <ele>101</ele>
        <time>2012-04-03T13:09:03Z</time>
      </trkpt>
      <trkpt lat="49.28263" lon="1.13983">
        <ele>101</ele>
        <time>2012-04-03T13:09:10Z</time>
      </trkpt>
      <trkpt lat="49.28263" lon="1.13998">
        <ele>101</ele>
        <time>2012-04-03T13:09:17Z</time>
      </trkpt>
      <trkpt lat="49.28267" lon="1.14011">
        <ele>101</ele>
        <time>2012-04-03T13:09:25Z</time>
      </trkpt>
      <trkpt lat="49.28262" lon="1.14023">
        <ele>101</ele>
        <time>2012-04-03T13:09:32Z</time>
      </trkpt>
      <trkpt lat="49.28257" lon="1.14036">
        <ele>101</ele>
        <time>2012-04-03T13:09:39Z</time>
      </trkpt>
      <trkpt lat="49.28258" lon="1.1405">
        <ele>101</ele>
        <time>2012-04-03T13:09:47Z</time>
      </trkpt>
      <trkpt lat="49.28258" lon="1.14066">
        <ele>101</ele>
        <time>2012-04-03T13:09:55Z</time>
      </trkpt>
      <trkpt lat="49.28251" lon="1.14078">
        <ele>101</ele>
        <time>2012-04-03T13:10:03Z</time>
      </trkpt>
      <trkpt lat="49.28252" lon="1.14092">
        <ele>101</ele>
        <time>2012-04-03T13:10:10Z</time>
      </trkpt>
      <trkpt lat="49.28253" lon="1.14107">
        <ele>101</ele>
        <time>2012-04-03T13:10:16Z</time>
      </trkpt>
      <trkpt lat="49.28253" lon="1.14123">
        <ele>101</ele>
        <time>2012-04-03T13:10:25Z</time>
      </trkpt>
      <trkpt lat="49.28247" lon="1.14135">
        <ele>101</ele>
        <time>2012-04-03T13:10:33Z</time>
      </trkpt>
      <trkpt lat="49.28247" lon="1.14151">
        <ele>101</ele>
        <time>2012-04-03T13:10:42Z</time>
      </trkpt>
      <trkpt lat="49.28247" lon="1.14165">
        <ele>101</ele>
        <time>2012-04-03T13:10:50Z</time>
      </trkpt>
      <trkpt lat="49.28246" lon="1.1418">
        <ele>101</ele>
        <time>2012-04-03T13:10:56Z</time>
      </trkpt>
      <trkpt lat="49.28244" lon="1.14194">
        <ele>101</ele>
        <time>2012-04-03T13:11:04Z</time>
      </trkpt>
      <trkpt lat="49.28242" lon="1.14208">
        <ele>101</ele>
        <time>2012-04-03T13:11:12Z</time>
      </trkpt>
      <trkpt lat="49.28243" lon="1.14224">
        <ele>101</ele>
        <time>2012-04-03T13:11:18Z</time>
      </trkpt>
      <trkpt lat="49.28242" lon="1.14239">
        <ele>101</ele>
        <time>2012-04-03T13:11:27Z</time>
      </trkpt>
      <trkpt lat="49.28245" lon="1.14254">
        <ele>101</ele>
        <time>2012-04-03T13:11:34Z</time>
      </trkpt>
      <trkpt lat="49.28243" lon="1.14269">
        <ele>101</ele>
        <time>2012-04-03T13:11:42Z</time>
      </trkpt>
      <trkpt lat="49.2824" lon="1.14284">
        <ele>94</ele>
        <time>2012-04-03T13:11:50Z</time>
      </trkpt>
      <trkpt lat="49.28237" lon="1.14299">
        <ele>94</ele>
        <time>2012-04-03T13:12:00Z</time>
      </trkpt>
      <trkpt lat="49.28236" lon="1.14313">
        <ele>94</ele>
        <time>2012-04-03T13:12:07Z</time>
      </trkpt>
      <trkpt lat="49.28238" lon="1.14328">
        <ele>87</ele>
        <time>2012-04-03T13:12:13Z</time>
      </trkpt>
      <trkpt lat="49.28234" lon="1.1434">
        <ele>87</ele>
        <time>2012-04-03T13:12:20Z</time>
      </trkpt>
      <trkpt lat="49.2823" lon="1.14354">
        <ele>94</ele>
        <time>2012-04-03T13:12:29Z</time>
      </trkpt>
      <trkpt lat="49.2823" lon="1.14369">
        <ele>94</ele>
        <time>2012-04-03T13:12:37Z</time>
      </trkpt>
      <trkpt lat="49.28228" lon="1.14384">
        <ele>94</ele>
        <time>2012-04-03T13:12:45Z</time>
      </trkpt>
      <trkpt lat="49.28234" lon="1.14396">
        <ele>94</ele>
        <time>2012-04-03T13:12:51Z</time>
      </trkpt>
      <trkpt lat="49.28235" lon="1.1441">
        <ele>94</ele>
        <time>2012-04-03T13:12:59Z</time>
      </trkpt>
      <trkpt lat="49.28233" lon="1.14426">
        <ele>94</ele>
        <time>2012-04-03T13:13:07Z</time>
      </trkpt>
      <trkpt lat="49.28227" lon="1.14438">
        <ele>87</ele>
        <time>2012-04-03T13:13:21Z</time>
      </trkpt>
      <trkpt lat="49.28231" lon="1.14451">
        <ele>87</ele>
        <time>2012-04-03T13:13:31Z</time>
      </trkpt>
      <trkpt lat="49.28231" lon="1.14466">
        <ele>102</ele>
        <time>2012-04-03T13:13:46Z</time>
      </trkpt>
      <trkpt lat="49.2823" lon="1.1448">
        <ele>102</ele>
        <time>2012-04-03T13:13:58Z</time>
      </trkpt>
      <trkpt lat="49.28227" lon="1.14496">
        <ele>102</ele>
        <time>2012-04-03T13:14:07Z</time>
      </trkpt>
      <trkpt lat="49.28226" lon="1.1451">
        <ele>102</ele>
        <time>2012-04-03T13:14:20Z</time>
      </trkpt>
      <trkpt lat="49.28223" lon="1.14524">
        <ele>102</ele>
        <time>2012-04-03T13:14:31Z</time>
      </trkpt>
      <trkpt lat="49.28222" lon="1.1454">
        <ele>102</ele>
        <time>2012-04-03T13:14:45Z</time>
      </trkpt>
      <trkpt lat="49.28226" lon="1.14553">
        <ele>102</ele>
        <time>2012-04-03T13:14:54Z</time>
      </trkpt>
      <trkpt lat="49.28221" lon="1.14566">
        <ele>111</ele>
        <time>2012-04-03T13:15:03Z</time>
      </trkpt>
      <trkpt lat="49.28218" lon="1.14579">
        <ele>111</ele>
        <time>2012-04-03T13:15:14Z</time>
      </trkpt>
      <trkpt lat="49.28221" lon="1.14593">
        <ele>120</ele>
        <time>2012-04-03T13:15:23Z</time>
      </trkpt>
      <trkpt lat="49.28216" lon="1.14604">
        <ele>120</ele>
        <time>2012-04-03T13:15:33Z</time>
      </trkpt>
      <trkpt lat="49.2821" lon="1.14617">
        <ele>120</ele>
        <time>2012-04-03T13:15:43Z</time>
      </trkpt>
      <trkpt lat="49.2821" lon="1.14633">
        <ele>112</ele>
        <time>2012-04-03T13:15:51Z</time>
      </trkpt>
      <trkpt lat="49.28213" lon="1.14647">
        <ele>112</ele>
        <time>2012-04-03T13:15:57Z</time>
      </trkpt>
      <trkpt lat="49.28207" lon="1.14658">
        <ele>112</ele>
        <time>2012-04-03T13:16:06Z</time>
      </trkpt>
      <trkpt lat="49.28205" lon="1.14673">
        <ele>112</ele>
        <time>2012-04-03T13:16:13Z</time>
      </trkpt>
      <trkpt lat="49.28205" lon="1.14687">
        <ele>112</ele>
        <time>2012-04-03T13:16:23Z</time>
      </trkpt>
      <trkpt lat="49.28203" lon="1.14701">
        <ele>112</ele>
        <time>2012-04-03T13:16:33Z</time>
      </trkpt>
      <trkpt lat="49.282" lon="1.14715">
        <ele>122</ele>
        <time>2012-04-03T13:16:39Z</time>
      </trkpt>
      <trkpt lat="49.28197" lon="1.14728">
        <ele>122</ele>
        <time>2012-04-03T13:16:49Z</time>
      </trkpt>
      <trkpt lat="49.28194" lon="1.14743">
        <ele>122</ele>
        <time>2012-04-03T13:16:57Z</time>
      </trkpt>
      <trkpt lat="49.28193" lon="1.14757">
        <ele>122</ele>
        <time>2012-04-03T13:17:04Z</time>
      </trkpt>
      <trkpt lat="49.28193" lon="1.14772">
        <ele>122</ele>
        <time>2012-04-03T13:17:11Z</time>
      </trkpt>
      <trkpt lat="49.28191" lon="1.14788">
        <ele>122</ele>
        <time>2012-04-03T13:17:21Z</time>
      </trkpt>
      <trkpt lat="49.28192" lon="1.14802">
        <ele>122</ele>
        <time>2012-04-03T13:17:26Z</time>
      </trkpt>
      <trkpt lat="49.28193" lon="1.14817">
        <ele>114</ele>
        <time>2012-04-03T13:17:35Z</time>
      </trkpt>
      <trkpt lat="49.28193" lon="1.14833">
        <ele>114</ele>
        <time>2012-04-03T13:17:44Z</time>
      </trkpt>
      <trkpt lat="49.2819" lon="1.14849">
        <ele>114</ele>
        <time>2012-04-03T13:17:52Z</time>
      </trkpt>
      <trkpt lat="49.28188" lon="1.14863">
        <ele>114</ele>
        <time>2012-04-03T13:18:00Z</time>
      </trkpt>
      <trkpt lat="49.2819" lon="1.14878">
        <ele>114</ele>
        <time>2012-04-03T13:18:09Z</time>
      </trkpt>
      <trkpt lat="49.28188" lon="1.14893">
        <ele>122</ele>
        <time>2012-04-03T13:18:18Z</time>
      </trkpt>
      <trkpt lat="49.28186" lon="1.14906">
        <ele>122</ele>
        <time>2012-04-03T13:18:25Z</time>
      </trkpt>
      <trkpt lat="49.28186" lon="1.14922">
        <ele>122</ele>
        <time>2012-04-03T13:18:32Z</time>
      </trkpt>
      <trkpt lat="49.28185" lon="1.14938">
        <ele>113</ele>
        <time>2012-04-03T13:18:43Z</time>
      </trkpt>
      <trkpt lat="49.28183" lon="1.14951">
        <ele>113</ele>
        <time>2012-04-03T13:18:50Z</time>
      </trkpt>
      <trkpt lat="49.2818" lon="1.14966">
        <ele>113</ele>
        <time>2012-04-03T13:18:59Z</time>
      </trkpt>
      <trkpt lat="49.28179" lon="1.1498">
        <ele>113</ele>
        <time>2012-04-03T13:19:07Z</time>
      </trkpt>
      <trkpt lat="49.28178" lon="1.14996">
        <ele>120</ele>
        <time>2012-04-03T13:19:15Z</time>
      </trkpt>
      <trkpt lat="49.28173" lon="1.15009">
        <ele>125</ele>
        <time>2012-04-03T13:19:21Z</time>
      </trkpt>
      <trkpt lat="49.28173" lon="1.15023">
        <ele>125</ele>
        <time>2012-04-03T13:19:27Z</time>
      </trkpt>
      <trkpt lat="49.28179" lon="1.15037">
        <ele>125</ele>
        <time>2012-04-03T13:19:36Z</time>
      </trkpt>
      <trkpt lat="49.28176" lon="1.1505">
        <ele>125</ele>
        <time>2012-04-03T13:19:43Z</time>
      </trkpt>
      <trkpt lat="49.28171" lon="1.15063">
        <ele>125</ele>
        <time>2012-04-03T13:19:52Z</time>
      </trkpt>
      <trkpt lat="49.28171" lon="1.15078">
        <ele>125</ele>
        <time>2012-04-03T13:20:01Z</time>
      </trkpt>
      <trkpt lat="49.28167" lon="1.15092">
        <ele>125</ele>
        <time>2012-04-03T13:20:09Z</time>
      </trkpt>
      <trkpt lat="49.28164" lon="1.15106">
        <ele>125</ele>
        <time>2012-04-03T13:20:15Z</time>
      </trkpt>
      <trkpt lat="49.28162" lon="1.15121">
        <ele>119</ele>
        <time>2012-04-03T13:20:24Z</time>
      </trkpt>
      <trkpt lat="49.28163" lon="1.15136">
        <ele>119</ele>
        <time>2012-04-03T13:20:32Z</time>
      </trkpt>
      <trkpt lat="49.28158" lon="1.15151">
        <ele>119</ele>
        <time>2012-04-03T13:20:42Z</time>
      </trkpt>
      <trkpt lat="49.28158" lon="1.15165">
        <ele>119</ele>
        <time>2012-04-03T13:20:49Z</time>
      </trkpt>
      <trkpt lat="49.28156" lon="1.15179">
        <ele>119</ele>
        <time>2012-04-03T13:21:00Z</time>
      </trkpt>
      <trkpt lat="49.28158" lon="1.15195">
        <ele>112</ele>
        <time>2012-04-03T13:21:06Z</time>
      </trkpt>
      <trkpt lat="49.28157" lon="1.15209">
        <ele>112</ele>
        <time>2012-04-03T13:21:13Z</time>
      </trkpt>
      <trkpt lat="49.28153" lon="1.15222">
        <ele>112</ele>
        <time>2012-04-03T13:21:22Z</time>
      </trkpt>
      <trkpt lat="49.28148" lon="1.15236">
        <ele>120</ele>
        <time>2012-04-03T13:21:30Z</time>
      </trkpt>
      <trkpt lat="49.28147" lon="1.1525">
        <ele>120</ele>
        <time>2012-04-03T13:21:38Z</time>
      </trkpt>
      <trkpt lat="49.28151" lon="1.15265">
        <ele>120</ele>
        <time>2012-04-03T13:21:44Z</time>
      </trkpt>
      <trkpt lat="49.28149" lon="1.15279">
        <ele>120</ele>
        <time>2012-04-03T13:21:52Z</time>
      </trkpt>
      <trkpt lat="49.28149" lon="1.15295">
        <ele>115</ele>
        <time>2012-04-03T13:22:00Z</time>
      </trkpt>
      <trkpt lat="49.28147" lon="1.1531">
        <ele>115</ele>
        <time>2012-04-03T13:22:09Z</time>
      </trkpt>
      <trkpt lat="49.28145" lon="1.15324">
        <ele>115</ele>
        <time>2012-04-03T13:22:18Z</time>
      </trkpt>
      <trkpt lat="49.28146" lon="1.1534">
        <ele>115</ele>
        <time>2012-04-03T13:22:25Z</time>
      </trkpt>
      <trkpt lat="49.28149" lon="1.15354">
        <ele>115</ele>
        <time>2012-04-03T13:22:33Z</time>
      </trkpt>
      <trkpt lat="49.2815" lon="1.15369">
        <ele>115</ele>
        <time>2012-04-03T13:22:41Z</time>
      </trkpt>
      <trkpt lat="49.28154" lon="1.15381">
        <ele>115</ele>
        <time>2012-04-03T13:22:59Z</time>
      </trkpt>
      <trkpt lat="49.28146" lon="1.15385">
        <ele>107</ele>
        <time>2012-04-03T13:24:54Z</time>
      </trkpt>
      <trkpt lat="49.28146" lon="1.154">
        <ele>114</ele>
        <time>2012-04-03T13:26:51Z</time>
      </trkpt>
      <trkpt lat="49.28141" lon="1.15414">
        <ele>114</ele>
        <time>2012-04-03T13:27:02Z</time>
      </trkpt>
      <trkpt lat="49.28137" lon="1.15428">
        <ele>114</ele>
        <time>2012-04-03T13:27:10Z</time>
      </trkpt>
      <trkpt lat="49.28136" lon="1.15443">
        <ele>120</ele>
        <time>2012-04-03T13:27:20Z</time>
      </trkpt>
      <trkpt lat="49.28137" lon="1.15458">
        <ele>120</ele>
        <time>2012-04-03T13:27:28Z</time>
      </trkpt>
      <trkpt lat="49.28133" lon="1.15472">
        <ele>120</ele>
        <time>2012-04-03T13:27:37Z</time>
      </trkpt>
      <trkpt lat="49.28134" lon="1.15487">
        <ele>120</ele>
        <time>2012-04-03T13:27:43Z</time>
      </trkpt>
      <trkpt lat="49.28138" lon="1.15501">
        <ele>120</ele>
        <time>2012-04-03T13:27:51Z</time>
      </trkpt>
      <trkpt lat="49.28137" lon="1.15515">
        <ele>120</ele>
        <time>2012-04-03T13:27:59Z</time>
      </trkpt>
      <trkpt lat="49.28137" lon="1.1553">
        <ele>120</ele>
        <time>2012-04-03T13:28:07Z</time>
      </trkpt>
      <trkpt lat="49.28133" lon="1.15543">
        <ele>120</ele>
        <time>2012-04-03T13:28:14Z</time>
      </trkpt>
      <trkpt lat="49.2813" lon="1.15557">
        <ele>120</ele>
        <time>2012-04-03T13:28:22Z</time>
      </trkpt>
      <trkpt lat="49.28128" lon="1.15572">
        <ele>120</ele>
        <time>2012-04-03T13:28:30Z</time>
      </trkpt>
      <trkpt lat="49.28127" lon="1.15586">
        <ele>120</ele>
        <time>2012-04-03T13:28:37Z</time>
      </trkpt>
      <trkpt lat="49.28125" lon="1.15601">
        <ele>120</ele>
        <time>2012-04-03T13:28:47Z</time>
      </trkpt>
      <trkpt lat="49.28124" lon="1.15615">
        <ele>120</ele>
        <time>2012-04-03T13:28:54Z</time>
      </trkpt>
      <trkpt lat="49.28122" lon="1.1563">
        <ele>114</ele>
        <time>2012-04-03T13:29:02Z</time>
      </trkpt>
      <trkpt lat="49.28124" lon="1.15644">
        <ele>114</ele>
        <time>2012-04-03T13:29:09Z</time>
      </trkpt>
      <trkpt lat="49.28122" lon="1.1566">
        <ele>114</ele>
        <time>2012-04-03T13:29:17Z</time>
      </trkpt>
      <trkpt lat="49.28121" lon="1.15674">
        <ele>108</ele>
        <time>2012-04-03T13:29:26Z</time>
      </trkpt>
      <trkpt lat="49.28121" lon="1.1569">
        <ele>108</ele>
        <time>2012-04-03T13:29:34Z</time>
      </trkpt>
      <trkpt lat="49.28117" lon="1.15705">
        <ele>108</ele>
        <time>2012-04-03T13:29:44Z</time>
      </trkpt>
      <trkpt lat="49.28116" lon="1.1572">
        <ele>108</ele>
        <time>2012-04-03T13:29:53Z</time>
      </trkpt>
      <trkpt lat="49.28112" lon="1.15734">
        <ele>108</ele>
        <time>2012-04-03T13:30:02Z</time>
      </trkpt>
      <trkpt lat="49.28113" lon="1.1575">
        <ele>100</ele>
        <time>2012-04-03T13:30:11Z</time>
      </trkpt>
      <trkpt lat="49.28109" lon="1.15762">
        <ele>100</ele>
        <time>2012-04-03T13:30:19Z</time>
      </trkpt>
      <trkpt lat="49.28109" lon="1.15777">
        <ele>100</ele>
        <time>2012-04-03T13:30:27Z</time>
      </trkpt>
      <trkpt lat="49.2811" lon="1.15795">
        <ele>100</ele>
        <time>2012-04-03T13:30:35Z</time>
      </trkpt>
      <trkpt lat="49.28104" lon="1.15805">
        <ele>100</ele>
        <time>2012-04-03T13:30:41Z</time>
      </trkpt>
      <trkpt lat="49.28102" lon="1.1582">
        <ele>100</ele>
        <time>2012-04-03T13:31:25Z</time>
      </trkpt>
      <trkpt lat="49.28106" lon="1.15833">
        <ele>100</ele>
        <time>2012-04-03T13:31:35Z</time>
      </trkpt>
      <trkpt lat="49.28104" lon="1.15848">
        <ele>100</ele>
        <time>2012-04-03T13:31:47Z</time>
      </trkpt>
      <trkpt lat="49.28101" lon="1.15862">
        <ele>100</ele>
        <time>2012-04-03T13:31:55Z</time>
      </trkpt>
      <trkpt lat="49.28104" lon="1.15876">
        <ele>89</ele>
        <time>2012-04-03T13:32:03Z</time>
      </trkpt>
      <trkpt lat="49.28102" lon="1.1589">
        <ele>89</ele>
        <time>2012-04-03T13:32:10Z</time>
      </trkpt>
      <trkpt lat="49.28096" lon="1.15902">
        <ele>89</ele>
        <time>2012-04-03T13:32:17Z</time>
      </trkpt>
      <trkpt lat="49.28093" lon="1.15918">
        <ele>96</ele>
        <time>2012-04-03T13:32:25Z</time>
      </trkpt>
      <trkpt lat="49.28094" lon="1.15933">
        <ele>96</ele>
        <time>2012-04-03T13:32:32Z</time>
      </trkpt>
      <trkpt lat="49.28089" lon="1.15944">
        <ele>96</ele>
        <time>2012-04-03T13:32:40Z</time>
      </trkpt>
      <trkpt lat="49.28092" lon="1.15958">
        <ele>89</ele>
        <time>2012-04-03T13:32:46Z</time>
      </trkpt>
      <trkpt lat="49.28094" lon="1.15974">
        <ele>89</ele>
        <time>2012-04-03T13:32:54Z</time>
      </trkpt>
      <trkpt lat="49.28091" lon="1.15989">
        <ele>89</ele>
        <time>2012-04-03T13:33:03Z</time>
      </trkpt>
      <trkpt lat="49.2809" lon="1.16004">
        <ele>89</ele>
        <time>2012-04-03T13:33:11Z</time>
      </trkpt>
      <trkpt lat="49.28092" lon="1.16018">
        <ele>89</ele>
        <time>2012-04-03T13:33:19Z</time>
      </trkpt>
      <trkpt lat="49.28089" lon="1.16033">
        <ele>84</ele>
        <time>2012-04-03T13:33:26Z</time>
      </trkpt>
      <trkpt lat="49.28082" lon="1.16043">
        <ele>91</ele>
        <time>2012-04-03T13:33:33Z</time>
      </trkpt>
      <trkpt lat="49.28077" lon="1.16055">
        <ele>97</ele>
        <time>2012-04-03T13:33:40Z</time>
      </trkpt>
      <trkpt lat="49.28079" lon="1.1607">
        <ele>92</ele>
        <time>2012-04-03T13:33:46Z</time>
      </trkpt>
      <trkpt lat="49.28082" lon="1.16085">
        <ele>92</ele>
        <time>2012-04-03T13:33:54Z</time>
      </trkpt>
      <trkpt lat="49.28082" lon="1.161">
        <ele>92</ele>
        <time>2012-04-03T13:34:03Z</time>
      </trkpt>
      <trkpt lat="49.28082" lon="1.16115">
        <ele>92</ele>
        <time>2012-04-03T13:34:10Z</time>
      </trkpt>
      <trkpt lat="49.28076" lon="1.16127">
        <ele>92</ele>
        <time>2012-04-03T13:34:18Z</time>
      </trkpt>
      <trkpt lat="49.28075" lon="1.16142">
        <ele>92</ele>
        <time>2012-04-03T13:34:26Z</time>
      </trkpt>
      <trkpt lat="49.28074" lon="1.16157">
        <ele>92</ele>
        <time>2012-04-03T13:34:33Z</time>
      </trkpt>
      <trkpt lat="49.28074" lon="1.16171">
        <ele>92</ele>
        <time>2012-04-03T13:34:39Z</time>
      </trkpt>
      <trkpt lat="49.28073" lon="1.16186">
        <ele>92</ele>
        <time>2012-04-03T13:34:46Z</time>
      </trkpt>
      <trkpt lat="49.28072" lon="1.16202">
        <ele>92</ele>
        <time>2012-04-03T13:34:56Z</time>
      </trkpt>
      <trkpt lat="49.28068" lon="1.16216">
        <ele>92</ele>
        <time>2012-04-03T13:35:04Z</time>
      </trkpt>
      <trkpt lat="49.28063" lon="1.16228">
        <ele>99</ele>
        <time>2012-04-03T13:35:11Z</time>
      </trkpt>
      <trkpt lat="49.28063" lon="1.16244">
        <ele>99</ele>
        <time>2012-04-03T13:35:19Z</time>
      </trkpt>
      <trkpt lat="49.28064" lon="1.16258">
        <ele>94</ele>
        <time>2012-04-03T13:35:26Z</time>
      </trkpt>
      <trkpt lat="49.28063" lon="1.16273">
        <ele>94</ele>
        <time>2012-04-03T13:35:34Z</time>
      </trkpt>
      <trkpt lat="49.28063" lon="1.16289">
        <ele>94</ele>
        <time>2012-04-03T13:35:42Z</time>
      </trkpt>
      <trkpt lat="49.28063" lon="1.16304">
        <ele>89</ele>
        <time>2012-04-03T13:35:50Z</time>
      </trkpt>
      <trkpt lat="49.2806" lon="1.16318">
        <ele>89</ele>
        <time>2012-04-03T13:35:58Z</time>
      </trkpt>
      <trkpt lat="49.28058" lon="1.16332">
        <ele>97</ele>
        <time>2012-04-03T13:36:06Z</time>
      </trkpt>
      <trkpt lat="49.28055" lon="1.16347">
        <ele>97</ele>
        <time>2012-04-03T13:36:15Z</time>
      </trkpt>
      <trkpt lat="49.28055" lon="1.16362">
        <ele>97</ele>
        <time>2012-04-03T13:36:23Z</time>
      </trkpt>
      <trkpt lat="49.28055" lon="1.16377">
        <ele>97</ele>
        <time>2012-04-03T13:36:30Z</time>
      </trkpt>
      <trkpt lat="49.28055" lon="1.16391">
        <ele>97</ele>
        <time>2012-04-03T13:36:38Z</time>
      </trkpt>
      <trkpt lat="49.28055" lon="1.16406">
        <ele>97</ele>
        <time>2012-04-03T13:36:46Z</time>
      </trkpt>
      <trkpt lat="49.28052" lon="1.16421">
        <ele>97</ele>
        <time>2012-04-03T13:36:55Z</time>
      </trkpt>
      <trkpt lat="49.28049" lon="1.16435">
        <ele>97</ele>
        <time>2012-04-03T13:37:03Z</time>
      </trkpt>
      <trkpt lat="49.28049" lon="1.1645">
        <ele>97</ele>
        <time>2012-04-03T13:37:11Z</time>
      </trkpt>
      <trkpt lat="49.2805" lon="1.16465">
        <ele>97</ele>
        <time>2012-04-03T13:37:18Z</time>
      </trkpt>
      <trkpt lat="49.2805" lon="1.1648">
        <ele>97</ele>
        <time>2012-04-03T13:37:26Z</time>
      </trkpt>
      <trkpt lat="49.28049" lon="1.16495">
        <ele>97</ele>
        <time>2012-04-03T13:37:34Z</time>
      </trkpt>
      <trkpt lat="49.28046" lon="1.1651">
        <ele>97</ele>
        <time>2012-04-03T13:37:42Z</time>
      </trkpt>
      <trkpt lat="49.28043" lon="1.16524">
        <ele>102</ele>
        <time>2012-04-03T13:37:50Z</time>
      </trkpt>
      <trkpt lat="49.28042" lon="1.16538">
        <ele>102</ele>
        <time>2012-04-03T13:37:57Z</time>
      </trkpt>
      <trkpt lat="49.28039" lon="1.16552">
        <ele>102</ele>
        <time>2012-04-03T13:38:05Z</time>
      </trkpt>
      <trkpt lat="49.2804" lon="1.16569">
        <ele>102</ele>
        <time>2012-04-03T13:38:13Z</time>
      </trkpt>
      <trkpt lat="49.28041" lon="1.16584">
        <ele>102</ele>
        <time>2012-04-03T13:38:20Z</time>
      </trkpt>
      <trkpt lat="49.28039" lon="1.16598">
        <ele>102</ele>
        <time>2012-04-03T13:38:27Z</time>
      </trkpt>
      <trkpt lat="49.28037" lon="1.16612">
        <ele>102</ele>
        <time>2012-04-03T13:38:34Z</time>
      </trkpt>
      <trkpt lat="49.28036" lon="1.16628">
        <ele>102</ele>
        <time>2012-04-03T13:38:42Z</time>
      </trkpt>
      <trkpt lat="49.28033" lon="1.16642">
        <ele>102</ele>
        <time>2012-04-03T13:38:50Z</time>
      </trkpt>
      <trkpt lat="49.2803" lon="1.16655">
        <ele>107</ele>
        <time>2012-04-03T13:38:58Z</time>
      </trkpt>
      <trkpt lat="49.28029" lon="1.16671">
        <ele>107</ele>
        <time>2012-04-03T13:39:06Z</time>
      </trkpt>
      <trkpt lat="49.28027" lon="1.16686">
        <ele>107</ele>
        <time>2012-04-03T13:39:14Z</time>
      </trkpt>
      <trkpt lat="49.28029" lon="1.16704">
        <ele>107</ele>
        <time>2012-04-03T13:39:22Z</time>
      </trkpt>
      <trkpt lat="49.28027" lon="1.16718">
        <ele>107</ele>
        <time>2012-04-03T13:39:30Z</time>
      </trkpt>
      <trkpt lat="49.28024" lon="1.16733">
        <ele>107</ele>
        <time>2012-04-03T13:39:38Z</time>
      </trkpt>
      <trkpt lat="49.28022" lon="1.16748">
        <ele>107</ele>
        <time>2012-04-03T13:39:46Z</time>
      </trkpt>
      <trkpt lat="49.28022" lon="1.16763">
        <ele>107</ele>
        <time>2012-04-03T13:39:53Z</time>
      </trkpt>
      <trkpt lat="49.2802" lon="1.16777">
        <ele>107</ele>
        <time>2012-04-03T13:40:01Z</time>
      </trkpt>
      <trkpt lat="49.28017" lon="1.16793">
        <ele>107</ele>
        <time>2012-04-03T13:40:09Z</time>
      </trkpt>
      <trkpt lat="49.28018" lon="1.16808">
        <ele>107</ele>
        <time>2012-04-03T13:40:16Z</time>
      </trkpt>
      <trkpt lat="49.28018" lon="1.16823">
        <ele>107</ele>
        <time>2012-04-03T13:40:23Z</time>
      </trkpt>
      <trkpt lat="49.28016" lon="1.16838">
        <ele>107</ele>
        <time>2012-04-03T13:40:31Z</time>
      </trkpt>
      <trkpt lat="49.28014" lon="1.16851">
        <ele>107</ele>
        <time>2012-04-03T13:40:38Z</time>
      </trkpt>
      <trkpt lat="49.28012" lon="1.16865">
        <ele>107</ele>
        <time>2012-04-03T13:40:46Z</time>
      </trkpt>
      <trkpt lat="49.2801" lon="1.1688">
        <ele>107</ele>
        <time>2012-04-03T13:40:54Z</time>
      </trkpt>
      <trkpt lat="49.28007" lon="1.16893">
        <ele>113</ele>
        <time>2012-04-03T13:41:01Z</time>
      </trkpt>
      <trkpt lat="49.28007" lon="1.16909">
        <ele>113</ele>
        <time>2012-04-03T13:41:09Z</time>
      </trkpt>
      <trkpt lat="49.28009" lon="1.16925">
        <ele>113</ele>
        <time>2012-04-03T13:41:15Z</time>
      </trkpt>
      <trkpt lat="49.28009" lon="1.16939">
        <ele>113</ele>
        <time>2012-04-03T13:41:22Z</time>
      </trkpt>
      <trkpt lat="49.28007" lon="1.16954">
        <ele>113</ele>
        <time>2012-04-03T13:41:33Z</time>
      </trkpt>
      <trkpt lat="49.28006" lon="1.1697">
        <ele>113</ele>
        <time>2012-04-03T13:41:40Z</time>
      </trkpt>
      <trkpt lat="49.28006" lon="1.16984">
        <ele>113</ele>
        <time>2012-04-03T13:41:48Z</time>
      </trkpt>
      <trkpt lat="49.28005" lon="1.16998">
        <ele>120</ele>
        <time>2012-04-03T13:41:57Z</time>
      </trkpt>
      <trkpt lat="49.28003" lon="1.17012">
        <ele>120</ele>
        <time>2012-04-03T13:42:04Z</time>
      </trkpt>
      <trkpt lat="49.28006" lon="1.17028">
        <ele>125</ele>
        <time>2012-04-03T13:42:13Z</time>
      </trkpt>
      <trkpt lat="49.28003" lon="1.17042">
        <ele>125</ele>
        <time>2012-04-03T13:42:22Z</time>
      </trkpt>
      <trkpt lat="49.27999" lon="1.17057">
        <ele>125</ele>
        <time>2012-04-03T13:42:28Z</time>
      </trkpt>
      <trkpt lat="49.28004" lon="1.1707">
        <ele>125</ele>
        <time>2012-04-03T13:42:34Z</time>
      </trkpt>
      <trkpt lat="49.28005" lon="1.17086">
        <ele>125</ele>
        <time>2012-04-03T13:42:41Z</time>
      </trkpt>
      <trkpt lat="49.28" lon="1.17097">
        <ele>125</ele>
        <time>2012-04-03T13:42:47Z</time>
      </trkpt>
      <trkpt lat="49.27999" lon="1.17112">
        <ele>125</ele>
        <time>2012-04-03T13:42:54Z</time>
      </trkpt>
      <trkpt lat="49.27995" lon="1.17124">
        <ele>125</ele>
        <time>2012-04-03T13:43:00Z</time>
      </trkpt>
      <trkpt lat="49.27995" lon="1.17139">
        <ele>125</ele>
        <time>2012-04-03T13:43:08Z</time>
      </trkpt>
      <trkpt lat="49.27993" lon="1.17155">
        <ele>125</ele>
        <time>2012-04-03T13:43:16Z</time>
      </trkpt>
      <trkpt lat="49.2799" lon="1.17169">
        <ele>119</ele>
        <time>2012-04-03T13:43:23Z</time>
      </trkpt>
      <trkpt lat="49.27986" lon="1.17183">
        <ele>119</ele>
        <time>2012-04-03T13:43:31Z</time>
      </trkpt>
      <trkpt lat="49.27988" lon="1.172">
        <ele>119</ele>
        <time>2012-04-03T13:43:39Z</time>
      </trkpt>
      <trkpt lat="49.27986" lon="1.17215">
        <ele>119</ele>
        <time>2012-04-03T13:43:47Z</time>
      </trkpt>
      <trkpt lat="49.27985" lon="1.17229">
        <ele>119</ele>
        <time>2012-04-03T13:43:54Z</time>
      </trkpt>
      <trkpt lat="49.27984" lon="1.17245">
        <ele>125</ele>
        <time>2012-04-03T13:44:04Z</time>
      </trkpt>
      <trkpt lat="49.2798" lon="1.17258">
        <ele>125</ele>
        <time>2012-04-03T13:44:11Z</time>
      </trkpt>
      <trkpt lat="49.27979" lon="1.17272">
        <ele>125</ele>
        <time>2012-04-03T13:44:19Z</time>
      </trkpt>
      <trkpt lat="49.27979" lon="1.17287">
        <ele>125</ele>
        <time>2012-04-03T13:44:26Z</time>
      </trkpt>
      <trkpt lat="49.27978" lon="1.17301">
        <ele>117</ele>
        <time>2012-04-03T13:44:33Z</time>
      </trkpt>
      <trkpt lat="49.27975" lon="1.17316">
        <ele>117</ele>
        <time>2012-04-03T13:44:44Z</time>
      </trkpt>
      <trkpt lat="49.27972" lon="1.17329">
        <ele>117</ele>
        <time>2012-04-03T13:44:53Z</time>
      </trkpt>
      <trkpt lat="49.27981" lon="1.1733">
        <ele>117</ele>
        <time>2012-04-03T13:45:49Z</time>
      </trkpt>
      <trkpt lat="49.27973" lon="1.17337">
        <ele>111</ele>
        <time>2012-04-03T13:47:57Z</time>
      </trkpt>
      <trkpt lat="49.27973" lon="1.17351">
        <ele>118</ele>
        <time>2012-04-03T13:48:06Z</time>
      </trkpt>
      <trkpt lat="49.27972" lon="1.17366">
        <ele>118</ele>
        <time>2012-04-03T13:48:16Z</time>
      </trkpt>
      <trkpt lat="49.2797" lon="1.1738">
        <ele>118</ele>
        <time>2012-04-03T13:48:24Z</time>
      </trkpt>
      <trkpt lat="49.27967" lon="1.17395">
        <ele>118</ele>
        <time>2012-04-03T13:48:33Z</time>
      </trkpt>
      <trkpt lat="49.27965" lon="1.17409">
        <ele>123</ele>
        <time>2012-04-03T13:48:40Z</time>
      </trkpt>
      <trkpt lat="49.27966" lon="1.17423">
        <ele>123</ele>
        <time>2012-04-03T13:48:48Z</time>
      </trkpt>
      <trkpt lat="49.27965" lon="1.17438">
        <ele>123</ele>
        <time>2012-04-03T13:48:56Z</time>
      </trkpt>
      <trkpt lat="49.27966" lon="1.17453">
        <ele>123</ele>
        <time>2012-04-03T13:49:04Z</time>
      </trkpt>
      <trkpt lat="49.27962" lon="1.17466">
        <ele>123</ele>
        <time>2012-04-03T13:49:11Z</time>
      </trkpt>
      <trkpt lat="49.27959" lon="1.17482">
        <ele>123</ele>
        <time>2012-04-03T13:49:20Z</time>
      </trkpt>
      <trkpt lat="49.2796" lon="1.17497">
        <ele>123</ele>
        <time>2012-04-03T13:49:28Z</time>
      </trkpt>
      <trkpt lat="49.27959" lon="1.17511">
        <ele>123</ele>
        <time>2012-04-03T13:49:35Z</time>
      </trkpt>
      <trkpt lat="49.27955" lon="1.17527">
        <ele>123</ele>
        <time>2012-04-03T13:49:43Z</time>
      </trkpt>
      <trkpt lat="49.27952" lon="1.17541">
        <ele>123</ele>
        <time>2012-04-03T13:49:51Z</time>
      </trkpt>
      <trkpt lat="49.27952" lon="1.17556">
        <ele>129</ele>
        <time>2012-04-03T13:49:59Z</time>
      </trkpt>
      <trkpt lat="49.27949" lon="1.17571">
        <ele>129</ele>
        <time>2012-04-03T13:50:07Z</time>
      </trkpt>
      <trkpt lat="49.27948" lon="1.17585">
        <ele>129</ele>
        <time>2012-04-03T13:50:14Z</time>
      </trkpt>
      <trkpt lat="49.27946" lon="1.17599">
        <ele>129</ele>
        <time>2012-04-03T13:50:22Z</time>
      </trkpt>
      <trkpt lat="49.27945" lon="1.17614">
        <ele>129</ele>
        <time>2012-04-03T13:50:29Z</time>
      </trkpt>
      <trkpt lat="49.27944" lon="1.17628">
        <ele>129</ele>
        <time>2012-04-03T13:50:37Z</time>
      </trkpt>
      <trkpt lat="49.27947" lon="1.17642">
        <ele>129</ele>
        <time>2012-04-03T13:50:44Z</time>
      </trkpt>
      <trkpt lat="49.27944" lon="1.17655">
        <ele>129</ele>
        <time>2012-04-03T13:50:52Z</time>
      </trkpt>
      <trkpt lat="49.27943" lon="1.1767">
        <ele>129</ele>
        <time>2012-04-03T13:51:00Z</time>
      </trkpt>
      <trkpt lat="49.2794" lon="1.17686">
        <ele>129</ele>
        <time>2012-04-03T13:51:09Z</time>
      </trkpt>
      <trkpt lat="49.27934" lon="1.17696">
        <ele>129</ele>
        <time>2012-04-03T13:51:17Z</time>
      </trkpt>
      <trkpt lat="49.27936" lon="1.17712">
        <ele>129</ele>
        <time>2012-04-03T13:51:24Z</time>
      </trkpt>
      <trkpt lat="49.27935" lon="1.17728">
        <ele>129</ele>
        <time>2012-04-03T13:51:31Z</time>
      </trkpt>
      <trkpt lat="49.27935" lon="1.17742">
        <ele>129</ele>
        <time>2012-04-03T13:51:38Z</time>
      </trkpt>
      <trkpt lat="49.27933" lon="1.17758">
        <ele>129</ele>
        <time>2012-04-03T13:51:46Z</time>
      </trkpt>
      <trkpt lat="49.27932" lon="1.17772">
        <ele>129</ele>
        <time>2012-04-03T13:51:54Z</time>
      </trkpt>
      <trkpt lat="49.27929" lon="1.17786">
        <ele>129</ele>
        <time>2012-04-03T13:52:03Z</time>
      </trkpt>
      <trkpt lat="49.27931" lon="1.178">
        <ele>129</ele>
        <time>2012-04-03T13:52:10Z</time>
      </trkpt>
      <trkpt lat="49.27929" lon="1.17814">
        <ele>129</ele>
        <time>2012-04-03T13:52:18Z</time>
      </trkpt>
      <trkpt lat="49.27926" lon="1.17828">
        <ele>129</ele>
        <time>2012-04-03T13:52:24Z</time>
      </trkpt>
      <trkpt lat="49.27925" lon="1.17843">
        <ele>129</ele>
        <time>2012-04-03T13:52:32Z</time>
      </trkpt>
      <trkpt lat="49.27923" lon="1.17858">
        <ele>129</ele>
        <time>2012-04-03T13:52:40Z</time>
      </trkpt>
      <trkpt lat="49.27923" lon="1.17873">
        <ele>129</ele>
        <time>2012-04-03T13:52:48Z</time>
      </trkpt>
      <trkpt lat="49.27922" lon="1.1789">
        <ele>129</ele>
        <time>2012-04-03T13:52:57Z</time>
      </trkpt>
      <trkpt lat="49.27919" lon="1.17905">
        <ele>129</ele>
        <time>2012-04-03T13:53:05Z</time>
      </trkpt>
      <trkpt lat="49.27919" lon="1.17919">
        <ele>123</ele>
        <time>2012-04-03T13:53:25Z</time>
      </trkpt>
      <trkpt lat="49.27918" lon="1.17935">
        <ele>123</ele>
        <time>2012-04-03T13:53:35Z</time>
      </trkpt>
      <trkpt lat="49.27918" lon="1.17951">
        <ele>123</ele>
        <time>2012-04-03T13:53:42Z</time>
      </trkpt>
      <trkpt lat="49.27918" lon="1.17966">
        <ele>123</ele>
        <time>2012-04-03T13:53:51Z</time>
      </trkpt>
      <trkpt lat="49.27915" lon="1.17979">
        <ele>123</ele>
        <time>2012-04-03T13:53:57Z</time>
      </trkpt>
      <trkpt lat="49.27914" lon="1.17995">
        <ele>129</ele>
        <time>2012-04-03T13:54:04Z</time>
      </trkpt>
      <trkpt lat="49.27911" lon="1.18008">
        <ele>129</ele>
        <time>2012-04-03T13:54:11Z</time>
      </trkpt>
      <trkpt lat="49.27906" lon="1.18022">
        <ele>129</ele>
        <time>2012-04-03T13:54:19Z</time>
      </trkpt>
      <trkpt lat="49.27905" lon="1.18038">
        <ele>129</ele>
        <time>2012-04-03T13:54:26Z</time>
      </trkpt>
      <trkpt lat="49.27904" lon="1.18052">
        <ele>129</ele>
        <time>2012-04-03T13:54:35Z</time>
      </trkpt>
      <trkpt lat="49.27904" lon="1.18067">
        <ele>129</ele>
        <time>2012-04-03T13:54:42Z</time>
      </trkpt>
      <trkpt lat="49.27903" lon="1.18082">
        <ele>129</ele>
        <time>2012-04-03T13:54:50Z</time>
      </trkpt>
      <trkpt lat="49.27902" lon="1.18098">
        <ele>129</ele>
        <time>2012-04-03T13:54:58Z</time>
      </trkpt>
      <trkpt lat="49.27901" lon="1.18112">
        <ele>129</ele>
        <time>2012-04-03T13:55:05Z</time>
      </trkpt>
      <trkpt lat="49.27902" lon="1.18128">
        <ele>122</ele>
        <time>2012-04-03T13:55:12Z</time>
      </trkpt>
      <trkpt lat="49.27901" lon="1.18142">
        <ele>122</ele>
        <time>2012-04-03T13:55:20Z</time>
      </trkpt>
      <trkpt lat="49.27899" lon="1.18156">
        <ele>122</ele>
        <time>2012-04-03T13:55:28Z</time>
      </trkpt>
      <trkpt lat="49.27898" lon="1.18173">
        <ele>122</ele>
        <time>2012-04-03T13:55:36Z</time>
      </trkpt>
      <trkpt lat="49.27901" lon="1.18186">
        <ele>127</ele>
        <time>2012-04-03T13:55:46Z</time>
      </trkpt>
      <trkpt lat="49.27909" lon="1.1819">
        <ele>127</ele>
        <time>2012-04-03T13:55:55Z</time>
      </trkpt>
      <trkpt lat="49.27918" lon="1.18196">
        <ele>127</ele>
        <time>2012-04-03T13:56:02Z</time>
      </trkpt>
      <trkpt lat="49.27927" lon="1.182">
        <ele>122</ele>
        <time>2012-04-03T13:56:10Z</time>
      </trkpt>
      <trkpt lat="49.27936" lon="1.18204">
        <ele>122</ele>
        <time>2012-04-03T13:56:17Z</time>
      </trkpt>
      <trkpt lat="49.27945" lon="1.18209">
        <ele>132</ele>
        <time>2012-04-03T13:56:26Z</time>
      </trkpt>
      <trkpt lat="49.27954" lon="1.18208">
        <ele>132</ele>
        <time>2012-04-03T13:56:35Z</time>
      </trkpt>
      <trkpt lat="49.27964" lon="1.18211">
        <ele>132</ele>
        <time>2012-04-03T13:56:42Z</time>
      </trkpt>
      <trkpt lat="49.27975" lon="1.18213">
        <ele>126</ele>
        <time>2012-04-03T13:56:49Z</time>
      </trkpt>
      <trkpt lat="49.27983" lon="1.18217">
        <ele>126</ele>
        <time>2012-04-03T13:56:57Z</time>
      </trkpt>
      <trkpt lat="49.27992" lon="1.18221">
        <ele>126</ele>
        <time>2012-04-03T13:57:04Z</time>
      </trkpt>
      <trkpt lat="49.28003" lon="1.18223">
        <ele>126</ele>
        <time>2012-04-03T13:57:12Z</time>
      </trkpt>
      <trkpt lat="49.28012" lon="1.18225">
        <ele>134</ele>
        <time>2012-04-03T13:57:20Z</time>
      </trkpt>
      <trkpt lat="49.28022" lon="1.18227">
        <ele>125</ele>
        <time>2012-04-03T13:57:27Z</time>
      </trkpt>
      <trkpt lat="49.28032" lon="1.18227">
        <ele>125</ele>
        <time>2012-04-03T13:57:35Z</time>
      </trkpt>
      <trkpt lat="49.28042" lon="1.1823">
        <ele>120</ele>
        <time>2012-04-03T13:57:44Z</time>
      </trkpt>
      <trkpt lat="49.28052" lon="1.18233">
        <ele>120</ele>
        <time>2012-04-03T13:57:54Z</time>
      </trkpt>
      <trkpt lat="49.2806" lon="1.18237">
        <ele>120</ele>
        <time>2012-04-03T13:58:01Z</time>
      </trkpt>
      <trkpt lat="49.2807" lon="1.1824">
        <ele>120</ele>
        <time>2012-04-03T13:58:10Z</time>
      </trkpt>
      <trkpt lat="49.28079" lon="1.18243">
        <ele>120</ele>
        <time>2012-04-03T13:58:18Z</time>
      </trkpt>
      <trkpt lat="49.28088" lon="1.18244">
        <ele>120</ele>
        <time>2012-04-03T13:58:27Z</time>
      </trkpt>
      <trkpt lat="49.28097" lon="1.18248">
        <ele>120</ele>
        <time>2012-04-03T13:58:33Z</time>
      </trkpt>
      <trkpt lat="49.28107" lon="1.1825">
        <ele>120</ele>
        <time>2012-04-03T13:58:42Z</time>
      </trkpt>
      <trkpt lat="49.28116" lon="1.18251">
        <ele>120</ele>
        <time>2012-04-03T13:58:49Z</time>
      </trkpt>
      <trkpt lat="49.28125" lon="1.18257">
        <ele>110</ele>
        <time>2012-04-03T13:58:56Z</time>
      </trkpt>
      <trkpt lat="49.28134" lon="1.18259">
        <ele>110</ele>
        <time>2012-04-03T13:59:03Z</time>
      </trkpt>
      <trkpt lat="49.28144" lon="1.18259">
        <ele>110</ele>
        <time>2012-04-03T13:59:09Z</time>
      </trkpt>
      <trkpt lat="49.28154" lon="1.18261">
        <ele>110</ele>
        <time>2012-04-03T13:59:18Z</time>
      </trkpt>
      <trkpt lat="49.28163" lon="1.18264">
        <ele>110</ele>
        <time>2012-04-03T13:59:26Z</time>
      </trkpt>
      <trkpt lat="49.28173" lon="1.18266">
        <ele>116</ele>
        <time>2012-04-03T13:59:37Z</time>
      </trkpt>
      <trkpt lat="49.28183" lon="1.1827">
        <ele>116</ele>
        <time>2012-04-03T13:59:45Z</time>
      </trkpt>
      <trkpt lat="49.28193" lon="1.18273">
        <ele>110</ele>
        <time>2012-04-03T13:59:54Z</time>
      </trkpt>
      <trkpt lat="49.28203" lon="1.18274">
        <ele>110</ele>
        <time>2012-04-03T14:00:02Z</time>
      </trkpt>
      <trkpt lat="49.28213" lon="1.18277">
        <ele>110</ele>
        <time>2012-04-03T14:00:09Z</time>
      </trkpt>
      <trkpt lat="49.28221" lon="1.18282">
        <ele>110</ele>
        <time>2012-04-03T14:00:18Z</time>
      </trkpt>
      <trkpt lat="49.2823" lon="1.18289">
        <ele>110</ele>
        <time>2012-04-03T14:00:28Z</time>
      </trkpt>
      <trkpt lat="49.2824" lon="1.18293">
        <ele>110</ele>
        <time>2012-04-03T14:01:23Z</time>
      </trkpt>
      <trkpt lat="49.28231" lon="1.18296">
        <ele>100</ele>
        <time>2012-04-03T14:02:30Z</time>
      </trkpt>
      <trkpt lat="49.2824" lon="1.18296">
        <ele>100</ele>
        <time>2012-04-03T14:04:12Z</time>
      </trkpt>
      <trkpt lat="49.2825" lon="1.18294">
        <ele>107</ele>
        <time>2012-04-03T14:04:24Z</time>
      </trkpt>
      <trkpt lat="49.2824" lon="1.18292">
        <ele>96</ele>
        <time>2012-04-03T14:05:21Z</time>
      </trkpt>
      <trkpt lat="49.28243" lon="1.18305">
        <ele>103</ele>
        <time>2012-04-03T14:11:14Z</time>
      </trkpt>
      <trkpt lat="49.28245" lon="1.18321">
        <ele>103</ele>
        <time>2012-04-03T14:11:26Z</time>
      </trkpt>
      <trkpt lat="49.28243" lon="1.18334">
        <ele>103</ele>
        <time>2012-04-03T14:11:35Z</time>
      </trkpt>
      <trkpt lat="49.28239" lon="1.18348">
        <ele>103</ele>
        <time>2012-04-03T14:11:44Z</time>
      </trkpt>
      <trkpt lat="49.28237" lon="1.18363">
        <ele>103</ele>
        <time>2012-04-03T14:11:53Z</time>
      </trkpt>
      <trkpt lat="49.28236" lon="1.18377">
        <ele>103</ele>
        <time>2012-04-03T14:12:01Z</time>
      </trkpt>
      <trkpt lat="49.28237" lon="1.18392">
        <ele>103</ele>
        <time>2012-04-03T14:12:09Z</time>
      </trkpt>
      <trkpt lat="49.28233" lon="1.18407">
        <ele>103</ele>
        <time>2012-04-03T14:12:17Z</time>
      </trkpt>
      <trkpt lat="49.28232" lon="1.18421">
        <ele>103</ele>
        <time>2012-04-03T14:12:25Z</time>
      </trkpt>
      <trkpt lat="49.28237" lon="1.18433">
        <ele>103</ele>
        <time>2012-04-03T14:12:41Z</time>
      </trkpt>
      <trkpt lat="49.28247" lon="1.18436">
        <ele>103</ele>
        <time>2012-04-03T14:12:51Z</time>
      </trkpt>
      <trkpt lat="49.28257" lon="1.18435">
        <ele>103</ele>
        <time>2012-04-03T14:13:00Z</time>
      </trkpt>
      <trkpt lat="49.28267" lon="1.18435">
        <ele>103</ele>
        <time>2012-04-03T14:13:09Z</time>
      </trkpt>
      <trkpt lat="49.28276" lon="1.18437">
        <ele>109</ele>
        <time>2012-04-03T14:13:18Z</time>
      </trkpt>
      <trkpt lat="49.28285" lon="1.18439">
        <ele>109</ele>
        <time>2012-04-03T14:13:25Z</time>
      </trkpt>
      <trkpt lat="49.28295" lon="1.1844">
        <ele>109</ele>
        <time>2012-04-03T14:13:34Z</time>
      </trkpt>
      <trkpt lat="49.28305" lon="1.18442">
        <ele>109</ele>
        <time>2012-04-03T14:13:45Z</time>
      </trkpt>
      <trkpt lat="49.28314" lon="1.18448">
        <ele>103</ele>
        <time>2012-04-03T14:13:53Z</time>
      </trkpt>
      <trkpt lat="49.28323" lon="1.18452">
        <ele>103</ele>
        <time>2012-04-03T14:13:59Z</time>
      </trkpt>
      <trkpt lat="49.28332" lon="1.18457">
        <ele>103</ele>
        <time>2012-04-03T14:14:06Z</time>
      </trkpt>
      <trkpt lat="49.28341" lon="1.18461">
        <ele>103</ele>
        <time>2012-04-03T14:14:14Z</time>
      </trkpt>
      <trkpt lat="49.28351" lon="1.18463">
        <ele>103</ele>
        <time>2012-04-03T14:14:21Z</time>
      </trkpt>
      <trkpt lat="49.2836" lon="1.18462">
        <ele>97</ele>
        <time>2012-04-03T14:14:27Z</time>
      </trkpt>
      <trkpt lat="49.2837" lon="1.18464">
        <ele>97</ele>
        <time>2012-04-03T14:14:36Z</time>
      </trkpt>
      <trkpt lat="49.2838" lon="1.18466">
        <ele>97</ele>
        <time>2012-04-03T14:14:45Z</time>
      </trkpt>
      <trkpt lat="49.28389" lon="1.1847">
        <ele>97</ele>
        <time>2012-04-03T14:14:52Z</time>
      </trkpt>
      <trkpt lat="49.28398" lon="1.18472">
        <ele>91</ele>
        <time>2012-04-03T14:14:59Z</time>
      </trkpt>
      <trkpt lat="49.28408" lon="1.18474">
        <ele>91</ele>
        <time>2012-04-03T14:15:07Z</time>
      </trkpt>
      <trkpt lat="49.28418" lon="1.18477">
        <ele>91</ele>
        <time>2012-04-03T14:15:15Z</time>
      </trkpt>
      <trkpt lat="49.28428" lon="1.18481">
        <ele>91</ele>
        <time>2012-04-03T14:15:23Z</time>
      </trkpt>
      <trkpt lat="49.28438" lon="1.18482">
        <ele>91</ele>
        <time>2012-04-03T14:15:31Z</time>
      </trkpt>
      <trkpt lat="49.28448" lon="1.18484">
        <ele>91</ele>
        <time>2012-04-03T14:15:39Z</time>
      </trkpt>
      <trkpt lat="49.28458" lon="1.18486">
        <ele>91</ele>
        <time>2012-04-03T14:15:47Z</time>
      </trkpt>
      <trkpt lat="49.28468" lon="1.18488">
        <ele>91</ele>
        <time>2012-04-03T14:15:55Z</time>
      </trkpt>
      <trkpt lat="49.28478" lon="1.1849">
        <ele>91</ele>
        <time>2012-04-03T14:16:03Z</time>
      </trkpt>
      <trkpt lat="49.28487" lon="1.18491">
        <ele>91</ele>
        <time>2012-04-03T14:16:11Z</time>
      </trkpt>
      <trkpt lat="49.28496" lon="1.18493">
        <ele>91</ele>
        <time>2012-04-03T14:16:19Z</time>
      </trkpt>
      <trkpt lat="49.28506" lon="1.18495">
        <ele>91</ele>
        <time>2012-04-03T14:16:28Z</time>
      </trkpt>
      <trkpt lat="49.28517" lon="1.18497">
        <ele>91</ele>
        <time>2012-04-03T14:16:37Z</time>
      </trkpt>
      <trkpt lat="49.28526" lon="1.185">
        <ele>91</ele>
        <time>2012-04-03T14:16:46Z</time>
      </trkpt>
      <trkpt lat="49.28536" lon="1.185">
        <ele>91</ele>
        <time>2012-04-03T14:16:53Z</time>
      </trkpt>
      <trkpt lat="49.28545" lon="1.185">
        <ele>97</ele>
        <time>2012-04-03T14:17:03Z</time>
      </trkpt>
      <trkpt lat="49.28555" lon="1.185">
        <ele>97</ele>
        <time>2012-04-03T14:17:11Z</time>
      </trkpt>
      <trkpt lat="49.28563" lon="1.18504">
        <ele>97</ele>
        <time>2012-04-03T14:17:19Z</time>
      </trkpt>
      <trkpt lat="49.28573" lon="1.18506">
        <ele>97</ele>
        <time>2012-04-03T14:17:27Z</time>
      </trkpt>
      <trkpt lat="49.28582" lon="1.1851">
        <ele>97</ele>
        <time>2012-04-03T14:17:34Z</time>
      </trkpt>
      <trkpt lat="49.2859" lon="1.18516">
        <ele>97</ele>
        <time>2012-04-03T14:17:43Z</time>
      </trkpt>
      <trkpt lat="49.286" lon="1.18521">
        <ele>97</ele>
        <time>2012-04-03T14:17:52Z</time>
      </trkpt>
      <trkpt lat="49.28605" lon="1.18534">
        <ele>97</ele>
        <time>2012-04-03T14:17:59Z</time>
      </trkpt>
      <trkpt lat="49.28605" lon="1.18548">
        <ele>92</ele>
        <time>2012-04-03T14:18:06Z</time>
      </trkpt>
      <trkpt lat="49.28605" lon="1.18562">
        <ele>92</ele>
        <time>2012-04-03T14:18:13Z</time>
      </trkpt>
      <trkpt lat="49.28603" lon="1.18578">
        <ele>92</ele>
        <time>2012-04-03T14:18:21Z</time>
      </trkpt>
      <trkpt lat="49.28601" lon="1.18593">
        <ele>84</ele>
        <time>2012-04-03T14:18:29Z</time>
      </trkpt>
      <trkpt lat="49.286" lon="1.18608">
        <ele>84</ele>
        <time>2012-04-03T14:18:37Z</time>
      </trkpt>
      <trkpt lat="49.28599" lon="1.18623">
        <ele>84</ele>
        <time>2012-04-03T14:18:45Z</time>
      </trkpt>
      <trkpt lat="49.28598" lon="1.18638">
        <ele>90</ele>
        <time>2012-04-03T14:18:54Z</time>
      </trkpt>
      <trkpt lat="49.28597" lon="1.18652">
        <ele>90</ele>
        <time>2012-04-03T14:19:02Z</time>
      </trkpt>
      <trkpt lat="49.28595" lon="1.18667">
        <ele>90</ele>
        <time>2012-04-03T14:19:10Z</time>
      </trkpt>
      <trkpt lat="49.28594" lon="1.18682">
        <ele>90</ele>
        <time>2012-04-03T14:19:18Z</time>
      </trkpt>
      <trkpt lat="49.28592" lon="1.18696">
        <ele>90</ele>
        <time>2012-04-03T14:19:26Z</time>
      </trkpt>
      <trkpt lat="49.28596" lon="1.18711">
        <ele>90</ele>
        <time>2012-04-03T14:19:35Z</time>
      </trkpt>
      <trkpt lat="49.28606" lon="1.18711">
        <ele>97</ele>
        <time>2012-04-03T14:19:47Z</time>
      </trkpt>
      <trkpt lat="49.28616" lon="1.18709">
        <ele>97</ele>
        <time>2012-04-03T14:19:57Z</time>
      </trkpt>
      <trkpt lat="49.28626" lon="1.1871">
        <ele>103</ele>
        <time>2012-04-03T14:20:06Z</time>
      </trkpt>
      <trkpt lat="49.28635" lon="1.18713">
        <ele>103</ele>
        <time>2012-04-03T14:20:14Z</time>
      </trkpt>
      <trkpt lat="49.28645" lon="1.18715">
        <ele>103</ele>
        <time>2012-04-03T14:20:23Z</time>
      </trkpt>
      <trkpt lat="49.28655" lon="1.18718">
        <ele>103</ele>
        <time>2012-04-03T14:20:31Z</time>
      </trkpt>
      <trkpt lat="49.28663" lon="1.18721">
        <ele>103</ele>
        <time>2012-04-03T14:20:38Z</time>
      </trkpt>
      <trkpt lat="49.28673" lon="1.18722">
        <ele>97</ele>
        <time>2012-04-03T14:20:46Z</time>
      </trkpt>
      <trkpt lat="49.28682" lon="1.18727">
        <ele>97</ele>
        <time>2012-04-03T14:20:53Z</time>
      </trkpt>
      <trkpt lat="49.28692" lon="1.18727">
        <ele>97</ele>
        <time>2012-04-03T14:21:01Z</time>
      </trkpt>
      <trkpt lat="49.28702" lon="1.18729">
        <ele>97</ele>
        <time>2012-04-03T14:21:09Z</time>
      </trkpt>
      <trkpt lat="49.28711" lon="1.1873">
        <ele>92</ele>
        <time>2012-04-03T14:21:16Z</time>
      </trkpt>
      <trkpt lat="49.28721" lon="1.18734">
        <ele>92</ele>
        <time>2012-04-03T14:21:23Z</time>
      </trkpt>
      <trkpt lat="49.2873" lon="1.18739">
        <ele>87</ele>
        <time>2012-04-03T14:21:30Z</time>
      </trkpt>
      <trkpt lat="49.28739" lon="1.18743">
        <ele>87</ele>
        <time>2012-04-03T14:21:37Z</time>
      </trkpt>
      <trkpt lat="49.28749" lon="1.18747">
        <ele>81</ele>
        <time>2012-04-03T14:21:45Z</time>
      </trkpt>
      <trkpt lat="49.28759" lon="1.1875">
        <ele>81</ele>
        <time>2012-04-03T14:21:54Z</time>
      </trkpt>
      <trkpt lat="49.28767" lon="1.18754">
        <ele>81</ele>
        <time>2012-04-03T14:22:02Z</time>
      </trkpt>
      <trkpt lat="49.28777" lon="1.18756">
        <ele>81</ele>
        <time>2012-04-03T14:22:11Z</time>
      </trkpt>
      <trkpt lat="49.28787" lon="1.18759">
        <ele>76</ele>
        <time>2012-04-03T14:22:19Z</time>
      </trkpt>
      <trkpt lat="49.28797" lon="1.18763">
        <ele>76</ele>
        <time>2012-04-03T14:22:27Z</time>
      </trkpt>
      <trkpt lat="49.28806" lon="1.18766">
        <ele>76</ele>
        <time>2012-04-03T14:22:35Z</time>
      </trkpt>
      <trkpt lat="49.28816" lon="1.18767">
        <ele>76</ele>
        <time>2012-04-03T14:22:44Z</time>
      </trkpt>
      <trkpt lat="49.28826" lon="1.1877">
        <ele>76</ele>
        <time>2012-04-03T14:22:53Z</time>
      </trkpt>
      <trkpt lat="49.28835" lon="1.18771">
        <ele>76</ele>
        <time>2012-04-03T14:23:01Z</time>
      </trkpt>
      <trkpt lat="49.28844" lon="1.18773">
        <ele>76</ele>
        <time>2012-04-03T14:23:09Z</time>
      </trkpt>
      <trkpt lat="49.28854" lon="1.18774">
        <ele>84</ele>
        <time>2012-04-03T14:23:18Z</time>
      </trkpt>
      <trkpt lat="49.28864" lon="1.18777">
        <ele>84</ele>
        <time>2012-04-03T14:23:29Z</time>
      </trkpt>
      <trkpt lat="49.28873" lon="1.1878">
        <ele>84</ele>
        <time>2012-04-03T14:23:37Z</time>
      </trkpt>
      <trkpt lat="49.28883" lon="1.18782">
        <ele>84</ele>
        <time>2012-04-03T14:23:46Z</time>
      </trkpt>
      <trkpt lat="49.28892" lon="1.18784">
        <ele>84</ele>
        <time>2012-04-03T14:23:56Z</time>
      </trkpt>
      <trkpt lat="49.28902" lon="1.18785">
        <ele>84</ele>
        <time>2012-04-03T14:24:04Z</time>
      </trkpt>
      <trkpt lat="49.28911" lon="1.18788">
        <ele>84</ele>
        <time>2012-04-03T14:24:11Z</time>
      </trkpt>
      <trkpt lat="49.28921" lon="1.18791">
        <ele>84</ele>
        <time>2012-04-03T14:24:19Z</time>
      </trkpt>
      <trkpt lat="49.28931" lon="1.18793">
        <ele>90</ele>
        <time>2012-04-03T14:24:28Z</time>
      </trkpt>
      <trkpt lat="49.28941" lon="1.18793">
        <ele>90</ele>
        <time>2012-04-03T14:24:36Z</time>
      </trkpt>
      <trkpt lat="49.2895" lon="1.18797">
        <ele>90</ele>
        <time>2012-04-03T14:24:43Z</time>
      </trkpt>
      <trkpt lat="49.28959" lon="1.188">
        <ele>90</ele>
        <time>2012-04-03T14:24:52Z</time>
      </trkpt>
      <trkpt lat="49.28969" lon="1.18804">
        <ele>90</ele>
        <time>2012-04-03T14:25:01Z</time>
      </trkpt>
      <trkpt lat="49.28979" lon="1.18805">
        <ele>90</ele>
        <time>2012-04-03T14:25:09Z</time>
      </trkpt>
      <trkpt lat="49.28988" lon="1.18808">
        <ele>90</ele>
        <time>2012-04-03T14:25:16Z</time>
      </trkpt>
      <trkpt lat="49.28996" lon="1.18818">
        <ele>90</ele>
        <time>2012-04-03T14:25:24Z</time>
      </trkpt>
      <trkpt lat="49.28999" lon="1.18832">
        <ele>84</ele>
        <time>2012-04-03T14:25:30Z</time>
      </trkpt>
      <trkpt lat="49.29" lon="1.18847">
        <ele>84</ele>
        <time>2012-04-03T14:25:38Z</time>
      </trkpt>
      <trkpt lat="49.28997" lon="1.18861">
        <ele>75</ele>
        <time>2012-04-03T14:25:45Z</time>
      </trkpt>
      <trkpt lat="49.28994" lon="1.18874">
        <ele>75</ele>
        <time>2012-04-03T14:25:52Z</time>
      </trkpt>
      <trkpt lat="49.28994" lon="1.18889">
        <ele>75</ele>
        <time>2012-04-03T14:26:01Z</time>
      </trkpt>
      <trkpt lat="49.28994" lon="1.18904">
        <ele>81</ele>
        <time>2012-04-03T14:26:09Z</time>
      </trkpt>
      <trkpt lat="49.28993" lon="1.18918">
        <ele>81</ele>
        <time>2012-04-03T14:26:18Z</time>
      </trkpt>
      <trkpt lat="49.28991" lon="1.18933">
        <ele>81</ele>
        <time>2012-04-03T14:26:26Z</time>
      </trkpt>
      <trkpt lat="49.28991" lon="1.18949">
        <ele>81</ele>
        <time>2012-04-03T14:26:35Z</time>
      </trkpt>
      <trkpt lat="49.28991" lon="1.18963">
        <ele>81</ele>
        <time>2012-04-03T14:26:43Z</time>
      </trkpt>
      <trkpt lat="49.28991" lon="1.18977">
        <ele>81</ele>
        <time>2012-04-03T14:26:51Z</time>
      </trkpt>
      <trkpt lat="49.28994" lon="1.18991">
        <ele>81</ele>
        <time>2012-04-03T14:26:59Z</time>
      </trkpt>
      <trkpt lat="49.28998" lon="1.19005">
        <ele>81</ele>
        <time>2012-04-03T14:27:08Z</time>
      </trkpt>
      <trkpt lat="49.29" lon="1.1902">
        <ele>81</ele>
        <time>2012-04-03T14:27:16Z</time>
      </trkpt>
      <trkpt lat="49.29002" lon="1.19033">
        <ele>81</ele>
        <time>2012-04-03T14:27:24Z</time>
      </trkpt>
      <trkpt lat="49.29007" lon="1.19046">
        <ele>81</ele>
        <time>2012-04-03T14:27:31Z</time>
      </trkpt>
      <trkpt lat="49.29011" lon="1.19058">
        <ele>81</ele>
        <time>2012-04-03T14:27:39Z</time>
      </trkpt>
      <trkpt lat="49.29015" lon="1.19072">
        <ele>81</ele>
        <time>2012-04-03T14:27:47Z</time>
      </trkpt>
      <trkpt lat="49.29018" lon="1.19086">
        <ele>81</ele>
        <time>2012-04-03T14:27:56Z</time>
      </trkpt>
      <trkpt lat="49.2902" lon="1.19102">
        <ele>81</ele>
        <time>2012-04-03T14:28:05Z</time>
      </trkpt>
      <trkpt lat="49.29021" lon="1.19118">
        <ele>81</ele>
        <time>2012-04-03T14:28:14Z</time>
      </trkpt>
      <trkpt lat="49.29025" lon="1.19132">
        <ele>81</ele>
        <time>2012-04-03T14:28:23Z</time>
      </trkpt>
      <trkpt lat="49.2903" lon="1.19145">
        <ele>81</ele>
        <time>2012-04-03T14:28:32Z</time>
      </trkpt>
      <trkpt lat="49.29034" lon="1.19159">
        <ele>81</ele>
        <time>2012-04-03T14:28:41Z</time>
      </trkpt>
      <trkpt lat="49.2904" lon="1.1917">
        <ele>92</ele>
        <time>2012-04-03T14:28:50Z</time>
      </trkpt>
      <trkpt lat="49.29043" lon="1.19183">
        <ele>92</ele>
        <time>2012-04-03T14:28:58Z</time>
      </trkpt>
      <trkpt lat="49.29045" lon="1.19198">
        <ele>92</ele>
        <time>2012-04-03T14:29:05Z</time>
      </trkpt>
      <trkpt lat="49.29048" lon="1.19211">
        <ele>86</ele>
        <time>2012-04-03T14:29:12Z</time>
      </trkpt>
      <trkpt lat="49.29053" lon="1.19224">
        <ele>86</ele>
        <time>2012-04-03T14:29:20Z</time>
      </trkpt>
      <trkpt lat="49.29057" lon="1.19239">
        <ele>92</ele>
        <time>2012-04-03T14:29:29Z</time>
      </trkpt>
      <trkpt lat="49.29059" lon="1.19253">
        <ele>92</ele>
        <time>2012-04-03T14:29:38Z</time>
      </trkpt>
      <trkpt lat="49.29061" lon="1.19269">
        <ele>92</ele>
        <time>2012-04-03T14:29:46Z</time>
      </trkpt>
      <trkpt lat="49.29062" lon="1.19284">
        <ele>92</ele>
        <time>2012-04-03T14:29:53Z</time>
      </trkpt>
      <trkpt lat="49.29065" lon="1.19298">
        <ele>86</ele>
        <time>2012-04-03T14:30:02Z</time>
      </trkpt>
      <trkpt lat="49.29071" lon="1.1931">
        <ele>86</ele>
        <time>2012-04-03T14:30:09Z</time>
      </trkpt>
      <trkpt lat="49.29074" lon="1.19323">
        <ele>86</ele>
        <time>2012-04-03T14:30:17Z</time>
      </trkpt>
      <trkpt lat="49.29077" lon="1.19337">
        <ele>86</ele>
        <time>2012-04-03T14:30:24Z</time>
      </trkpt>
      <trkpt lat="49.29081" lon="1.19351">
        <ele>86</ele>
        <time>2012-04-03T14:30:32Z</time>
      </trkpt>
      <trkpt lat="49.29083" lon="1.19365">
        <ele>86</ele>
        <time>2012-04-03T14:30:39Z</time>
      </trkpt>
      <trkpt lat="49.29088" lon="1.19378">
        <ele>79</ele>
        <time>2012-04-03T14:30:47Z</time>
      </trkpt>
      <trkpt lat="49.29092" lon="1.19391">
        <ele>79</ele>
        <time>2012-04-03T14:30:55Z</time>
      </trkpt>
      <trkpt lat="49.29095" lon="1.19405">
        <ele>79</ele>
        <time>2012-04-03T14:31:03Z</time>
      </trkpt>
      <trkpt lat="49.29098" lon="1.19418">
        <ele>79</ele>
        <time>2012-04-03T14:31:12Z</time>
      </trkpt>
      <trkpt lat="49.291" lon="1.19433">
        <ele>79</ele>
        <time>2012-04-03T14:31:19Z</time>
      </trkpt>
      <trkpt lat="49.29102" lon="1.19448">
        <ele>79</ele>
        <time>2012-04-03T14:31:27Z</time>
      </trkpt>
      <trkpt lat="49.29103" lon="1.19463">
        <ele>79</ele>
        <time>2012-04-03T14:31:35Z</time>
      </trkpt>
      <trkpt lat="49.29108" lon="1.19476">
        <ele>79</ele>
        <time>2012-04-03T14:31:43Z</time>
      </trkpt>
      <trkpt lat="49.29111" lon="1.1949">
        <ele>79</ele>
        <time>2012-04-03T14:31:51Z</time>
      </trkpt>
      <trkpt lat="49.29116" lon="1.19504">
        <ele>79</ele>
        <time>2012-04-03T14:32:00Z</time>
      </trkpt>
      <trkpt lat="49.2912" lon="1.19517">
        <ele>79</ele>
        <time>2012-04-03T14:32:08Z</time>
      </trkpt>
      <trkpt lat="49.29123" lon="1.19531">
        <ele>79</ele>
        <time>2012-04-03T14:32:17Z</time>
      </trkpt>
      <trkpt lat="49.29127" lon="1.19545">
        <ele>79</ele>
        <time>2012-04-03T14:32:26Z</time>
      </trkpt>
      <trkpt lat="49.29128" lon="1.1956">
        <ele>79</ele>
        <time>2012-04-03T14:32:34Z</time>
      </trkpt>
      <trkpt lat="49.2913" lon="1.19574">
        <ele>87</ele>
        <time>2012-04-03T14:32:42Z</time>
      </trkpt>
      <trkpt lat="49.29133" lon="1.19587">
        <ele>87</ele>
        <time>2012-04-03T14:32:50Z</time>
      </trkpt>
      <trkpt lat="49.29137" lon="1.19601">
        <ele>87</ele>
        <time>2012-04-03T14:32:58Z</time>
      </trkpt>
      <trkpt lat="49.29141" lon="1.19614">
        <ele>87</ele>
        <time>2012-04-03T14:33:09Z</time>
      </trkpt>
      <trkpt lat="49.29144" lon="1.19628">
        <ele>87</ele>
        <time>2012-04-03T14:33:18Z</time>
      </trkpt>
      <trkpt lat="49.29146" lon="1.19642">
        <ele>87</ele>
        <time>2012-04-03T14:33:28Z</time>
      </trkpt>
      <trkpt lat="49.29151" lon="1.19655">
        <ele>76</ele>
        <time>2012-04-03T14:33:43Z</time>
      </trkpt>
      <trkpt lat="49.29142" lon="1.19656">
        <ele>65</ele>
        <time>2012-04-03T14:34:29Z</time>
      </trkpt>
      <trkpt lat="49.29136" lon="1.19644">
        <ele>65</ele>
        <time>2012-04-03T14:34:44Z</time>
      </trkpt>
      <trkpt lat="49.2914" lon="1.19631">
        <ele>70</ele>
        <time>2012-04-03T14:34:55Z</time>
      </trkpt>
      <trkpt lat="49.29133" lon="1.19622">
        <ele>70</ele>
        <time>2012-04-03T14:35:24Z</time>
      </trkpt>
      <trkpt lat="49.29128" lon="1.19612">
        <ele>63</ele>
        <time>2012-04-03T14:35:36Z</time>
      </trkpt>
      <trkpt lat="49.29122" lon="1.196">
        <ele>63</ele>
        <time>2012-04-03T14:35:46Z</time>
      </trkpt>
      <trkpt lat="49.29119" lon="1.19586">
        <ele>63</ele>
        <time>2012-04-03T14:35:58Z</time>
      </trkpt>
      <trkpt lat="49.29115" lon="1.19572">
        <ele>63</ele>
        <time>2012-04-03T14:36:10Z</time>
      </trkpt>
      <trkpt lat="49.29113" lon="1.19558">
        <ele>63</ele>
        <time>2012-04-03T14:36:19Z</time>
      </trkpt>
      <trkpt lat="49.29113" lon="1.19542">
        <ele>69</ele>
        <time>2012-04-03T14:36:27Z</time>
      </trkpt>
      <trkpt lat="49.29111" lon="1.19529">
        <ele>69</ele>
        <time>2012-04-03T14:36:35Z</time>
      </trkpt>
      <trkpt lat="49.29108" lon="1.19515">
        <ele>69</ele>
        <time>2012-04-03T14:36:44Z</time>
      </trkpt>
      <trkpt lat="49.29106" lon="1.19499">
        <ele>69</ele>
        <time>2012-04-03T14:36:53Z</time>
      </trkpt>
      <trkpt lat="49.29103" lon="1.19486">
        <ele>69</ele>
        <time>2012-04-03T14:37:02Z</time>
      </trkpt>
      <trkpt lat="49.29099" lon="1.19471">
        <ele>69</ele>
        <time>2012-04-03T14:37:11Z</time>
      </trkpt>
      <trkpt lat="49.29096" lon="1.19458">
        <ele>74</ele>
        <time>2012-04-03T14:37:20Z</time>
      </trkpt>
      <trkpt lat="49.29092" lon="1.19445">
        <ele>74</ele>
        <time>2012-04-03T14:37:29Z</time>
      </trkpt>
      <trkpt lat="49.29088" lon="1.19432">
        <ele>74</ele>
        <time>2012-04-03T14:37:38Z</time>
      </trkpt>
      <trkpt lat="49.29085" lon="1.19418">
        <ele>74</ele>
        <time>2012-04-03T14:37:47Z</time>
      </trkpt>
      <trkpt lat="49.2908" lon="1.19404">
        <ele>68</ele>
        <time>2012-04-03T14:37:55Z</time>
      </trkpt>
      <trkpt lat="49.29078" lon="1.1939">
        <ele>68</ele>
        <time>2012-04-03T14:38:03Z</time>
      </trkpt>
      <trkpt lat="49.29074" lon="1.19377">
        <ele>68</ele>
        <time>2012-04-03T14:38:11Z</time>
      </trkpt>
      <trkpt lat="49.29071" lon="1.19364">
        <ele>68</ele>
        <time>2012-04-03T14:38:19Z</time>
      </trkpt>
      <trkpt lat="49.29068" lon="1.19349">
        <ele>68</ele>
        <time>2012-04-03T14:38:29Z</time>
      </trkpt>
      <trkpt lat="49.29065" lon="1.19336">
        <ele>68</ele>
        <time>2012-04-03T14:38:37Z</time>
      </trkpt>
      <trkpt lat="49.29062" lon="1.19322">
        <ele>68</ele>
        <time>2012-04-03T14:38:46Z</time>
      </trkpt>
      <trkpt lat="49.29059" lon="1.19309">
        <ele>68</ele>
        <time>2012-04-03T14:38:54Z</time>
      </trkpt>
      <trkpt lat="49.29065" lon="1.19297">
        <ele>68</ele>
        <time>2012-04-03T14:39:00Z</time>
      </trkpt>
      <trkpt lat="49.29074" lon="1.19293">
        <ele>75</ele>
        <time>2012-04-03T14:39:06Z</time>
      </trkpt>
      <trkpt lat="49.29083" lon="1.19293">
        <ele>81</ele>
        <time>2012-04-03T14:39:16Z</time>
      </trkpt>
      <trkpt lat="49.29093" lon="1.19293">
        <ele>88</ele>
        <time>2012-04-03T14:39:23Z</time>
      </trkpt>
      <trkpt lat="49.29102" lon="1.19297">
        <ele>94</ele>
        <time>2012-04-03T14:39:31Z</time>
      </trkpt>
      <trkpt lat="49.29113" lon="1.193">
        <ele>94</ele>
        <time>2012-04-03T14:39:39Z</time>
      </trkpt>
      <trkpt lat="49.29122" lon="1.19304">
        <ele>106</ele>
        <time>2012-04-03T14:39:46Z</time>
      </trkpt>
      <trkpt lat="49.29131" lon="1.19305">
        <ele>106</ele>
        <time>2012-04-03T14:39:56Z</time>
      </trkpt>
      <trkpt lat="49.2914" lon="1.19311">
        <ele>112</ele>
        <time>2012-04-03T14:40:03Z</time>
      </trkpt>
      <trkpt lat="49.29149" lon="1.19317">
        <ele>112</ele>
        <time>2012-04-03T14:40:12Z</time>
      </trkpt>
      <trkpt lat="49.29158" lon="1.19323">
        <ele>105</ele>
        <time>2012-04-03T14:40:20Z</time>
      </trkpt>
      <trkpt lat="49.29167" lon="1.19326">
        <ele>105</ele>
        <time>2012-04-03T14:40:28Z</time>
      </trkpt>
      <trkpt lat="49.29177" lon="1.19331">
        <ele>105</ele>
        <time>2012-04-03T14:40:37Z</time>
      </trkpt>
      <trkpt lat="49.29186" lon="1.19331">
        <ele>105</ele>
        <time>2012-04-03T14:40:46Z</time>
      </trkpt>
      <trkpt lat="49.29196" lon="1.19335">
        <ele>105</ele>
        <time>2012-04-03T14:40:54Z</time>
      </trkpt>
      <trkpt lat="49.29205" lon="1.19339">
        <ele>105</ele>
        <time>2012-04-03T14:41:02Z</time>
      </trkpt>
      <trkpt lat="49.29214" lon="1.19343">
        <ele>105</ele>
        <time>2012-04-03T14:41:10Z</time>
      </trkpt>
      <trkpt lat="49.29224" lon="1.19347">
        <ele>105</ele>
        <time>2012-04-03T14:41:19Z</time>
      </trkpt>
      <trkpt lat="49.29233" lon="1.19354">
        <ele>112</ele>
        <time>2012-04-03T14:41:25Z</time>
      </trkpt>
      <trkpt lat="49.29242" lon="1.19358">
        <ele>112</ele>
        <time>2012-04-03T14:41:32Z</time>
      </trkpt>
      <trkpt lat="49.29252" lon="1.19364">
        <ele>112</ele>
        <time>2012-04-03T14:41:39Z</time>
      </trkpt>
      <trkpt lat="49.2926" lon="1.19367">
        <ele>112</ele>
        <time>2012-04-03T14:41:46Z</time>
      </trkpt>
      <trkpt lat="49.2927" lon="1.1937">
        <ele>112</ele>
        <time>2012-04-03T14:41:53Z</time>
      </trkpt>
      <trkpt lat="49.29279" lon="1.19366">
        <ele>118</ele>
        <time>2012-04-03T14:42:00Z</time>
      </trkpt>
      <trkpt lat="49.29287" lon="1.1936">
        <ele>118</ele>
        <time>2012-04-03T14:42:07Z</time>
      </trkpt>
      <trkpt lat="49.29292" lon="1.19348">
        <ele>118</ele>
        <time>2012-04-03T14:42:14Z</time>
      </trkpt>
      <trkpt lat="49.29297" lon="1.19337">
        <ele>103</ele>
        <time>2012-04-03T14:42:23Z</time>
      </trkpt>
      <trkpt lat="49.29303" lon="1.19326">
        <ele>91</ele>
        <time>2012-04-03T14:42:32Z</time>
      </trkpt>
      <trkpt lat="49.29309" lon="1.19314">
        <ele>91</ele>
        <time>2012-04-03T14:42:39Z</time>
      </trkpt>
      <trkpt lat="49.29315" lon="1.19303">
        <ele>85</ele>
        <time>2012-04-03T14:42:47Z</time>
      </trkpt>
      <trkpt lat="49.29321" lon="1.19292">
        <ele>85</ele>
        <time>2012-04-03T14:42:55Z</time>
      </trkpt>
      <trkpt lat="49.29327" lon="1.19281">
        <ele>85</ele>
        <time>2012-04-03T14:43:03Z</time>
      </trkpt>
      <trkpt lat="49.29333" lon="1.19269">
        <ele>85</ele>
        <time>2012-04-03T14:43:10Z</time>
      </trkpt>
      <trkpt lat="49.29339" lon="1.19259">
        <ele>85</ele>
        <time>2012-04-03T14:43:17Z</time>
      </trkpt>
      <trkpt lat="49.29346" lon="1.19247">
        <ele>85</ele>
        <time>2012-04-03T14:43:25Z</time>
      </trkpt>
      <trkpt lat="49.29351" lon="1.19235">
        <ele>79</ele>
        <time>2012-04-03T14:43:33Z</time>
      </trkpt>
      <trkpt lat="49.29355" lon="1.19222">
        <ele>79</ele>
        <time>2012-04-03T14:43:41Z</time>
      </trkpt>
      <trkpt lat="49.2936" lon="1.1921">
        <ele>79</ele>
        <time>2012-04-03T14:43:48Z</time>
      </trkpt>
      <trkpt lat="49.29366" lon="1.19198">
        <ele>87</ele>
        <time>2012-04-03T14:43:55Z</time>
      </trkpt>
      <trkpt lat="49.29373" lon="1.19186">
        <ele>87</ele>
        <time>2012-04-03T14:44:04Z</time>
      </trkpt>
      <trkpt lat="49.29378" lon="1.19174">
        <ele>82</ele>
        <time>2012-04-03T14:44:12Z</time>
      </trkpt>
      <trkpt lat="49.29383" lon="1.19162">
        <ele>82</ele>
        <time>2012-04-03T14:44:20Z</time>
      </trkpt>
      <trkpt lat="49.2939" lon="1.19151">
        <ele>82</ele>
        <time>2012-04-03T14:44:28Z</time>
      </trkpt>
      <trkpt lat="49.29396" lon="1.1914">
        <ele>82</ele>
        <time>2012-04-03T14:44:35Z</time>
      </trkpt>
      <trkpt lat="49.29402" lon="1.19128">
        <ele>82</ele>
        <time>2012-04-03T14:44:43Z</time>
      </trkpt>
      <trkpt lat="49.29407" lon="1.19115">
        <ele>82</ele>
        <time>2012-04-03T14:44:51Z</time>
      </trkpt>
      <trkpt lat="49.29412" lon="1.19102">
        <ele>82</ele>
        <time>2012-04-03T14:45:00Z</time>
      </trkpt>
      <trkpt lat="49.29419" lon="1.19091">
        <ele>82</ele>
        <time>2012-04-03T14:45:07Z</time>
      </trkpt>
      <trkpt lat="49.29425" lon="1.1908">
        <ele>82</ele>
        <time>2012-04-03T14:45:15Z</time>
      </trkpt>
      <trkpt lat="49.29432" lon="1.19069">
        <ele>82</ele>
        <time>2012-04-03T14:45:23Z</time>
      </trkpt>
      <trkpt lat="49.29438" lon="1.19056">
        <ele>77</ele>
        <time>2012-04-03T14:45:31Z</time>
      </trkpt>
      <trkpt lat="49.29443" lon="1.19043">
        <ele>77</ele>
        <time>2012-04-03T14:45:40Z</time>
      </trkpt>
      <trkpt lat="49.29449" lon="1.19031">
        <ele>77</ele>
        <time>2012-04-03T14:45:48Z</time>
      </trkpt>
      <trkpt lat="49.29455" lon="1.19017">
        <ele>77</ele>
        <time>2012-04-03T14:45:56Z</time>
      </trkpt>
      <trkpt lat="49.29458" lon="1.19003">
        <ele>82</ele>
        <time>2012-04-03T14:46:05Z</time>
      </trkpt>
      <trkpt lat="49.29465" lon="1.18994">
        <ele>82</ele>
        <time>2012-04-03T14:46:12Z</time>
      </trkpt>
      <trkpt lat="49.29471" lon="1.18983">
        <ele>77</ele>
        <time>2012-04-03T14:46:22Z</time>
      </trkpt>
      <trkpt lat="49.29477" lon="1.18971">
        <ele>77</ele>
        <time>2012-04-03T14:46:29Z</time>
      </trkpt>
      <trkpt lat="49.29483" lon="1.18959">
        <ele>87</ele>
        <time>2012-04-03T14:46:37Z</time>
      </trkpt>
      <trkpt lat="49.29489" lon="1.18949">
        <ele>87</ele>
        <time>2012-04-03T14:46:44Z</time>
      </trkpt>
      <trkpt lat="49.29493" lon="1.18936">
        <ele>87</ele>
        <time>2012-04-03T14:46:51Z</time>
      </trkpt>
      <trkpt lat="49.29499" lon="1.18924">
        <ele>87</ele>
        <time>2012-04-03T14:47:00Z</time>
      </trkpt>
      <trkpt lat="49.29504" lon="1.18912">
        <ele>87</ele>
        <time>2012-04-03T14:47:09Z</time>
      </trkpt>
      <trkpt lat="49.29508" lon="1.18898">
        <ele>76</ele>
        <time>2012-04-03T14:47:21Z</time>
      </trkpt>
      <trkpt lat="49.29516" lon="1.18888">
        <ele>76</ele>
        <time>2012-04-03T14:47:29Z</time>
      </trkpt>
      <trkpt lat="49.29525" lon="1.18878">
        <ele>76</ele>
        <time>2012-04-03T14:47:34Z</time>
      </trkpt>
      <trkpt lat="49.2953" lon="1.18866">
        <ele>85</ele>
        <time>2012-04-03T14:47:41Z</time>
      </trkpt>
      <trkpt lat="49.29536" lon="1.18854">
        <ele>93</ele>
        <time>2012-04-03T14:47:48Z</time>
      </trkpt>
      <trkpt lat="49.29542" lon="1.18844">
        <ele>93</ele>
        <time>2012-04-03T14:47:55Z</time>
      </trkpt>
      <trkpt lat="49.29546" lon="1.18831">
        <ele>93</ele>
        <time>2012-04-03T14:48:04Z</time>
      </trkpt>
      <trkpt lat="49.29552" lon="1.18819">
        <ele>93</ele>
        <time>2012-04-03T14:48:12Z</time>
      </trkpt>
      <trkpt lat="49.29558" lon="1.18808">
        <ele>101</ele>
        <time>2012-04-03T14:48:19Z</time>
      </trkpt>
      <trkpt lat="49.29563" lon="1.18794">
        <ele>101</ele>
        <time>2012-04-03T14:48:28Z</time>
      </trkpt>
      <trkpt lat="49.29569" lon="1.18781">
        <ele>101</ele>
        <time>2012-04-03T14:48:36Z</time>
      </trkpt>
      <trkpt lat="49.29575" lon="1.18769">
        <ele>101</ele>
        <time>2012-04-03T14:48:43Z</time>
      </trkpt>
      <trkpt lat="49.29581" lon="1.18758">
        <ele>101</ele>
        <time>2012-04-03T14:48:50Z</time>
      </trkpt>
      <trkpt lat="49.29588" lon="1.18748">
        <ele>101</ele>
        <time>2012-04-03T14:48:57Z</time>
      </trkpt>
      <trkpt lat="49.29593" lon="1.18738">
        <ele>107</ele>
        <time>2012-04-03T14:49:04Z</time>
      </trkpt>
      <trkpt lat="49.29599" lon="1.18725">
        <ele>107</ele>
        <time>2012-04-03T14:49:12Z</time>
      </trkpt>
      <trkpt lat="49.29606" lon="1.18715">
        <ele>107</ele>
        <time>2012-04-03T14:49:19Z</time>
      </trkpt>
      <trkpt lat="49.29611" lon="1.18702">
        <ele>107</ele>
        <time>2012-04-03T14:49:29Z</time>
      </trkpt>
      <trkpt lat="49.29617" lon="1.1869">
        <ele>99</ele>
        <time>2012-04-03T14:49:37Z</time>
      </trkpt>
      <trkpt lat="49.29623" lon="1.18677">
        <ele>99</ele>
        <time>2012-04-03T14:49:45Z</time>
      </trkpt>
      <trkpt lat="49.29629" lon="1.18666">
        <ele>99</ele>
        <time>2012-04-03T14:49:52Z</time>
      </trkpt>
      <trkpt lat="49.29633" lon="1.18652">
        <ele>99</ele>
        <time>2012-04-03T14:50:02Z</time>
      </trkpt>
      <trkpt lat="49.2964" lon="1.18642">
        <ele>99</ele>
        <time>2012-04-03T14:50:09Z</time>
      </trkpt>
      <trkpt lat="49.29646" lon="1.1863">
        <ele>99</ele>
        <time>2012-04-03T14:50:17Z</time>
      </trkpt>
      <trkpt lat="49.2965" lon="1.18617">
        <ele>80</ele>
        <time>2012-04-03T14:50:27Z</time>
      </trkpt>
      <trkpt lat="49.29656" lon="1.18605">
        <ele>75</ele>
        <time>2012-04-03T14:50:35Z</time>
      </trkpt>
      <trkpt lat="49.29662" lon="1.18594">
        <ele>75</ele>
        <time>2012-04-03T14:50:41Z</time>
      </trkpt>
      <trkpt lat="49.29667" lon="1.18582">
        <ele>75</ele>
        <time>2012-04-03T14:50:49Z</time>
      </trkpt>
      <trkpt lat="49.29663" lon="1.18569">
        <ele>75</ele>
        <time>2012-04-03T14:51:01Z</time>
      </trkpt>
      <trkpt lat="49.29655" lon="1.18561">
        <ele>67</ele>
        <time>2012-04-03T14:51:09Z</time>
      </trkpt>
      <trkpt lat="49.29649" lon="1.1855">
        <ele>60</ele>
        <time>2012-04-03T14:51:17Z</time>
      </trkpt>
      <trkpt lat="49.2964" lon="1.18543">
        <ele>54</ele>
        <time>2012-04-03T14:51:25Z</time>
      </trkpt>
      <trkpt lat="49.29632" lon="1.18534">
        <ele>47</ele>
        <time>2012-04-03T14:51:33Z</time>
      </trkpt>
      <trkpt lat="49.29624" lon="1.18525">
        <ele>47</ele>
        <time>2012-04-03T14:51:42Z</time>
      </trkpt>
      <trkpt lat="49.29616" lon="1.18515">
        <ele>58</ele>
        <time>2012-04-03T14:51:50Z</time>
      </trkpt>
      <trkpt lat="49.29609" lon="1.18505">
        <ele>58</ele>
        <time>2012-04-03T14:51:58Z</time>
      </trkpt>
      <trkpt lat="49.29602" lon="1.18496">
        <ele>58</ele>
        <time>2012-04-03T14:52:07Z</time>
      </trkpt>
      <trkpt lat="49.29593" lon="1.18491">
        <ele>51</ele>
        <time>2012-04-03T14:52:15Z</time>
      </trkpt>
      <trkpt lat="49.29586" lon="1.18481">
        <ele>51</ele>
        <time>2012-04-03T14:52:21Z</time>
      </trkpt>
      <trkpt lat="49.29579" lon="1.18471">
        <ele>51</ele>
        <time>2012-04-03T14:52:28Z</time>
      </trkpt>
      <trkpt lat="49.29571" lon="1.18462">
        <ele>51</ele>
        <time>2012-04-03T14:52:36Z</time>
      </trkpt>
      <trkpt lat="49.29562" lon="1.18455">
        <ele>51</ele>
        <time>2012-04-03T14:52:44Z</time>
      </trkpt>
      <trkpt lat="49.29555" lon="1.18446">
        <ele>51</ele>
        <time>2012-04-03T14:52:52Z</time>
      </trkpt>
      <trkpt lat="49.29547" lon="1.18437">
        <ele>51</ele>
        <time>2012-04-03T14:52:59Z</time>
      </trkpt>
      <trkpt lat="49.29539" lon="1.18429">
        <ele>51</ele>
        <time>2012-04-03T14:53:06Z</time>
      </trkpt>
      <trkpt lat="49.29532" lon="1.1842">
        <ele>58</ele>
        <time>2012-04-03T14:53:15Z</time>
      </trkpt>
      <trkpt lat="49.29524" lon="1.1841">
        <ele>58</ele>
        <time>2012-04-03T14:53:23Z</time>
      </trkpt>
      <trkpt lat="49.29516" lon="1.18402">
        <ele>58</ele>
        <time>2012-04-03T14:53:30Z</time>
      </trkpt>
      <trkpt lat="49.29509" lon="1.18393">
        <ele>58</ele>
        <time>2012-04-03T14:53:37Z</time>
      </trkpt>
      <trkpt lat="49.29501" lon="1.18385">
        <ele>58</ele>
        <time>2012-04-03T14:53:45Z</time>
      </trkpt>
      <trkpt lat="49.29494" lon="1.18375">
        <ele>58</ele>
        <time>2012-04-03T14:53:54Z</time>
      </trkpt>
      <trkpt lat="49.29486" lon="1.18367">
        <ele>58</ele>
        <time>2012-04-03T14:54:02Z</time>
      </trkpt>
      <trkpt lat="49.29477" lon="1.1836">
        <ele>58</ele>
        <time>2012-04-03T14:54:11Z</time>
      </trkpt>
      <trkpt lat="49.29469" lon="1.18352">
        <ele>58</ele>
        <time>2012-04-03T14:54:18Z</time>
      </trkpt>
      <trkpt lat="49.29462" lon="1.18341">
        <ele>58</ele>
        <time>2012-04-03T14:54:27Z</time>
      </trkpt>
      <trkpt lat="49.29455" lon="1.18332">
        <ele>58</ele>
        <time>2012-04-03T14:54:37Z</time>
      </trkpt>
      <trkpt lat="49.29448" lon="1.18322">
        <ele>58</ele>
        <time>2012-04-03T14:54:47Z</time>
      </trkpt>
      <trkpt lat="49.2944" lon="1.18313">
        <ele>58</ele>
        <time>2012-04-03T14:54:56Z</time>
      </trkpt>
      <trkpt lat="49.29431" lon="1.18305">
        <ele>58</ele>
        <time>2012-04-03T14:55:08Z</time>
      </trkpt>
      <trkpt lat="49.29422" lon="1.18297">
        <ele>52</ele>
        <time>2012-04-03T14:55:18Z</time>
      </trkpt>
      <trkpt lat="49.29414" lon="1.18289">
        <ele>52</ele>
        <time>2012-04-03T14:55:27Z</time>
      </trkpt>
      <trkpt lat="49.29408" lon="1.18279">
        <ele>41</ele>
        <time>2012-04-03T14:55:35Z</time>
      </trkpt>
      <trkpt lat="49.2941" lon="1.18265">
        <ele>41</ele>
        <time>2012-04-03T14:56:06Z</time>
      </trkpt>
      <trkpt lat="49.29403" lon="1.18256">
        <ele>41</ele>
        <time>2012-04-03T14:57:06Z</time>
      </trkpt>
      <trkpt lat="49.29411" lon="1.18252">
        <ele>34</ele>
        <time>2012-04-03T14:58:11Z</time>
      </trkpt>
      <trkpt lat="49.29414" lon="1.18239">
        <ele>34</ele>
        <time>2012-04-03T14:58:23Z</time>
      </trkpt>
      <trkpt lat="49.29419" lon="1.18226">
        <ele>43</ele>
        <time>2012-04-03T14:58:31Z</time>
      </trkpt>
      <trkpt lat="49.29422" lon="1.18213">
        <ele>43</ele>
        <time>2012-04-03T14:58:40Z</time>
      </trkpt>
      <trkpt lat="49.29427" lon="1.182">
        <ele>50</ele>
        <time>2012-04-03T14:58:47Z</time>
      </trkpt>
      <trkpt lat="49.29431" lon="1.18187">
        <ele>50</ele>
        <time>2012-04-03T14:58:56Z</time>
      </trkpt>
      <trkpt lat="49.29438" lon="1.18175">
        <ele>45</ele>
        <time>2012-04-03T14:59:03Z</time>
      </trkpt>
      <trkpt lat="49.29444" lon="1.18164">
        <ele>45</ele>
        <time>2012-04-03T14:59:10Z</time>
      </trkpt>
      <trkpt lat="49.29446" lon="1.1815">
        <ele>51</ele>
        <time>2012-04-03T14:59:18Z</time>
      </trkpt>
      <trkpt lat="49.29451" lon="1.18137">
        <ele>58</ele>
        <time>2012-04-03T14:59:26Z</time>
      </trkpt>
      <trkpt lat="49.29455" lon="1.18123">
        <ele>58</ele>
        <time>2012-04-03T14:59:35Z</time>
      </trkpt>
      <trkpt lat="49.2946" lon="1.18111">
        <ele>58</ele>
        <time>2012-04-03T14:59:43Z</time>
      </trkpt>
      <trkpt lat="49.29467" lon="1.18101">
        <ele>47</ele>
        <time>2012-04-03T14:59:51Z</time>
      </trkpt>
      <trkpt lat="49.29474" lon="1.18089">
        <ele>41</ele>
        <time>2012-04-03T14:59:59Z</time>
      </trkpt>
      <trkpt lat="49.29479" lon="1.18078">
        <ele>41</ele>
        <time>2012-04-03T15:00:06Z</time>
      </trkpt>
      <trkpt lat="49.29487" lon="1.18067">
        <ele>41</ele>
        <time>2012-04-03T15:00:13Z</time>
      </trkpt>
      <trkpt lat="49.29494" lon="1.18058">
        <ele>32</ele>
        <time>2012-04-03T15:00:20Z</time>
      </trkpt>
      <trkpt lat="49.29501" lon="1.18048">
        <ele>32</ele>
        <time>2012-04-03T15:00:29Z</time>
      </trkpt>
      <trkpt lat="49.29508" lon="1.18038">
        <ele>32</ele>
        <time>2012-04-03T15:00:36Z</time>
      </trkpt>
      <trkpt lat="49.29515" lon="1.18029">
        <ele>32</ele>
        <time>2012-04-03T15:00:42Z</time>
      </trkpt>
      <trkpt lat="49.29522" lon="1.18019">
        <ele>27</ele>
        <time>2012-04-03T15:00:49Z</time>
      </trkpt>
      <trkpt lat="49.29528" lon="1.18008">
        <ele>27</ele>
        <time>2012-04-03T15:00:58Z</time>
      </trkpt>
      <trkpt lat="49.29535" lon="1.17999">
        <ele>33</ele>
        <time>2012-04-03T15:01:04Z</time>
      </trkpt>
      <trkpt lat="49.29542" lon="1.17989">
        <ele>33</ele>
        <time>2012-04-03T15:01:11Z</time>
      </trkpt>
      <trkpt lat="49.29547" lon="1.17978">
        <ele>33</ele>
        <time>2012-04-03T15:01:19Z</time>
      </trkpt>
      <trkpt lat="49.29554" lon="1.17969">
        <ele>33</ele>
        <time>2012-04-03T15:01:27Z</time>
      </trkpt>
      <trkpt lat="49.2956" lon="1.17958">
        <ele>33</ele>
        <time>2012-04-03T15:01:34Z</time>
      </trkpt>
      <trkpt lat="49.29568" lon="1.1795">
        <ele>33</ele>
        <time>2012-04-03T15:01:41Z</time>
      </trkpt>
      <trkpt lat="49.29573" lon="1.17938">
        <ele>33</ele>
        <time>2012-04-03T15:01:49Z</time>
      </trkpt>
      <trkpt lat="49.29581" lon="1.17928">
        <ele>33</ele>
        <time>2012-04-03T15:01:56Z</time>
      </trkpt>
      <trkpt lat="49.29589" lon="1.1792">
        <ele>33</ele>
        <time>2012-04-03T15:02:03Z</time>
      </trkpt>
      <trkpt lat="49.29596" lon="1.1791">
        <ele>33</ele>
        <time>2012-04-03T15:02:11Z</time>
      </trkpt>
      <trkpt lat="49.29602" lon="1.17899">
        <ele>33</ele>
        <time>2012-04-03T15:02:18Z</time>
      </trkpt>
      <trkpt lat="49.2961" lon="1.1789">
        <ele>33</ele>
        <time>2012-04-03T15:02:25Z</time>
      </trkpt>
      <trkpt lat="49.29618" lon="1.17881">
        <ele>39</ele>
        <time>2012-04-03T15:02:32Z</time>
      </trkpt>
      <trkpt lat="49.29624" lon="1.1787">
        <ele>39</ele>
        <time>2012-04-03T15:02:41Z</time>
      </trkpt>
      <trkpt lat="49.2963" lon="1.17859">
        <ele>32</ele>
        <time>2012-04-03T15:02:49Z</time>
      </trkpt>
      <trkpt lat="49.29636" lon="1.17846">
        <ele>32</ele>
        <time>2012-04-03T15:02:57Z</time>
      </trkpt>
      <trkpt lat="49.2964" lon="1.17832">
        <ele>47</ele>
        <time>2012-04-03T15:03:04Z</time>
      </trkpt>
      <trkpt lat="49.29648" lon="1.17823">
        <ele>47</ele>
        <time>2012-04-03T15:03:12Z</time>
      </trkpt>
      <trkpt lat="49.29656" lon="1.17815">
        <ele>47</ele>
        <time>2012-04-03T15:03:20Z</time>
      </trkpt>
      <trkpt lat="49.29662" lon="1.17802">
        <ele>38</ele>
        <time>2012-04-03T15:03:27Z</time>
      </trkpt>
      <trkpt lat="49.2967" lon="1.17796">
        <ele>28</ele>
        <time>2012-04-03T15:03:33Z</time>
      </trkpt>
      <trkpt lat="49.29677" lon="1.17784">
        <ele>42</ele>
        <time>2012-04-03T15:03:42Z</time>
      </trkpt>
      <trkpt lat="49.29685" lon="1.17775">
        <ele>42</ele>
        <time>2012-04-03T15:03:49Z</time>
      </trkpt>
      <trkpt lat="49.29693" lon="1.17767">
        <ele>36</ele>
        <time>2012-04-03T15:03:56Z</time>
      </trkpt>
      <trkpt lat="49.297" lon="1.17757">
        <ele>36</ele>
        <time>2012-04-03T15:04:04Z</time>
      </trkpt>
      <trkpt lat="49.29708" lon="1.17747">
        <ele>31</ele>
        <time>2012-04-03T15:04:13Z</time>
      </trkpt>
      <trkpt lat="49.29716" lon="1.17737">
        <ele>23</ele>
        <time>2012-04-03T15:04:21Z</time>
      </trkpt>
      <trkpt lat="49.29724" lon="1.17728">
        <ele>23</ele>
        <time>2012-04-03T15:04:29Z</time>
      </trkpt>
      <trkpt lat="49.29732" lon="1.17719">
        <ele>23</ele>
        <time>2012-04-03T15:04:37Z</time>
      </trkpt>
      <trkpt lat="49.29739" lon="1.17709">
        <ele>23</ele>
        <time>2012-04-03T15:04:45Z</time>
      </trkpt>
      <trkpt lat="49.29746" lon="1.17699">
        <ele>16</ele>
        <time>2012-04-03T15:04:52Z</time>
      </trkpt>
      <trkpt lat="49.29726" lon="1.17728">
        <ele>25</ele>
        <time>2012-04-03T15:05:05Z</time>
      </trkpt>
      <trkpt lat="49.29712" lon="1.17731">
        <ele>25</ele>
        <time>2012-04-03T15:05:13Z</time>
      </trkpt>
      <trkpt lat="49.29697" lon="1.17733">
        <ele>25</ele>
        <time>2012-04-03T15:05:16Z</time>
      </trkpt>
      <trkpt lat="49.29629" lon="1.17621">
        <ele>32</ele>
        <time>2012-04-03T15:05:32Z</time>
      </trkpt>
      <trkpt lat="49.29636" lon="1.17605">
        <ele>32</ele>
        <time>2012-04-03T15:05:35Z</time>
      </trkpt>
      <trkpt lat="49.29649" lon="1.17608">
        <ele>32</ele>
        <time>2012-04-03T15:05:36Z</time>
      </trkpt>
      <trkpt lat="49.29775" lon="1.17602">
        <ele>51</ele>
        <time>2012-04-03T15:05:37Z</time>
      </trkpt>
      <trkpt lat="49.29777" lon="1.17618">
        <ele>79</ele>
        <time>2012-04-03T15:05:40Z</time>
      </trkpt>
      <trkpt lat="49.29786" lon="1.17625">
        <ele>58</ele>
        <time>2012-04-03T15:05:42Z</time>
      </trkpt>
      <trkpt lat="49.29795" lon="1.17625">
        <ele>36</ele>
        <time>2012-04-03T15:05:48Z</time>
      </trkpt>
      <trkpt lat="49.29803" lon="1.17617">
        <ele>30</ele>
        <time>2012-04-03T15:05:56Z</time>
      </trkpt>
      <trkpt lat="49.29811" lon="1.17609">
        <ele>30</ele>
        <time>2012-04-03T15:06:05Z</time>
      </trkpt>
      <trkpt lat="49.29817" lon="1.17599">
        <ele>30</ele>
        <time>2012-04-03T15:06:14Z</time>
      </trkpt>
      <trkpt lat="49.29826" lon="1.1759">
        <ele>30</ele>
        <time>2012-04-03T15:06:23Z</time>
      </trkpt>
      <trkpt lat="49.29833" lon="1.1758">
        <ele>30</ele>
        <time>2012-04-03T15:06:31Z</time>
      </trkpt>
      <trkpt lat="49.29838" lon="1.17568">
        <ele>30</ele>
        <time>2012-04-03T15:06:40Z</time>
      </trkpt>
      <trkpt lat="49.29845" lon="1.17557">
        <ele>30</ele>
        <time>2012-04-03T15:06:47Z</time>
      </trkpt>
      <trkpt lat="49.29853" lon="1.17546">
        <ele>30</ele>
        <time>2012-04-03T15:06:55Z</time>
      </trkpt>
      <trkpt lat="49.29859" lon="1.17536">
        <ele>30</ele>
        <time>2012-04-03T15:07:04Z</time>
      </trkpt>
      <trkpt lat="49.29867" lon="1.17527">
        <ele>30</ele>
        <time>2012-04-03T15:07:11Z</time>
      </trkpt>
      <trkpt lat="49.29874" lon="1.17518">
        <ele>30</ele>
        <time>2012-04-03T15:07:19Z</time>
      </trkpt>
      <trkpt lat="49.29883" lon="1.17508">
        <ele>30</ele>
        <time>2012-04-03T15:07:27Z</time>
      </trkpt>
      <trkpt lat="49.29888" lon="1.17496">
        <ele>30</ele>
        <time>2012-04-03T15:07:36Z</time>
      </trkpt>
      <trkpt lat="49.29894" lon="1.17485">
        <ele>30</ele>
        <time>2012-04-03T15:07:44Z</time>
      </trkpt>
      <trkpt lat="49.299" lon="1.17475">
        <ele>30</ele>
        <time>2012-04-03T15:07:53Z</time>
      </trkpt>
      <trkpt lat="49.29907" lon="1.17465">
        <ele>30</ele>
        <time>2012-04-03T15:08:02Z</time>
      </trkpt>
      <trkpt lat="49.29917" lon="1.17457">
        <ele>30</ele>
        <time>2012-04-03T15:08:11Z</time>
      </trkpt>
      <trkpt lat="49.29924" lon="1.17449">
        <ele>30</ele>
        <time>2012-04-03T15:08:19Z</time>
      </trkpt>
      <trkpt lat="49.29934" lon="1.17449">
        <ele>30</ele>
        <time>2012-04-03T15:08:41Z</time>
      </trkpt>
      <trkpt lat="49.29941" lon="1.1746">
        <ele>30</ele>
        <time>2012-04-03T15:08:52Z</time>
      </trkpt>
      <trkpt lat="49.29949" lon="1.17465">
        <ele>30</ele>
        <time>2012-04-03T15:09:01Z</time>
      </trkpt>
      <trkpt lat="49.29959" lon="1.17468">
        <ele>30</ele>
        <time>2012-04-03T15:09:11Z</time>
      </trkpt>
      <trkpt lat="49.29968" lon="1.17473">
        <ele>30</ele>
        <time>2012-04-03T15:09:19Z</time>
      </trkpt>
      <trkpt lat="49.29978" lon="1.17477">
        <ele>30</ele>
        <time>2012-04-03T15:09:27Z</time>
      </trkpt>
      <trkpt lat="49.29987" lon="1.17483">
        <ele>30</ele>
        <time>2012-04-03T15:09:36Z</time>
      </trkpt>
      <trkpt lat="49.29996" lon="1.17488">
        <ele>30</ele>
        <time>2012-04-03T15:09:44Z</time>
      </trkpt>
      <trkpt lat="49.30004" lon="1.17496">
        <ele>30</ele>
        <time>2012-04-03T15:09:51Z</time>
      </trkpt>
      <trkpt lat="49.30012" lon="1.17505">
        <ele>30</ele>
        <time>2012-04-03T15:09:59Z</time>
      </trkpt>
      <trkpt lat="49.30019" lon="1.17515">
        <ele>30</ele>
        <time>2012-04-03T15:10:07Z</time>
      </trkpt>
      <trkpt lat="49.30026" lon="1.17526">
        <ele>30</ele>
        <time>2012-04-03T15:10:15Z</time>
      </trkpt>
      <trkpt lat="49.30032" lon="1.17537">
        <ele>30</ele>
        <time>2012-04-03T15:10:23Z</time>
      </trkpt>
      <trkpt lat="49.30038" lon="1.17548">
        <ele>30</ele>
        <time>2012-04-03T15:10:30Z</time>
      </trkpt>
      <trkpt lat="49.30043" lon="1.1756">
        <ele>30</ele>
        <time>2012-04-03T15:10:38Z</time>
      </trkpt>
      <trkpt lat="49.30049" lon="1.17572">
        <ele>30</ele>
        <time>2012-04-03T15:10:46Z</time>
      </trkpt>
      <trkpt lat="49.30055" lon="1.17585">
        <ele>30</ele>
        <time>2012-04-03T15:10:54Z</time>
      </trkpt>
      <trkpt lat="49.30061" lon="1.17599">
        <ele>30</ele>
        <time>2012-04-03T15:11:02Z</time>
      </trkpt>
      <trkpt lat="49.30066" lon="1.17611">
        <ele>30</ele>
        <time>2012-04-03T15:11:10Z</time>
      </trkpt>
      <trkpt lat="49.30072" lon="1.17624">
        <ele>30</ele>
        <time>2012-04-03T15:11:18Z</time>
      </trkpt>
      <trkpt lat="49.30078" lon="1.17634">
        <ele>30</ele>
        <time>2012-04-03T15:11:26Z</time>
      </trkpt>
      <trkpt lat="49.30085" lon="1.17645">
        <ele>30</ele>
        <time>2012-04-03T15:11:34Z</time>
      </trkpt>
      <trkpt lat="49.30092" lon="1.17655">
        <ele>30</ele>
        <time>2012-04-03T15:11:42Z</time>
      </trkpt>
      <trkpt lat="49.30099" lon="1.17663">
        <ele>30</ele>
        <time>2012-04-03T15:11:50Z</time>
      </trkpt>
      <trkpt lat="49.30107" lon="1.17671">
        <ele>30</ele>
        <time>2012-04-03T15:11:58Z</time>
      </trkpt>
      <trkpt lat="49.30115" lon="1.17679">
        <ele>30</ele>
        <time>2012-04-03T15:12:06Z</time>
      </trkpt>
      <trkpt lat="49.30123" lon="1.17687">
        <ele>30</ele>
        <time>2012-04-03T15:12:15Z</time>
      </trkpt>
      <trkpt lat="49.30132" lon="1.17695">
        <ele>30</ele>
        <time>2012-04-03T15:12:24Z</time>
      </trkpt>
      <trkpt lat="49.30141" lon="1.17701">
        <ele>24</ele>
        <time>2012-04-03T15:12:31Z</time>
      </trkpt>
      <trkpt lat="49.3015" lon="1.17704">
        <ele>24</ele>
        <time>2012-04-03T15:12:40Z</time>
      </trkpt>
      <trkpt lat="49.3016" lon="1.17707">
        <ele>24</ele>
        <time>2012-04-03T15:12:48Z</time>
      </trkpt>
      <trkpt lat="49.30169" lon="1.17711">
        <ele>24</ele>
        <time>2012-04-03T15:12:55Z</time>
      </trkpt>
      <trkpt lat="49.30178" lon="1.17713">
        <ele>19</ele>
        <time>2012-04-03T15:13:03Z</time>
      </trkpt>
      <trkpt lat="49.30187" lon="1.17717">
        <ele>19</ele>
        <time>2012-04-03T15:13:12Z</time>
      </trkpt>
      <trkpt lat="49.30196" lon="1.17722">
        <ele>19</ele>
        <time>2012-04-03T15:13:22Z</time>
      </trkpt>
      <trkpt lat="49.30205" lon="1.17729">
        <ele>19</ele>
        <time>2012-04-03T15:13:30Z</time>
      </trkpt>
      <trkpt lat="49.30213" lon="1.17737">
        <ele>19</ele>
        <time>2012-04-03T15:13:39Z</time>
      </trkpt>
      <trkpt lat="49.3022" lon="1.17745">
        <ele>19</ele>
        <time>2012-04-03T15:13:46Z</time>
      </trkpt>
      <trkpt lat="49.30227" lon="1.17756">
        <ele>19</ele>
        <time>2012-04-03T15:13:56Z</time>
      </trkpt>
      <trkpt lat="49.30233" lon="1.17767">
        <ele>14</ele>
        <time>2012-04-03T15:14:05Z</time>
      </trkpt>
      <trkpt lat="49.3024" lon="1.17775">
        <ele>14</ele>
        <time>2012-04-03T15:14:15Z</time>
      </trkpt>
      <trkpt lat="49.30248" lon="1.17782">
        <ele>14</ele>
        <time>2012-04-03T15:14:24Z</time>
      </trkpt>
      <trkpt lat="49.30257" lon="1.17789">
        <ele>14</ele>
        <time>2012-04-03T15:14:32Z</time>
      </trkpt>
      <trkpt lat="49.30266" lon="1.17793">
        <ele>14</ele>
        <time>2012-04-03T15:14:41Z</time>
      </trkpt>
      <trkpt lat="49.30275" lon="1.17797">
        <ele>14</ele>
        <time>2012-04-03T15:14:48Z</time>
      </trkpt>
      <trkpt lat="49.30284" lon="1.17802">
        <ele>7</ele>
        <time>2012-04-03T15:14:56Z</time>
      </trkpt>
      <trkpt lat="49.30294" lon="1.17809">
        <ele>7</ele>
        <time>2012-04-03T15:15:04Z</time>
      </trkpt>
      <trkpt lat="49.30303" lon="1.17812">
        <ele>7</ele>
        <time>2012-04-03T15:15:12Z</time>
      </trkpt>
      <trkpt lat="49.30312" lon="1.17816">
        <ele>7</ele>
        <time>2012-04-03T15:15:20Z</time>
      </trkpt>
      <trkpt lat="49.30315" lon="1.17802">
        <ele>7</ele>
        <time>2012-04-03T15:15:30Z</time>
      </trkpt>
      <trkpt lat="49.30315" lon="1.17787">
        <ele>7</ele>
        <time>2012-04-03T15:15:40Z</time>
      </trkpt>
      <trkpt lat="49.30314" lon="1.17772">
        <ele>7</ele>
        <time>2012-04-03T15:15:54Z</time>
      </trkpt>
      <trkpt lat="49.30314" lon="1.17757">
        <ele>7</ele>
        <time>2012-04-03T15:16:02Z</time>
      </trkpt>
      <trkpt lat="49.30314" lon="1.17742">
        <ele>7</ele>
        <time>2012-04-03T15:16:10Z</time>
      </trkpt>
      <trkpt lat="49.30314" lon="1.17728">
        <ele>7</ele>
        <time>2012-04-03T15:16:18Z</time>
      </trkpt>
      <trkpt lat="49.30315" lon="1.17713">
        <ele>13</ele>
        <time>2012-04-03T15:16:26Z</time>
      </trkpt>
      <trkpt lat="49.30317" lon="1.17699">
        <ele>13</ele>
        <time>2012-04-03T15:16:35Z</time>
      </trkpt>
      <trkpt lat="49.3032" lon="1.17685">
        <ele>13</ele>
        <time>2012-04-03T15:16:44Z</time>
      </trkpt>
      <trkpt lat="49.30323" lon="1.17671">
        <ele>13</ele>
        <time>2012-04-03T15:16:51Z</time>
      </trkpt>
      <trkpt lat="49.30324" lon="1.17656">
        <ele>13</ele>
        <time>2012-04-03T15:16:59Z</time>
      </trkpt>
      <trkpt lat="49.30324" lon="1.17642">
        <ele>13</ele>
        <time>2012-04-03T15:17:07Z</time>
      </trkpt>
      <trkpt lat="49.30324" lon="1.17627">
        <ele>13</ele>
        <time>2012-04-03T15:17:15Z</time>
      </trkpt>
      <trkpt lat="49.30323" lon="1.17612">
        <ele>13</ele>
        <time>2012-04-03T15:17:24Z</time>
      </trkpt>
      <trkpt lat="49.30322" lon="1.17598">
        <ele>13</ele>
        <time>2012-04-03T15:17:32Z</time>
      </trkpt>
      <trkpt lat="49.30321" lon="1.17582">
        <ele>13</ele>
        <time>2012-04-03T15:17:40Z</time>
      </trkpt>
      <trkpt lat="49.3032" lon="1.17568">
        <ele>7</ele>
        <time>2012-04-03T15:17:48Z</time>
      </trkpt>
      <trkpt lat="49.30319" lon="1.17554">
        <ele>7</ele>
        <time>2012-04-03T15:17:56Z</time>
      </trkpt>
      <trkpt lat="49.30318" lon="1.17539">
        <ele>7</ele>
        <time>2012-04-03T15:18:04Z</time>
      </trkpt>
      <trkpt lat="49.30317" lon="1.17524">
        <ele>7</ele>
        <time>2012-04-03T15:18:12Z</time>
      </trkpt>
      <trkpt lat="49.30317" lon="1.1751">
        <ele>7</ele>
        <time>2012-04-03T15:18:20Z</time>
      </trkpt>
      <trkpt lat="49.30317" lon="1.17494">
        <ele>7</ele>
        <time>2012-04-03T15:18:28Z</time>
      </trkpt>
      <trkpt lat="49.30318" lon="1.1748">
        <ele>7</ele>
        <time>2012-04-03T15:18:36Z</time>
      </trkpt>
      <trkpt lat="49.30318" lon="1.17466">
        <ele>7</ele>
        <time>2012-04-03T15:18:44Z</time>
      </trkpt>
      <trkpt lat="49.30319" lon="1.17451">
        <ele>7</ele>
        <time>2012-04-03T15:18:52Z</time>
      </trkpt>
      <trkpt lat="49.3032" lon="1.17437">
        <ele>7</ele>
        <time>2012-04-03T15:19:00Z</time>
      </trkpt>
      <trkpt lat="49.3032" lon="1.17422">
        <ele>7</ele>
        <time>2012-04-03T15:19:08Z</time>
      </trkpt>
      <trkpt lat="49.30321" lon="1.17407">
        <ele>7</ele>
        <time>2012-04-03T15:19:16Z</time>
      </trkpt>
      <trkpt lat="49.30321" lon="1.17392">
        <ele>7</ele>
        <time>2012-04-03T15:19:24Z</time>
      </trkpt>
      <trkpt lat="49.30323" lon="1.17378">
        <ele>7</ele>
        <time>2012-04-03T15:19:32Z</time>
      </trkpt>
      <trkpt lat="49.30323" lon="1.17362">
        <ele>7</ele>
        <time>2012-04-03T15:19:40Z</time>
      </trkpt>
      <trkpt lat="49.30323" lon="1.17347">
        <ele>7</ele>
        <time>2012-04-03T15:19:48Z</time>
      </trkpt>
      <trkpt lat="49.30324" lon="1.17332">
        <ele>7</ele>
        <time>2012-04-03T15:19:56Z</time>
      </trkpt>
      <trkpt lat="49.30325" lon="1.17317">
        <ele>7</ele>
        <time>2012-04-03T15:20:04Z</time>
      </trkpt>
      <trkpt lat="49.30327" lon="1.17303">
        <ele>7</ele>
        <time>2012-04-03T15:20:12Z</time>
      </trkpt>
      <trkpt lat="49.30328" lon="1.17289">
        <ele>7</ele>
        <time>2012-04-03T15:20:20Z</time>
      </trkpt>
      <trkpt lat="49.30331" lon="1.17274">
        <ele>7</ele>
        <time>2012-04-03T15:20:28Z</time>
      </trkpt>
      <trkpt lat="49.30332" lon="1.1726">
        <ele>7</ele>
        <time>2012-04-03T15:20:36Z</time>
      </trkpt>
      <trkpt lat="49.30335" lon="1.17246">
        <ele>7</ele>
        <time>2012-04-03T15:20:43Z</time>
      </trkpt>
      <trkpt lat="49.30337" lon="1.17231">
        <ele>7</ele>
        <time>2012-04-03T15:20:52Z</time>
      </trkpt>
      <trkpt lat="49.3034" lon="1.17217">
        <ele>7</ele>
        <time>2012-04-03T15:21:00Z</time>
      </trkpt>
      <trkpt lat="49.30344" lon="1.17203">
        <ele>7</ele>
        <time>2012-04-03T15:21:07Z</time>
      </trkpt>
      <trkpt lat="49.30344" lon="1.17189">
        <ele>7</ele>
        <time>2012-04-03T15:21:16Z</time>
      </trkpt>
      <trkpt lat="49.30348" lon="1.17175">
        <ele>7</ele>
        <time>2012-04-03T15:21:26Z</time>
      </trkpt>
      <trkpt lat="49.30347" lon="1.1716">
        <ele>7</ele>
        <time>2012-04-03T15:21:36Z</time>
      </trkpt>
      <trkpt lat="49.30349" lon="1.17147">
        <ele>7</ele>
        <time>2012-04-03T15:21:44Z</time>
      </trkpt>
      <trkpt lat="49.30351" lon="1.17133">
        <ele>7</ele>
        <time>2012-04-03T15:21:51Z</time>
      </trkpt>
      <trkpt lat="49.30353" lon="1.17119">
        <ele>7</ele>
        <time>2012-04-03T15:21:59Z</time>
      </trkpt>
      <trkpt lat="49.30354" lon="1.17104">
        <ele>7</ele>
        <time>2012-04-03T15:22:08Z</time>
      </trkpt>
      <trkpt lat="49.30357" lon="1.1709">
        <ele>7</ele>
        <time>2012-04-03T15:22:16Z</time>
      </trkpt>
      <trkpt lat="49.30358" lon="1.17075">
        <ele>7</ele>
        <time>2012-04-03T15:22:25Z</time>
      </trkpt>
      <trkpt lat="49.30358" lon="1.1706">
        <ele>7</ele>
        <time>2012-04-03T15:22:34Z</time>
      </trkpt>
      <trkpt lat="49.30361" lon="1.17045">
        <ele>7</ele>
        <time>2012-04-03T15:22:43Z</time>
      </trkpt>
      <trkpt lat="49.30362" lon="1.17031">
        <ele>7</ele>
        <time>2012-04-03T15:22:51Z</time>
      </trkpt>
      <trkpt lat="49.30365" lon="1.17017">
        <ele>7</ele>
        <time>2012-04-03T15:23:00Z</time>
      </trkpt>
      <trkpt lat="49.30366" lon="1.17002">
        <ele>7</ele>
        <time>2012-04-03T15:23:10Z</time>
      </trkpt>
      <trkpt lat="49.30369" lon="1.16988">
        <ele>7</ele>
        <time>2012-04-03T15:23:19Z</time>
      </trkpt>
      <trkpt lat="49.30371" lon="1.16973">
        <ele>7</ele>
        <time>2012-04-03T15:23:28Z</time>
      </trkpt>
      <trkpt lat="49.30372" lon="1.16958">
        <ele>7</ele>
        <time>2012-04-03T15:23:37Z</time>
      </trkpt>
      <trkpt lat="49.30375" lon="1.16943">
        <ele>7</ele>
        <time>2012-04-03T15:23:46Z</time>
      </trkpt>
      <trkpt lat="49.30377" lon="1.16928">
        <ele>7</ele>
        <time>2012-04-03T15:23:54Z</time>
      </trkpt>
      <trkpt lat="49.30378" lon="1.16914">
        <ele>7</ele>
        <time>2012-04-03T15:24:01Z</time>
      </trkpt>
      <trkpt lat="49.30383" lon="1.169">
        <ele>7</ele>
        <time>2012-04-03T15:24:08Z</time>
      </trkpt>
      <trkpt lat="49.30388" lon="1.16886">
        <ele>1</ele>
        <time>2012-04-03T15:24:16Z</time>
      </trkpt>
      <trkpt lat="49.30383" lon="1.16874">
        <ele>1</ele>
        <time>2012-04-03T15:25:19Z</time>
      </trkpt>
      <trkpt lat="49.30385" lon="1.16857">
        <ele>1</ele>
        <time>2012-04-03T15:25:26Z</time>
      </trkpt>
      <trkpt lat="49.30388" lon="1.16843">
        <ele>1</ele>
        <time>2012-04-03T15:25:33Z</time>
      </trkpt>
      <trkpt lat="49.30391" lon="1.16829">
        <ele>1</ele>
        <time>2012-04-03T15:25:40Z</time>
      </trkpt>
      <trkpt lat="49.30394" lon="1.16815">
        <ele>1</ele>
        <time>2012-04-03T15:25:46Z</time>
      </trkpt>
      <trkpt lat="49.30398" lon="1.16801">
        <ele>1</ele>
        <time>2012-04-03T15:25:53Z</time>
      </trkpt>
      <trkpt lat="49.30401" lon="1.16786">
        <ele>1</ele>
        <time>2012-04-03T15:26:00Z</time>
      </trkpt>
      <trkpt lat="49.30403" lon="1.16772">
        <ele>1</ele>
        <time>2012-04-03T15:26:07Z</time>
      </trkpt>
      <trkpt lat="49.30405" lon="1.16757">
        <ele>1</ele>
        <time>2012-04-03T15:26:15Z</time>
      </trkpt>
      <trkpt lat="49.30408" lon="1.16741">
        <ele>7</ele>
        <time>2012-04-03T15:26:23Z</time>
      </trkpt>
      <trkpt lat="49.30409" lon="1.16725">
        <ele>7</ele>
        <time>2012-04-03T15:26:31Z</time>
      </trkpt>
      <trkpt lat="49.30412" lon="1.16712">
        <ele>7</ele>
        <time>2012-04-03T15:26:37Z</time>
      </trkpt>
      <trkpt lat="49.30413" lon="1.16697">
        <ele>7</ele>
        <time>2012-04-03T15:26:45Z</time>
      </trkpt>
      <trkpt lat="49.30414" lon="1.16681">
        <ele>7</ele>
        <time>2012-04-03T15:26:53Z</time>
      </trkpt>
      <trkpt lat="49.30415" lon="1.16665">
        <ele>14</ele>
        <time>2012-04-03T15:27:01Z</time>
      </trkpt>
      <trkpt lat="49.30417" lon="1.16651">
        <ele>14</ele>
        <time>2012-04-03T15:27:08Z</time>
      </trkpt>
      <trkpt lat="49.30419" lon="1.16636">
        <ele>14</ele>
        <time>2012-04-03T15:27:15Z</time>
      </trkpt>
      <trkpt lat="49.30421" lon="1.16621">
        <ele>14</ele>
        <time>2012-04-03T15:27:22Z</time>
      </trkpt>
      <trkpt lat="49.30424" lon="1.16606">
        <ele>8</ele>
        <time>2012-04-03T15:27:29Z</time>
      </trkpt>
      <trkpt lat="49.30424" lon="1.16591">
        <ele>8</ele>
        <time>2012-04-03T15:27:37Z</time>
      </trkpt>
      <trkpt lat="49.30426" lon="1.16575">
        <ele>8</ele>
        <time>2012-04-03T15:27:44Z</time>
      </trkpt>
      <trkpt lat="49.30429" lon="1.16562">
        <ele>8</ele>
        <time>2012-04-03T15:27:50Z</time>
      </trkpt>
      <trkpt lat="49.30431" lon="1.16547">
        <ele>8</ele>
        <time>2012-04-03T15:27:57Z</time>
      </trkpt>
      <trkpt lat="49.30434" lon="1.16532">
        <ele>8</ele>
        <time>2012-04-03T15:28:04Z</time>
      </trkpt>
      <trkpt lat="49.30438" lon="1.16519">
        <ele>8</ele>
        <time>2012-04-03T15:28:11Z</time>
      </trkpt>
      <trkpt lat="49.30438" lon="1.16503">
        <ele>8</ele>
        <time>2012-04-03T15:28:19Z</time>
      </trkpt>
      <trkpt lat="49.30439" lon="1.16488">
        <ele>8</ele>
        <time>2012-04-03T15:28:27Z</time>
      </trkpt>
      <trkpt lat="49.30441" lon="1.16474">
        <ele>8</ele>
        <time>2012-04-03T15:28:34Z</time>
      </trkpt>
      <trkpt lat="49.30444" lon="1.1646">
        <ele>8</ele>
        <time>2012-04-03T15:28:41Z</time>
      </trkpt>
      <trkpt lat="49.30446" lon="1.16446">
        <ele>8</ele>
        <time>2012-04-03T15:28:49Z</time>
      </trkpt>
      <trkpt lat="49.30448" lon="1.16431">
        <ele>8</ele>
        <time>2012-04-03T15:28:57Z</time>
      </trkpt>
      <trkpt lat="49.30451" lon="1.16415">
        <ele>8</ele>
        <time>2012-04-03T15:29:04Z</time>
      </trkpt>
      <trkpt lat="49.30454" lon="1.16402">
        <ele>8</ele>
        <time>2012-04-03T15:29:11Z</time>
      </trkpt>
      <trkpt lat="49.30457" lon="1.16388">
        <ele>8</ele>
        <time>2012-04-03T15:29:18Z</time>
      </trkpt>
      <trkpt lat="49.30459" lon="1.16374">
        <ele>8</ele>
        <time>2012-04-03T15:29:26Z</time>
      </trkpt>
      <trkpt lat="49.30462" lon="1.16361">
        <ele>8</ele>
        <time>2012-04-03T15:29:33Z</time>
      </trkpt>
      <trkpt lat="49.30463" lon="1.16344">
        <ele>8</ele>
        <time>2012-04-03T15:29:40Z</time>
      </trkpt>
      <trkpt lat="49.30465" lon="1.16328">
        <ele>8</ele>
        <time>2012-04-03T15:29:49Z</time>
      </trkpt>
      <trkpt lat="49.30466" lon="1.16312">
        <ele>14</ele>
        <time>2012-04-03T15:29:58Z</time>
      </trkpt>
      <trkpt lat="49.30469" lon="1.16299">
        <ele>14</ele>
        <time>2012-04-03T15:30:05Z</time>
      </trkpt>
      <trkpt lat="49.30473" lon="1.16283">
        <ele>14</ele>
        <time>2012-04-03T15:30:12Z</time>
      </trkpt>
      <trkpt lat="49.30477" lon="1.1627">
        <ele>14</ele>
        <time>2012-04-03T15:30:19Z</time>
      </trkpt>
      <trkpt lat="49.30479" lon="1.16256">
        <ele>14</ele>
        <time>2012-04-03T15:30:27Z</time>
      </trkpt>
      <trkpt lat="49.30481" lon="1.16241">
        <ele>14</ele>
        <time>2012-04-03T15:30:34Z</time>
      </trkpt>
      <trkpt lat="49.30484" lon="1.16226">
        <ele>14</ele>
        <time>2012-04-03T15:30:41Z</time>
      </trkpt>
      <trkpt lat="49.30486" lon="1.16212">
        <ele>6</ele>
        <time>2012-04-03T15:30:48Z</time>
      </trkpt>
      <trkpt lat="49.30489" lon="1.16197">
        <ele>6</ele>
        <time>2012-04-03T15:30:55Z</time>
      </trkpt>
      <trkpt lat="49.30491" lon="1.16183">
        <ele>6</ele>
        <time>2012-04-03T15:31:03Z</time>
      </trkpt>
      <trkpt lat="49.30493" lon="1.16168">
        <ele>6</ele>
        <time>2012-04-03T15:31:11Z</time>
      </trkpt>
      <trkpt lat="49.30497" lon="1.16154">
        <ele>6</ele>
        <time>2012-04-03T15:31:19Z</time>
      </trkpt>
      <trkpt lat="49.305" lon="1.1614">
        <ele>6</ele>
        <time>2012-04-03T15:31:27Z</time>
      </trkpt>
      <trkpt lat="49.30503" lon="1.16125">
        <ele>6</ele>
        <time>2012-04-03T15:31:34Z</time>
      </trkpt>
      <trkpt lat="49.30503" lon="1.16111">
        <ele>6</ele>
        <time>2012-04-03T15:31:42Z</time>
      </trkpt>
      <trkpt lat="49.30505" lon="1.16097">
        <ele>6</ele>
        <time>2012-04-03T15:31:51Z</time>
      </trkpt>
      <trkpt lat="49.30507" lon="1.16083">
        <ele>6</ele>
        <time>2012-04-03T15:31:59Z</time>
      </trkpt>
      <trkpt lat="49.30508" lon="1.16069">
        <ele>6</ele>
        <time>2012-04-03T15:32:08Z</time>
      </trkpt>
      <trkpt lat="49.30509" lon="1.16054">
        <ele>6</ele>
        <time>2012-04-03T15:32:16Z</time>
      </trkpt>
      <trkpt lat="49.30506" lon="1.1604">
        <ele>6</ele>
        <time>2012-04-03T15:32:25Z</time>
      </trkpt>
      <trkpt lat="49.30505" lon="1.16026">
        <ele>6</ele>
        <time>2012-04-03T15:32:34Z</time>
      </trkpt>
      <trkpt lat="49.30502" lon="1.1601">
        <ele>6</ele>
        <time>2012-04-03T15:32:45Z</time>
      </trkpt>
      <trkpt lat="49.305" lon="1.15995">
        <ele>6</ele>
        <time>2012-04-03T15:32:55Z</time>
      </trkpt>
      <trkpt lat="49.30498" lon="1.15981">
        <ele>6</ele>
        <time>2012-04-03T15:33:05Z</time>
      </trkpt>
      <trkpt lat="49.30496" lon="1.15966">
        <ele>6</ele>
        <time>2012-04-03T15:33:15Z</time>
      </trkpt>
    </trkseg>
  </trk>
</gpx>